<?xml version="1.0" encoding="UTF-8" standalone="no" ?>
<gpx xmlns="http://www.topografix.com/GPX/1/1" xmlns:xsi="http://www.w3.org/2001/XMLSchema-instance" xsi:schemaLocation="http://www.topografix.com/GPX/1/1 http://www.topografix.com/GPX/1/1/gpx.xsd" version="1.1" creator="VisuGPX - https://www.visugpx.com">
  <metadata>
    <name>SityTrail - TÉNÉRÉ SPIRIT CAMP 75KM </name>
  </metadata>
  <trk>
    <name><![CDATA[SityTrail - TÉNÉRÉ SPIRIT CAMP 75KM ]]></name>
    <trkseg>
      <trkpt lat="43.31148" lon="1.80314">
        <ele>264</ele>
        <time>2022-04-13T09:14:43Z</time>
      </trkpt>
      <trkpt lat="43.31148" lon="1.80315">
        <ele>264</ele>
        <time>2022-04-13T09:15:02.999Z</time>
      </trkpt>
      <trkpt lat="43.31144" lon="1.80314">
        <ele>264</ele>
        <time>2022-04-13T09:15:07.999Z</time>
      </trkpt>
      <trkpt lat="43.31137" lon="1.80294">
        <ele>264</ele>
        <time>2022-04-13T09:15:12.999Z</time>
      </trkpt>
      <trkpt lat="43.31143" lon="1.80263">
        <ele>268</ele>
        <time>2022-04-13T09:15:16.999Z</time>
      </trkpt>
      <trkpt lat="43.31159" lon="1.80232">
        <ele>272</ele>
        <time>2022-04-13T09:15:21.999Z</time>
      </trkpt>
      <trkpt lat="43.31181" lon="1.80215">
        <ele>269</ele>
        <time>2022-04-13T09:15:26.999Z</time>
      </trkpt>
      <trkpt lat="43.31206" lon="1.80211">
        <ele>269</ele>
        <time>2022-04-13T09:15:31.999Z</time>
      </trkpt>
      <trkpt lat="43.31228" lon="1.80206">
        <ele>268</ele>
        <time>2022-04-13T09:15:35.999Z</time>
      </trkpt>
      <trkpt lat="43.31249" lon="1.80182">
        <ele>263</ele>
        <time>2022-04-13T09:15:40.999Z</time>
      </trkpt>
      <trkpt lat="43.31257" lon="1.80158">
        <ele>268</ele>
        <time>2022-04-13T09:15:45.999Z</time>
      </trkpt>
      <trkpt lat="43.3128" lon="1.80142">
        <ele>266</ele>
        <time>2022-04-13T09:15:50.999Z</time>
      </trkpt>
      <trkpt lat="43.31295" lon="1.80119">
        <ele>263</ele>
        <time>2022-04-13T09:15:55.999Z</time>
      </trkpt>
      <trkpt lat="43.31309" lon="1.80071">
        <ele>265</ele>
        <time>2022-04-13T09:16:00.999Z</time>
      </trkpt>
      <trkpt lat="43.31346" lon="1.80031">
        <ele>265</ele>
        <time>2022-04-13T09:16:06Z</time>
      </trkpt>
      <trkpt lat="43.31354" lon="1.79985">
        <ele>271</ele>
        <time>2022-04-13T09:16:10Z</time>
      </trkpt>
      <trkpt lat="43.31365" lon="1.79945">
        <ele>274</ele>
        <time>2022-04-13T09:16:15Z</time>
      </trkpt>
      <trkpt lat="43.31382" lon="1.79924">
        <ele>274</ele>
        <time>2022-04-13T09:16:20Z</time>
      </trkpt>
      <trkpt lat="43.31402" lon="1.79904">
        <ele>274</ele>
        <time>2022-04-13T09:16:25Z</time>
      </trkpt>
      <trkpt lat="43.31423" lon="1.79878">
        <ele>275</ele>
        <time>2022-04-13T09:16:30Z</time>
      </trkpt>
      <trkpt lat="43.3144" lon="1.79841">
        <ele>277</ele>
        <time>2022-04-13T09:16:35Z</time>
      </trkpt>
      <trkpt lat="43.31459" lon="1.79809">
        <ele>274</ele>
        <time>2022-04-13T09:16:39.999Z</time>
      </trkpt>
      <trkpt lat="43.31473" lon="1.79775">
        <ele>276</ele>
        <time>2022-04-13T09:16:44.999Z</time>
      </trkpt>
      <trkpt lat="43.31494" lon="1.79725">
        <ele>273</ele>
        <time>2022-04-13T09:16:49.999Z</time>
      </trkpt>
      <trkpt lat="43.3154" lon="1.79682">
        <ele>272</ele>
        <time>2022-04-13T09:16:54.999Z</time>
      </trkpt>
      <trkpt lat="43.31587" lon="1.79636">
        <ele>274</ele>
        <time>2022-04-13T09:16:59.999Z</time>
      </trkpt>
      <trkpt lat="43.3163" lon="1.79597">
        <ele>273</ele>
        <time>2022-04-13T09:17:04.999Z</time>
      </trkpt>
      <trkpt lat="43.31655" lon="1.79579">
        <ele>273</ele>
        <time>2022-04-13T09:17:09.999Z</time>
      </trkpt>
      <trkpt lat="43.31677" lon="1.79542">
        <ele>273</ele>
        <time>2022-04-13T09:17:14.999Z</time>
      </trkpt>
      <trkpt lat="43.31704" lon="1.79497">
        <ele>274</ele>
        <time>2022-04-13T09:17:19.999Z</time>
      </trkpt>
      <trkpt lat="43.3173" lon="1.79445">
        <ele>277</ele>
        <time>2022-04-13T09:17:24.999Z</time>
      </trkpt>
      <trkpt lat="43.31763" lon="1.79399">
        <ele>280</ele>
        <time>2022-04-13T09:17:29.999Z</time>
      </trkpt>
      <trkpt lat="43.31794" lon="1.79366">
        <ele>279</ele>
        <time>2022-04-13T09:17:34.999Z</time>
      </trkpt>
      <trkpt lat="43.31823" lon="1.79324">
        <ele>278</ele>
        <time>2022-04-13T09:17:39.999Z</time>
      </trkpt>
      <trkpt lat="43.31854" lon="1.79283">
        <ele>277</ele>
        <time>2022-04-13T09:17:44.999Z</time>
      </trkpt>
      <trkpt lat="43.31879" lon="1.7925">
        <ele>275</ele>
        <time>2022-04-13T09:17:49.999Z</time>
      </trkpt>
      <trkpt lat="43.31912" lon="1.79204">
        <ele>274</ele>
        <time>2022-04-13T09:17:54.999Z</time>
      </trkpt>
      <trkpt lat="43.31934" lon="1.79175">
        <ele>276</ele>
        <time>2022-04-13T09:17:59.999Z</time>
      </trkpt>
      <trkpt lat="43.31956" lon="1.79141">
        <ele>277</ele>
        <time>2022-04-13T09:18:04.999Z</time>
      </trkpt>
      <trkpt lat="43.3198" lon="1.79105">
        <ele>276</ele>
        <time>2022-04-13T09:18:10Z</time>
      </trkpt>
      <trkpt lat="43.32002" lon="1.79069">
        <ele>276</ele>
        <time>2022-04-13T09:18:15Z</time>
      </trkpt>
      <trkpt lat="43.32027" lon="1.79032">
        <ele>277</ele>
        <time>2022-04-13T09:18:19.999Z</time>
      </trkpt>
      <trkpt lat="43.32052" lon="1.78995">
        <ele>276</ele>
        <time>2022-04-13T09:18:25Z</time>
      </trkpt>
      <trkpt lat="43.32081" lon="1.78952">
        <ele>277</ele>
        <time>2022-04-13T09:18:29.999Z</time>
      </trkpt>
      <trkpt lat="43.32142" lon="1.78861">
        <ele>277</ele>
        <time>2022-04-13T09:18:34.999Z</time>
      </trkpt>
      <trkpt lat="43.32171" lon="1.78799">
        <ele>277</ele>
        <time>2022-04-13T09:18:39.999Z</time>
      </trkpt>
      <trkpt lat="43.32182" lon="1.78775">
        <ele>274</ele>
        <time>2022-04-13T09:18:44.999Z</time>
      </trkpt>
      <trkpt lat="43.32204" lon="1.78741">
        <ele>274</ele>
        <time>2022-04-13T09:18:49.999Z</time>
      </trkpt>
      <trkpt lat="43.32225" lon="1.78697">
        <ele>274</ele>
        <time>2022-04-13T09:18:54.999Z</time>
      </trkpt>
      <trkpt lat="43.32242" lon="1.78656">
        <ele>272</ele>
        <time>2022-04-13T09:18:59.999Z</time>
      </trkpt>
      <trkpt lat="43.32273" lon="1.78604">
        <ele>272</ele>
        <time>2022-04-13T09:19:28.999Z</time>
      </trkpt>
      <trkpt lat="43.32304" lon="1.78546">
        <ele>271</ele>
        <time>2022-04-13T09:19:33.999Z</time>
      </trkpt>
      <trkpt lat="43.32334" lon="1.78493">
        <ele>270</ele>
        <time>2022-04-13T09:19:38.999Z</time>
      </trkpt>
      <trkpt lat="43.32344" lon="1.78477">
        <ele>269</ele>
        <time>2022-04-13T09:19:43.999Z</time>
      </trkpt>
      <trkpt lat="43.32375" lon="1.78464">
        <ele>267</ele>
        <time>2022-04-13T09:19:48.999Z</time>
      </trkpt>
      <trkpt lat="43.32412" lon="1.78451">
        <ele>262</ele>
        <time>2022-04-13T09:19:53.999Z</time>
      </trkpt>
      <trkpt lat="43.3242" lon="1.78439">
        <ele>262</ele>
        <time>2022-04-13T09:19:58.999Z</time>
      </trkpt>
      <trkpt lat="43.32464" lon="1.78474">
        <ele>255</ele>
        <time>2022-04-13T09:20:03.999Z</time>
      </trkpt>
      <trkpt lat="43.32506" lon="1.78521">
        <ele>250</ele>
        <time>2022-04-13T09:20:07.999Z</time>
      </trkpt>
      <trkpt lat="43.32572" lon="1.7863">
        <ele>245</ele>
        <time>2022-04-13T09:20:12.999Z</time>
      </trkpt>
      <trkpt lat="43.32654" lon="1.78673">
        <ele>243</ele>
        <time>2022-04-13T09:20:17.999Z</time>
      </trkpt>
      <trkpt lat="43.32687" lon="1.78707">
        <ele>242</ele>
        <time>2022-04-13T09:20:22.999Z</time>
      </trkpt>
      <trkpt lat="43.32703" lon="1.78741">
        <ele>237</ele>
        <time>2022-04-13T09:20:27.999Z</time>
      </trkpt>
      <trkpt lat="43.32741" lon="1.78828">
        <ele>226</ele>
        <time>2022-04-13T09:20:32.999Z</time>
      </trkpt>
      <trkpt lat="43.3278" lon="1.78924">
        <ele>222</ele>
        <time>2022-04-13T09:20:37.999Z</time>
      </trkpt>
      <trkpt lat="43.32822" lon="1.79021">
        <ele>220</ele>
        <time>2022-04-13T09:20:42.999Z</time>
      </trkpt>
      <trkpt lat="43.3286" lon="1.79116">
        <ele>224</ele>
        <time>2022-04-13T09:20:47.999Z</time>
      </trkpt>
      <trkpt lat="43.32893" lon="1.79205">
        <ele>229</ele>
        <time>2022-04-13T09:20:52.999Z</time>
      </trkpt>
      <trkpt lat="43.32895" lon="1.79301">
        <ele>236</ele>
        <time>2022-04-13T09:20:57.999Z</time>
      </trkpt>
      <trkpt lat="43.329" lon="1.7937">
        <ele>238</ele>
        <time>2022-04-13T09:21:02.999Z</time>
      </trkpt>
      <trkpt lat="43.32922" lon="1.79399">
        <ele>239</ele>
        <time>2022-04-13T09:21:07.999Z</time>
      </trkpt>
      <trkpt lat="43.32949" lon="1.79414">
        <ele>239</ele>
        <time>2022-04-13T09:21:12.999Z</time>
      </trkpt>
      <trkpt lat="43.33003" lon="1.7944">
        <ele>243</ele>
        <time>2022-04-13T09:21:17.999Z</time>
      </trkpt>
      <trkpt lat="43.33044" lon="1.79459">
        <ele>246</ele>
        <time>2022-04-13T09:21:22.999Z</time>
      </trkpt>
      <trkpt lat="43.33056" lon="1.79479">
        <ele>246</ele>
        <time>2022-04-13T09:21:27.999Z</time>
      </trkpt>
      <trkpt lat="43.33097" lon="1.79554">
        <ele>247</ele>
        <time>2022-04-13T09:21:32.999Z</time>
      </trkpt>
      <trkpt lat="43.33134" lon="1.79627">
        <ele>244</ele>
        <time>2022-04-13T09:21:37.999Z</time>
      </trkpt>
      <trkpt lat="43.33147" lon="1.79666">
        <ele>243</ele>
        <time>2022-04-13T09:21:42.999Z</time>
      </trkpt>
      <trkpt lat="43.33142" lon="1.79714">
        <ele>241</ele>
        <time>2022-04-13T09:21:47.999Z</time>
      </trkpt>
      <trkpt lat="43.33118" lon="1.79806">
        <ele>239</ele>
        <time>2022-04-13T09:21:52.999Z</time>
      </trkpt>
      <trkpt lat="43.33096" lon="1.79897">
        <ele>240</ele>
        <time>2022-04-13T09:21:57.999Z</time>
      </trkpt>
      <trkpt lat="43.33078" lon="1.79985">
        <ele>242</ele>
        <time>2022-04-13T09:22:02.999Z</time>
      </trkpt>
      <trkpt lat="43.33065" lon="1.80066">
        <ele>242</ele>
        <time>2022-04-13T09:22:07.999Z</time>
      </trkpt>
      <trkpt lat="43.33071" lon="1.80106">
        <ele>250</ele>
        <time>2022-04-13T09:22:12.999Z</time>
      </trkpt>
      <trkpt lat="43.33087" lon="1.80138">
        <ele>249</ele>
        <time>2022-04-13T09:22:17.999Z</time>
      </trkpt>
      <trkpt lat="43.33112" lon="1.80155">
        <ele>257</ele>
        <time>2022-04-13T09:22:23Z</time>
      </trkpt>
      <trkpt lat="43.33143" lon="1.8016">
        <ele>259</ele>
        <time>2022-04-13T09:22:28Z</time>
      </trkpt>
      <trkpt lat="43.33176" lon="1.80146">
        <ele>259</ele>
        <time>2022-04-13T09:22:33Z</time>
      </trkpt>
      <trkpt lat="43.33204" lon="1.80149">
        <ele>258</ele>
        <time>2022-04-13T09:22:37.999Z</time>
      </trkpt>
      <trkpt lat="43.33227" lon="1.80153">
        <ele>255</ele>
        <time>2022-04-13T09:22:57.999Z</time>
      </trkpt>
      <trkpt lat="43.33249" lon="1.80179">
        <ele>255</ele>
        <time>2022-04-13T09:23:02.999Z</time>
      </trkpt>
      <trkpt lat="43.33296" lon="1.80241">
        <ele>260</ele>
        <time>2022-04-13T09:26:53.999Z</time>
      </trkpt>
      <trkpt lat="43.33351" lon="1.80302">
        <ele>257</ele>
        <time>2022-04-13T09:26:58.999Z</time>
      </trkpt>
      <trkpt lat="43.33412" lon="1.8036">
        <ele>256</ele>
        <time>2022-04-13T09:27:03.999Z</time>
      </trkpt>
      <trkpt lat="43.33471" lon="1.80401">
        <ele>256</ele>
        <time>2022-04-13T09:27:08.999Z</time>
      </trkpt>
      <trkpt lat="43.33541" lon="1.80397">
        <ele>257</ele>
        <time>2022-04-13T09:27:13.999Z</time>
      </trkpt>
      <trkpt lat="43.33605" lon="1.80373">
        <ele>259</ele>
        <time>2022-04-13T09:27:18.999Z</time>
      </trkpt>
      <trkpt lat="43.33755" lon="1.80268">
        <ele>269</ele>
        <time>2022-04-13T09:27:23.999Z</time>
      </trkpt>
      <trkpt lat="43.33793" lon="1.80205">
        <ele>273</ele>
        <time>2022-04-13T09:27:28.999Z</time>
      </trkpt>
      <trkpt lat="43.33832" lon="1.80131">
        <ele>274</ele>
        <time>2022-04-13T09:27:32.999Z</time>
      </trkpt>
      <trkpt lat="43.33873" lon="1.80052">
        <ele>273</ele>
        <time>2022-04-13T09:27:37.999Z</time>
      </trkpt>
      <trkpt lat="43.33903" lon="1.79978">
        <ele>277</ele>
        <time>2022-04-13T09:27:42.999Z</time>
      </trkpt>
      <trkpt lat="43.3393" lon="1.79909">
        <ele>278</ele>
        <time>2022-04-13T09:27:47.999Z</time>
      </trkpt>
      <trkpt lat="43.33949" lon="1.79865">
        <ele>276</ele>
        <time>2022-04-13T09:27:52.999Z</time>
      </trkpt>
      <trkpt lat="43.33965" lon="1.79828">
        <ele>273</ele>
        <time>2022-04-13T09:27:57.999Z</time>
      </trkpt>
      <trkpt lat="43.33983" lon="1.79789">
        <ele>273</ele>
        <time>2022-04-13T09:28:02.999Z</time>
      </trkpt>
      <trkpt lat="43.34007" lon="1.79739">
        <ele>275</ele>
        <time>2022-04-13T09:28:07.999Z</time>
      </trkpt>
      <trkpt lat="43.34018" lon="1.79719">
        <ele>275</ele>
        <time>2022-04-13T09:28:12.999Z</time>
      </trkpt>
      <trkpt lat="43.3408" lon="1.79627">
        <ele>275</ele>
        <time>2022-04-13T09:28:17.999Z</time>
      </trkpt>
      <trkpt lat="43.34104" lon="1.79584">
        <ele>271</ele>
        <time>2022-04-13T09:28:22.999Z</time>
      </trkpt>
      <trkpt lat="43.34135" lon="1.79537">
        <ele>274</ele>
        <time>2022-04-13T09:28:27.999Z</time>
      </trkpt>
      <trkpt lat="43.34169" lon="1.79479">
        <ele>275</ele>
        <time>2022-04-13T09:28:32.999Z</time>
      </trkpt>
      <trkpt lat="43.34198" lon="1.79431">
        <ele>277</ele>
        <time>2022-04-13T09:28:37.999Z</time>
      </trkpt>
      <trkpt lat="43.3422" lon="1.79394">
        <ele>278</ele>
        <time>2022-04-13T09:28:41.999Z</time>
      </trkpt>
      <trkpt lat="43.34245" lon="1.79341">
        <ele>278</ele>
        <time>2022-04-13T09:28:46.999Z</time>
      </trkpt>
      <trkpt lat="43.34267" lon="1.7928">
        <ele>278</ele>
        <time>2022-04-13T09:28:51.999Z</time>
      </trkpt>
      <trkpt lat="43.3429" lon="1.79219">
        <ele>276</ele>
        <time>2022-04-13T09:28:56.999Z</time>
      </trkpt>
      <trkpt lat="43.34317" lon="1.79151">
        <ele>274</ele>
        <time>2022-04-13T09:29:01.999Z</time>
      </trkpt>
      <trkpt lat="43.34341" lon="1.79081">
        <ele>274</ele>
        <time>2022-04-13T09:29:06.999Z</time>
      </trkpt>
      <trkpt lat="43.34368" lon="1.79012">
        <ele>271</ele>
        <time>2022-04-13T09:29:11.999Z</time>
      </trkpt>
      <trkpt lat="43.34394" lon="1.78947">
        <ele>273</ele>
        <time>2022-04-13T09:29:16.999Z</time>
      </trkpt>
      <trkpt lat="43.34414" lon="1.78895">
        <ele>273</ele>
        <time>2022-04-13T09:29:21.999Z</time>
      </trkpt>
      <trkpt lat="43.34448" lon="1.78881">
        <ele>272</ele>
        <time>2022-04-13T09:29:26.999Z</time>
      </trkpt>
      <trkpt lat="43.34487" lon="1.78832">
        <ele>266</ele>
        <time>2022-04-13T09:29:29.999Z</time>
      </trkpt>
      <trkpt lat="43.34519" lon="1.78788">
        <ele>265</ele>
        <time>2022-04-13T09:29:42.999Z</time>
      </trkpt>
      <trkpt lat="43.34549" lon="1.78749">
        <ele>258</ele>
        <time>2022-04-13T09:29:47.999Z</time>
      </trkpt>
      <trkpt lat="43.34583" lon="1.78767">
        <ele>258</ele>
        <time>2022-04-13T09:29:52.999Z</time>
      </trkpt>
      <trkpt lat="43.34622" lon="1.78753">
        <ele>257</ele>
        <time>2022-04-13T09:29:57.999Z</time>
      </trkpt>
      <trkpt lat="43.34654" lon="1.78702">
        <ele>256</ele>
        <time>2022-04-13T09:30:02.999Z</time>
      </trkpt>
      <trkpt lat="43.34704" lon="1.78684">
        <ele>256</ele>
        <time>2022-04-13T09:30:07.999Z</time>
      </trkpt>
      <trkpt lat="43.34741" lon="1.78625">
        <ele>256</ele>
        <time>2022-04-13T09:30:12.999Z</time>
      </trkpt>
      <trkpt lat="43.34774" lon="1.78587">
        <ele>255</ele>
        <time>2022-04-13T09:30:17.999Z</time>
      </trkpt>
      <trkpt lat="43.34779" lon="1.78583">
        <ele>255</ele>
        <time>2022-04-13T09:30:22.999Z</time>
      </trkpt>
      <trkpt lat="43.34808" lon="1.78622">
        <ele>257</ele>
        <time>2022-04-13T09:30:27.999Z</time>
      </trkpt>
      <trkpt lat="43.34821" lon="1.78663">
        <ele>253</ele>
        <time>2022-04-13T09:30:32.999Z</time>
      </trkpt>
      <trkpt lat="43.34856" lon="1.787">
        <ele>250</ele>
        <time>2022-04-13T09:30:36.999Z</time>
      </trkpt>
      <trkpt lat="43.34927" lon="1.78796">
        <ele>239</ele>
        <time>2022-04-13T09:30:41.999Z</time>
      </trkpt>
      <trkpt lat="43.34968" lon="1.78875">
        <ele>224</ele>
        <time>2022-04-13T09:30:46.999Z</time>
      </trkpt>
      <trkpt lat="43.3498" lon="1.78961">
        <ele>220</ele>
        <time>2022-04-13T09:30:51.999Z</time>
      </trkpt>
      <trkpt lat="43.34998" lon="1.78993">
        <ele>217</ele>
        <time>2022-04-13T09:30:56.999Z</time>
      </trkpt>
      <trkpt lat="43.35009" lon="1.79013">
        <ele>217</ele>
        <time>2022-04-13T09:31:01.999Z</time>
      </trkpt>
      <trkpt lat="43.35016" lon="1.79033">
        <ele>219</ele>
        <time>2022-04-13T09:31:06.999Z</time>
      </trkpt>
      <trkpt lat="43.35011" lon="1.79062">
        <ele>219</ele>
        <time>2022-04-13T09:31:11.999Z</time>
      </trkpt>
      <trkpt lat="43.35015" lon="1.79104">
        <ele>224</ele>
        <time>2022-04-13T09:31:16.999Z</time>
      </trkpt>
      <trkpt lat="43.3502" lon="1.79161">
        <ele>230</ele>
        <time>2022-04-13T09:31:21.999Z</time>
      </trkpt>
      <trkpt lat="43.35025" lon="1.79215">
        <ele>236</ele>
        <time>2022-04-13T09:32:55.999Z</time>
      </trkpt>
      <trkpt lat="43.35028" lon="1.79265">
        <ele>242</ele>
        <time>2022-04-13T09:33:00.999Z</time>
      </trkpt>
      <trkpt lat="43.35032" lon="1.79294">
        <ele>244</ele>
        <time>2022-04-13T09:33:05.999Z</time>
      </trkpt>
      <trkpt lat="43.35043" lon="1.79317">
        <ele>244</ele>
        <time>2022-04-13T09:33:10.999Z</time>
      </trkpt>
      <trkpt lat="43.35066" lon="1.79336">
        <ele>244</ele>
        <time>2022-04-13T09:33:15.999Z</time>
      </trkpt>
      <trkpt lat="43.35072" lon="1.79338">
        <ele>244</ele>
        <time>2022-04-13T09:33:20.999Z</time>
      </trkpt>
      <trkpt lat="43.3509" lon="1.7934">
        <ele>244</ele>
        <time>2022-04-13T09:33:25.999Z</time>
      </trkpt>
      <trkpt lat="43.35127" lon="1.79383">
        <ele>235</ele>
        <time>2022-04-13T09:33:29.999Z</time>
      </trkpt>
      <trkpt lat="43.35153" lon="1.79361">
        <ele>231</ele>
        <time>2022-04-13T09:33:34.999Z</time>
      </trkpt>
      <trkpt lat="43.35155" lon="1.79441">
        <ele>224</ele>
        <time>2022-04-13T09:33:39.999Z</time>
      </trkpt>
      <trkpt lat="43.35165" lon="1.7951">
        <ele>218</ele>
        <time>2022-04-13T09:33:44.999Z</time>
      </trkpt>
      <trkpt lat="43.35202" lon="1.79539">
        <ele>212</ele>
        <time>2022-04-13T09:33:49.999Z</time>
      </trkpt>
      <trkpt lat="43.35242" lon="1.79591">
        <ele>208</ele>
        <time>2022-04-13T09:33:54.999Z</time>
      </trkpt>
      <trkpt lat="43.35266" lon="1.7958">
        <ele>206</ele>
        <time>2022-04-13T09:33:59.999Z</time>
      </trkpt>
      <trkpt lat="43.35312" lon="1.79563">
        <ele>199</ele>
        <time>2022-04-13T09:34:04.999Z</time>
      </trkpt>
      <trkpt lat="43.35364" lon="1.7957">
        <ele>195</ele>
        <time>2022-04-13T09:34:09.999Z</time>
      </trkpt>
      <trkpt lat="43.35405" lon="1.79584">
        <ele>192</ele>
        <time>2022-04-13T09:34:14.999Z</time>
      </trkpt>
      <trkpt lat="43.35453" lon="1.79561">
        <ele>191</ele>
        <time>2022-04-13T09:34:19.999Z</time>
      </trkpt>
      <trkpt lat="43.35549" lon="1.7955">
        <ele>192</ele>
        <time>2022-04-13T09:34:23.999Z</time>
      </trkpt>
      <trkpt lat="43.35574" lon="1.79558">
        <ele>191</ele>
        <time>2022-04-13T09:34:28.999Z</time>
      </trkpt>
      <trkpt lat="43.35596" lon="1.79555">
        <ele>191</ele>
        <time>2022-04-13T09:34:32.999Z</time>
      </trkpt>
      <trkpt lat="43.35605" lon="1.79518">
        <ele>189</ele>
        <time>2022-04-13T09:34:37.999Z</time>
      </trkpt>
      <trkpt lat="43.3562" lon="1.79508">
        <ele>188</ele>
        <time>2022-04-13T09:34:42.999Z</time>
      </trkpt>
      <trkpt lat="43.35799" lon="1.79556">
        <ele>186</ele>
        <time>2022-04-13T09:34:47.999Z</time>
      </trkpt>
      <trkpt lat="43.35846" lon="1.79568">
        <ele>185</ele>
        <time>2022-04-13T09:34:52.999Z</time>
      </trkpt>
      <trkpt lat="43.35911" lon="1.79559">
        <ele>185</ele>
        <time>2022-04-13T09:34:57.999Z</time>
      </trkpt>
      <trkpt lat="43.35974" lon="1.79514">
        <ele>186</ele>
        <time>2022-04-13T09:35:02.999Z</time>
      </trkpt>
      <trkpt lat="43.36021" lon="1.79439">
        <ele>186</ele>
        <time>2022-04-13T09:35:07.999Z</time>
      </trkpt>
      <trkpt lat="43.36087" lon="1.79397">
        <ele>186</ele>
        <time>2022-04-13T09:35:12.999Z</time>
      </trkpt>
      <trkpt lat="43.36147" lon="1.7936">
        <ele>188</ele>
        <time>2022-04-13T09:35:17.999Z</time>
      </trkpt>
      <trkpt lat="43.36171" lon="1.79338">
        <ele>188</ele>
        <time>2022-04-13T09:35:22.999Z</time>
      </trkpt>
      <trkpt lat="43.36194" lon="1.7933">
        <ele>188</ele>
        <time>2022-04-13T09:35:27.999Z</time>
      </trkpt>
      <trkpt lat="43.36216" lon="1.79321">
        <ele>188</ele>
        <time>2022-04-13T09:35:32.999Z</time>
      </trkpt>
      <trkpt lat="43.3623" lon="1.79304">
        <ele>188</ele>
        <time>2022-04-13T09:35:37.999Z</time>
      </trkpt>
      <trkpt lat="43.36248" lon="1.79229">
        <ele>187</ele>
        <time>2022-04-13T09:35:42.999Z</time>
      </trkpt>
      <trkpt lat="43.36269" lon="1.79145">
        <ele>185</ele>
        <time>2022-04-13T09:35:47.999Z</time>
      </trkpt>
      <trkpt lat="43.36287" lon="1.79074">
        <ele>187</ele>
        <time>2022-04-13T09:35:51.999Z</time>
      </trkpt>
      <trkpt lat="43.36308" lon="1.78991">
        <ele>187</ele>
        <time>2022-04-13T09:35:56.999Z</time>
      </trkpt>
      <trkpt lat="43.3632" lon="1.78924">
        <ele>186</ele>
        <time>2022-04-13T09:36:01.999Z</time>
      </trkpt>
      <trkpt lat="43.36325" lon="1.7891">
        <ele>186</ele>
        <time>2022-04-13T09:36:06.999Z</time>
      </trkpt>
      <trkpt lat="43.36335" lon="1.78905">
        <ele>186</ele>
        <time>2022-04-13T09:36:11.999Z</time>
      </trkpt>
      <trkpt lat="43.36357" lon="1.7892">
        <ele>187</ele>
        <time>2022-04-13T09:36:16.999Z</time>
      </trkpt>
      <trkpt lat="43.3642" lon="1.78961">
        <ele>193</ele>
        <time>2022-04-13T09:36:20.999Z</time>
      </trkpt>
      <trkpt lat="43.36441" lon="1.78974">
        <ele>196</ele>
        <time>2022-04-13T09:36:25.999Z</time>
      </trkpt>
      <trkpt lat="43.36441" lon="1.78973">
        <ele>196</ele>
        <time>2022-04-13T09:36:30.999Z</time>
      </trkpt>
      <trkpt lat="43.36445" lon="1.78987">
        <ele>196</ele>
        <time>2022-04-13T09:36:35.999Z</time>
      </trkpt>
      <trkpt lat="43.36436" lon="1.79016">
        <ele>195</ele>
        <time>2022-04-13T09:36:40.999Z</time>
      </trkpt>
      <trkpt lat="43.36433" lon="1.79032">
        <ele>195</ele>
        <time>2022-04-13T09:36:45.999Z</time>
      </trkpt>
      <trkpt lat="43.36435" lon="1.79038">
        <ele>195</ele>
        <time>2022-04-13T09:36:50.999Z</time>
      </trkpt>
      <trkpt lat="43.36543" lon="1.79134">
        <ele>199</ele>
        <time>2022-04-13T09:36:55.999Z</time>
      </trkpt>
      <trkpt lat="43.3655" lon="1.79163">
        <ele>200</ele>
        <time>2022-04-13T09:37:00.999Z</time>
      </trkpt>
      <trkpt lat="43.36536" lon="1.79175">
        <ele>198</ele>
        <time>2022-04-13T09:37:05.999Z</time>
      </trkpt>
      <trkpt lat="43.36509" lon="1.79196">
        <ele>198</ele>
        <time>2022-04-13T09:37:10.999Z</time>
      </trkpt>
      <trkpt lat="43.36487" lon="1.79218">
        <ele>200</ele>
        <time>2022-04-13T09:37:15.999Z</time>
      </trkpt>
      <trkpt lat="43.3647" lon="1.7925">
        <ele>202</ele>
        <time>2022-04-13T09:37:20.999Z</time>
      </trkpt>
      <trkpt lat="43.36457" lon="1.79285">
        <ele>200</ele>
        <time>2022-04-13T09:37:25.999Z</time>
      </trkpt>
      <trkpt lat="43.36454" lon="1.79329">
        <ele>204</ele>
        <time>2022-04-13T09:37:30.999Z</time>
      </trkpt>
      <trkpt lat="43.3647" lon="1.79363">
        <ele>210</ele>
        <time>2022-04-13T09:37:34.999Z</time>
      </trkpt>
      <trkpt lat="43.36471" lon="1.79406">
        <ele>212</ele>
        <time>2022-04-13T09:37:39.999Z</time>
      </trkpt>
      <trkpt lat="43.36469" lon="1.7944">
        <ele>215</ele>
        <time>2022-04-13T09:37:44.999Z</time>
      </trkpt>
      <trkpt lat="43.36468" lon="1.7949">
        <ele>220</ele>
        <time>2022-04-13T09:37:49.999Z</time>
      </trkpt>
      <trkpt lat="43.36471" lon="1.7955">
        <ele>224</ele>
        <time>2022-04-13T09:37:54.999Z</time>
      </trkpt>
      <trkpt lat="43.36488" lon="1.7956">
        <ele>227</ele>
        <time>2022-04-13T09:37:59.999Z</time>
      </trkpt>
      <trkpt lat="43.36523" lon="1.79572">
        <ele>230</ele>
        <time>2022-04-13T09:38:14.999Z</time>
      </trkpt>
      <trkpt lat="43.36556" lon="1.79593">
        <ele>233</ele>
        <time>2022-04-13T09:38:19.999Z</time>
      </trkpt>
      <trkpt lat="43.36587" lon="1.79622">
        <ele>235</ele>
        <time>2022-04-13T09:38:24.999Z</time>
      </trkpt>
      <trkpt lat="43.36619" lon="1.79653">
        <ele>235</ele>
        <time>2022-04-13T09:38:29.999Z</time>
      </trkpt>
      <trkpt lat="43.36639" lon="1.79688">
        <ele>237</ele>
        <time>2022-04-13T09:38:34.999Z</time>
      </trkpt>
      <trkpt lat="43.36662" lon="1.79729">
        <ele>239</ele>
        <time>2022-04-13T09:38:39.999Z</time>
      </trkpt>
      <trkpt lat="43.36687" lon="1.79781">
        <ele>239</ele>
        <time>2022-04-13T09:38:44.999Z</time>
      </trkpt>
      <trkpt lat="43.36731" lon="1.79816">
        <ele>241</ele>
        <time>2022-04-13T09:38:49.999Z</time>
      </trkpt>
      <trkpt lat="43.36752" lon="1.7983">
        <ele>243</ele>
        <time>2022-04-13T09:38:54.999Z</time>
      </trkpt>
      <trkpt lat="43.36752" lon="1.7983">
        <ele>243</ele>
        <time>2022-04-13T09:38:59.999Z</time>
      </trkpt>
      <trkpt lat="43.36781" lon="1.79848">
        <ele>243</ele>
        <time>2022-04-13T09:39:04.999Z</time>
      </trkpt>
      <trkpt lat="43.36804" lon="1.79864">
        <ele>243</ele>
        <time>2022-04-13T09:39:08.999Z</time>
      </trkpt>
      <trkpt lat="43.36838" lon="1.79886">
        <ele>244</ele>
        <time>2022-04-13T09:39:13.999Z</time>
      </trkpt>
      <trkpt lat="43.36874" lon="1.79911">
        <ele>246</ele>
        <time>2022-04-13T09:39:18.999Z</time>
      </trkpt>
      <trkpt lat="43.36912" lon="1.79935">
        <ele>245</ele>
        <time>2022-04-13T09:39:23.999Z</time>
      </trkpt>
      <trkpt lat="43.36951" lon="1.79961">
        <ele>245</ele>
        <time>2022-04-13T09:39:28.999Z</time>
      </trkpt>
      <trkpt lat="43.36989" lon="1.79986">
        <ele>247</ele>
        <time>2022-04-13T09:39:33.999Z</time>
      </trkpt>
      <trkpt lat="43.37031" lon="1.80005">
        <ele>247</ele>
        <time>2022-04-13T09:39:38.999Z</time>
      </trkpt>
      <trkpt lat="43.37079" lon="1.80013">
        <ele>249</ele>
        <time>2022-04-13T09:39:42.999Z</time>
      </trkpt>
      <trkpt lat="43.37125" lon="1.8002">
        <ele>251</ele>
        <time>2022-04-13T09:39:47.999Z</time>
      </trkpt>
      <trkpt lat="43.37176" lon="1.80028">
        <ele>252</ele>
        <time>2022-04-13T09:39:52.999Z</time>
      </trkpt>
      <trkpt lat="43.37228" lon="1.80037">
        <ele>255</ele>
        <time>2022-04-13T09:39:56.999Z</time>
      </trkpt>
      <trkpt lat="43.37267" lon="1.80042">
        <ele>258</ele>
        <time>2022-04-13T09:40:01.999Z</time>
      </trkpt>
      <trkpt lat="43.37285" lon="1.80017">
        <ele>260</ele>
        <time>2022-04-13T09:40:06.999Z</time>
      </trkpt>
      <trkpt lat="43.37301" lon="1.79973">
        <ele>264</ele>
        <time>2022-04-13T09:40:11.999Z</time>
      </trkpt>
      <trkpt lat="43.37321" lon="1.79921">
        <ele>265</ele>
        <time>2022-04-13T09:40:16.999Z</time>
      </trkpt>
      <trkpt lat="43.3733" lon="1.79874">
        <ele>263</ele>
        <time>2022-04-13T09:40:21.999Z</time>
      </trkpt>
      <trkpt lat="43.37345" lon="1.79868">
        <ele>263</ele>
        <time>2022-04-13T09:40:26.999Z</time>
      </trkpt>
      <trkpt lat="43.37367" lon="1.79877">
        <ele>265</ele>
        <time>2022-04-13T09:40:31.999Z</time>
      </trkpt>
      <trkpt lat="43.37411" lon="1.79908">
        <ele>267</ele>
        <time>2022-04-13T09:42:15.999Z</time>
      </trkpt>
      <trkpt lat="43.37436" lon="1.79919">
        <ele>267</ele>
        <time>2022-04-13T09:42:20.999Z</time>
      </trkpt>
      <trkpt lat="43.37458" lon="1.79919">
        <ele>267</ele>
        <time>2022-04-13T09:42:25.999Z</time>
      </trkpt>
      <trkpt lat="43.37476" lon="1.7991">
        <ele>268</ele>
        <time>2022-04-13T09:42:30.999Z</time>
      </trkpt>
      <trkpt lat="43.37479" lon="1.79927">
        <ele>268</ele>
        <time>2022-04-13T09:42:35.999Z</time>
      </trkpt>
      <trkpt lat="43.37485" lon="1.79949">
        <ele>268</ele>
        <time>2022-04-13T09:42:40.999Z</time>
      </trkpt>
      <trkpt lat="43.37494" lon="1.79973">
        <ele>270</ele>
        <time>2022-04-13T09:42:45.999Z</time>
      </trkpt>
      <trkpt lat="43.37525" lon="1.80008">
        <ele>272</ele>
        <time>2022-04-13T09:42:49.999Z</time>
      </trkpt>
      <trkpt lat="43.37539" lon="1.80002">
        <ele>272</ele>
        <time>2022-04-13T09:42:54.999Z</time>
      </trkpt>
      <trkpt lat="43.37551" lon="1.79974">
        <ele>273</ele>
        <time>2022-04-13T09:42:59.999Z</time>
      </trkpt>
      <trkpt lat="43.37568" lon="1.79936">
        <ele>273</ele>
        <time>2022-04-13T09:43:04.999Z</time>
      </trkpt>
      <trkpt lat="43.37586" lon="1.79897">
        <ele>272</ele>
        <time>2022-04-13T09:43:09.999Z</time>
      </trkpt>
      <trkpt lat="43.37606" lon="1.79855">
        <ele>272</ele>
        <time>2022-04-13T09:43:14.999Z</time>
      </trkpt>
      <trkpt lat="43.37624" lon="1.79814">
        <ele>271</ele>
        <time>2022-04-13T09:43:19.999Z</time>
      </trkpt>
      <trkpt lat="43.37641" lon="1.79778">
        <ele>270</ele>
        <time>2022-04-13T09:43:25Z</time>
      </trkpt>
      <trkpt lat="43.37651" lon="1.79755">
        <ele>271</ele>
        <time>2022-04-13T09:43:30Z</time>
      </trkpt>
      <trkpt lat="43.3766" lon="1.79734">
        <ele>269</ele>
        <time>2022-04-13T09:43:35Z</time>
      </trkpt>
      <trkpt lat="43.37673" lon="1.79698">
        <ele>269</ele>
        <time>2022-04-13T09:43:40Z</time>
      </trkpt>
      <trkpt lat="43.37687" lon="1.7965">
        <ele>268</ele>
        <time>2022-04-13T09:43:45Z</time>
      </trkpt>
      <trkpt lat="43.377" lon="1.79603">
        <ele>268</ele>
        <time>2022-04-13T09:43:49.999Z</time>
      </trkpt>
      <trkpt lat="43.37714" lon="1.79555">
        <ele>263</ele>
        <time>2022-04-13T09:43:54.999Z</time>
      </trkpt>
      <trkpt lat="43.3773" lon="1.79505">
        <ele>264</ele>
        <time>2022-04-13T09:43:58.999Z</time>
      </trkpt>
      <trkpt lat="43.37746" lon="1.79456">
        <ele>257</ele>
        <time>2022-04-13T09:44:03.999Z</time>
      </trkpt>
      <trkpt lat="43.37754" lon="1.79406">
        <ele>255</ele>
        <time>2022-04-13T09:44:08.999Z</time>
      </trkpt>
      <trkpt lat="43.37764" lon="1.79363">
        <ele>253</ele>
        <time>2022-04-13T09:44:13.999Z</time>
      </trkpt>
      <trkpt lat="43.37786" lon="1.79293">
        <ele>252</ele>
        <time>2022-04-13T09:44:18.999Z</time>
      </trkpt>
      <trkpt lat="43.37819" lon="1.79225">
        <ele>246</ele>
        <time>2022-04-13T09:44:23.999Z</time>
      </trkpt>
      <trkpt lat="43.37863" lon="1.79158">
        <ele>243</ele>
        <time>2022-04-13T09:44:28.999Z</time>
      </trkpt>
      <trkpt lat="43.37901" lon="1.79087">
        <ele>237</ele>
        <time>2022-04-13T09:44:33.999Z</time>
      </trkpt>
      <trkpt lat="43.37923" lon="1.79001">
        <ele>233</ele>
        <time>2022-04-13T09:44:38.999Z</time>
      </trkpt>
      <trkpt lat="43.37939" lon="1.78924">
        <ele>231</ele>
        <time>2022-04-13T09:44:43.999Z</time>
      </trkpt>
      <trkpt lat="43.37946" lon="1.78887">
        <ele>230</ele>
        <time>2022-04-13T09:44:48.999Z</time>
      </trkpt>
      <trkpt lat="43.37972" lon="1.78911">
        <ele>231</ele>
        <time>2022-04-13T09:44:53.999Z</time>
      </trkpt>
      <trkpt lat="43.38004" lon="1.78939">
        <ele>231</ele>
        <time>2022-04-13T09:44:58.999Z</time>
      </trkpt>
      <trkpt lat="43.38036" lon="1.78967">
        <ele>226</ele>
        <time>2022-04-13T09:45:00.999Z</time>
      </trkpt>
      <trkpt lat="43.38072" lon="1.78997">
        <ele>221</ele>
        <time>2022-04-13T09:48:14.020Z</time>
      </trkpt>
      <trkpt lat="43.38115" lon="1.79034">
        <ele>218</ele>
        <time>2022-04-13T09:48:19Z</time>
      </trkpt>
      <trkpt lat="43.38151" lon="1.79062">
        <ele>218</ele>
        <time>2022-04-13T09:48:24Z</time>
      </trkpt>
      <trkpt lat="43.38192" lon="1.79079">
        <ele>219</ele>
        <time>2022-04-13T09:48:29Z</time>
      </trkpt>
      <trkpt lat="43.38234" lon="1.791">
        <ele>223</ele>
        <time>2022-04-13T09:48:34Z</time>
      </trkpt>
      <trkpt lat="43.38273" lon="1.79118">
        <ele>228</ele>
        <time>2022-04-13T09:48:39Z</time>
      </trkpt>
      <trkpt lat="43.38312" lon="1.79138">
        <ele>231</ele>
        <time>2022-04-13T09:48:44Z</time>
      </trkpt>
      <trkpt lat="43.38355" lon="1.7916">
        <ele>233</ele>
        <time>2022-04-13T09:48:49Z</time>
      </trkpt>
      <trkpt lat="43.38384" lon="1.79173">
        <ele>231</ele>
        <time>2022-04-13T09:48:54Z</time>
      </trkpt>
      <trkpt lat="43.3842" lon="1.79195">
        <ele>230</ele>
        <time>2022-04-13T09:48:59Z</time>
      </trkpt>
      <trkpt lat="43.38456" lon="1.79214">
        <ele>228</ele>
        <time>2022-04-13T09:49:03.999Z</time>
      </trkpt>
      <trkpt lat="43.38474" lon="1.7922">
        <ele>227</ele>
        <time>2022-04-13T09:49:08.999Z</time>
      </trkpt>
      <trkpt lat="43.38474" lon="1.7922">
        <ele>227</ele>
        <time>2022-04-13T09:49:13.999Z</time>
      </trkpt>
      <trkpt lat="43.38474" lon="1.7922">
        <ele>227</ele>
        <time>2022-04-13T09:49:18.999Z</time>
      </trkpt>
      <trkpt lat="43.38481" lon="1.79219">
        <ele>227</ele>
        <time>2022-04-13T09:49:23.999Z</time>
      </trkpt>
      <trkpt lat="43.38497" lon="1.79192">
        <ele>228</ele>
        <time>2022-04-13T09:49:28.999Z</time>
      </trkpt>
      <trkpt lat="43.38555" lon="1.79091">
        <ele>223</ele>
        <time>2022-04-13T09:49:33.999Z</time>
      </trkpt>
      <trkpt lat="43.38585" lon="1.79047">
        <ele>220</ele>
        <time>2022-04-13T09:49:38.999Z</time>
      </trkpt>
      <trkpt lat="43.38621" lon="1.79038">
        <ele>218</ele>
        <time>2022-04-13T09:49:43.999Z</time>
      </trkpt>
      <trkpt lat="43.38657" lon="1.79018">
        <ele>214</ele>
        <time>2022-04-13T09:49:48.999Z</time>
      </trkpt>
      <trkpt lat="43.38703" lon="1.78984">
        <ele>212</ele>
        <time>2022-04-13T09:49:53.999Z</time>
      </trkpt>
      <trkpt lat="43.38751" lon="1.78954">
        <ele>210</ele>
        <time>2022-04-13T09:49:58.999Z</time>
      </trkpt>
      <trkpt lat="43.38799" lon="1.78922">
        <ele>209</ele>
        <time>2022-04-13T09:50:03.999Z</time>
      </trkpt>
      <trkpt lat="43.38882" lon="1.78842">
        <ele>199</ele>
        <time>2022-04-13T09:50:08.999Z</time>
      </trkpt>
      <trkpt lat="43.38898" lon="1.78836">
        <ele>199</ele>
        <time>2022-04-13T09:50:13.999Z</time>
      </trkpt>
      <trkpt lat="43.38861" lon="1.7871">
        <ele>199</ele>
        <time>2022-04-13T09:50:18.999Z</time>
      </trkpt>
      <trkpt lat="43.38823" lon="1.78629">
        <ele>197</ele>
        <time>2022-04-13T09:50:23.999Z</time>
      </trkpt>
      <trkpt lat="43.3884" lon="1.78615">
        <ele>196</ele>
        <time>2022-04-13T09:50:29Z</time>
      </trkpt>
      <trkpt lat="43.38877" lon="1.78583">
        <ele>195</ele>
        <time>2022-04-13T09:50:34Z</time>
      </trkpt>
      <trkpt lat="43.38905" lon="1.78568">
        <ele>197</ele>
        <time>2022-04-13T09:50:39Z</time>
      </trkpt>
      <trkpt lat="43.38942" lon="1.78555">
        <ele>201</ele>
        <time>2022-04-13T09:50:44Z</time>
      </trkpt>
      <trkpt lat="43.38941" lon="1.78521">
        <ele>200</ele>
        <time>2022-04-13T09:50:49Z</time>
      </trkpt>
      <trkpt lat="43.38928" lon="1.78462">
        <ele>198</ele>
        <time>2022-04-13T09:50:54Z</time>
      </trkpt>
      <trkpt lat="43.38926" lon="1.78422">
        <ele>201</ele>
        <time>2022-04-13T09:50:59Z</time>
      </trkpt>
      <trkpt lat="43.38952" lon="1.78387">
        <ele>202</ele>
        <time>2022-04-13T09:51:03.999Z</time>
      </trkpt>
      <trkpt lat="43.38998" lon="1.78337">
        <ele>205</ele>
        <time>2022-04-13T09:51:08.999Z</time>
      </trkpt>
      <trkpt lat="43.3904" lon="1.7828">
        <ele>209</ele>
        <time>2022-04-13T09:51:13.999Z</time>
      </trkpt>
      <trkpt lat="43.39062" lon="1.78279">
        <ele>211</ele>
        <time>2022-04-13T09:51:18.999Z</time>
      </trkpt>
      <trkpt lat="43.39065" lon="1.78307">
        <ele>212</ele>
        <time>2022-04-13T09:51:23.999Z</time>
      </trkpt>
      <trkpt lat="43.39043" lon="1.78349">
        <ele>213</ele>
        <time>2022-04-13T09:51:28.999Z</time>
      </trkpt>
      <trkpt lat="43.39035" lon="1.78414">
        <ele>214</ele>
        <time>2022-04-13T09:51:33.999Z</time>
      </trkpt>
      <trkpt lat="43.39026" lon="1.78516">
        <ele>221</ele>
        <time>2022-04-13T09:51:38.999Z</time>
      </trkpt>
      <trkpt lat="43.39036" lon="1.7854">
        <ele>221</ele>
        <time>2022-04-13T09:51:43.999Z</time>
      </trkpt>
      <trkpt lat="43.39064" lon="1.78557">
        <ele>222</ele>
        <time>2022-04-13T09:51:48.999Z</time>
      </trkpt>
      <trkpt lat="43.39104" lon="1.78501">
        <ele>228</ele>
        <time>2022-04-13T09:51:53.999Z</time>
      </trkpt>
      <trkpt lat="43.39192" lon="1.78409">
        <ele>235</ele>
        <time>2022-04-13T09:51:58.999Z</time>
      </trkpt>
      <trkpt lat="43.39239" lon="1.7839">
        <ele>238</ele>
        <time>2022-04-13T09:52:03.999Z</time>
      </trkpt>
      <trkpt lat="43.39315" lon="1.78354">
        <ele>244</ele>
        <time>2022-04-13T09:52:08.999Z</time>
      </trkpt>
      <trkpt lat="43.39343" lon="1.78349">
        <ele>247</ele>
        <time>2022-04-13T09:52:13.999Z</time>
      </trkpt>
      <trkpt lat="43.39386" lon="1.78339">
        <ele>250</ele>
        <time>2022-04-13T09:52:18.999Z</time>
      </trkpt>
      <trkpt lat="43.39424" lon="1.78314">
        <ele>251</ele>
        <time>2022-04-13T09:52:23.999Z</time>
      </trkpt>
      <trkpt lat="43.3945" lon="1.78272">
        <ele>251</ele>
        <time>2022-04-13T09:52:28.999Z</time>
      </trkpt>
      <trkpt lat="43.39467" lon="1.78227">
        <ele>251</ele>
        <time>2022-04-13T09:52:34Z</time>
      </trkpt>
      <trkpt lat="43.39478" lon="1.78262">
        <ele>251</ele>
        <time>2022-04-13T09:52:39Z</time>
      </trkpt>
      <trkpt lat="43.39494" lon="1.78311">
        <ele>245</ele>
        <time>2022-04-13T09:52:44Z</time>
      </trkpt>
      <trkpt lat="43.39519" lon="1.78379">
        <ele>245</ele>
        <time>2022-04-13T09:52:49Z</time>
      </trkpt>
      <trkpt lat="43.39543" lon="1.7845">
        <ele>249</ele>
        <time>2022-04-13T09:52:54Z</time>
      </trkpt>
      <trkpt lat="43.39566" lon="1.78519">
        <ele>254</ele>
        <time>2022-04-13T09:52:58.999Z</time>
      </trkpt>
      <trkpt lat="43.39584" lon="1.78564">
        <ele>259</ele>
        <time>2022-04-13T09:53:03.999Z</time>
      </trkpt>
      <trkpt lat="43.39618" lon="1.78578">
        <ele>261</ele>
        <time>2022-04-13T09:53:07.999Z</time>
      </trkpt>
      <trkpt lat="43.39664" lon="1.78591">
        <ele>259</ele>
        <time>2022-04-13T09:53:12.999Z</time>
      </trkpt>
      <trkpt lat="43.39715" lon="1.78604">
        <ele>253</ele>
        <time>2022-04-13T09:53:17.999Z</time>
      </trkpt>
      <trkpt lat="43.39774" lon="1.78623">
        <ele>250</ele>
        <time>2022-04-13T09:53:42.999Z</time>
      </trkpt>
      <trkpt lat="43.39822" lon="1.7868">
        <ele>250</ele>
        <time>2022-04-13T09:53:47.999Z</time>
      </trkpt>
      <trkpt lat="43.39855" lon="1.78765">
        <ele>255</ele>
        <time>2022-04-13T09:53:52.999Z</time>
      </trkpt>
      <trkpt lat="43.39896" lon="1.78832">
        <ele>261</ele>
        <time>2022-04-13T09:53:57.999Z</time>
      </trkpt>
      <trkpt lat="43.39947" lon="1.78871">
        <ele>261</ele>
        <time>2022-04-13T09:54:02.999Z</time>
      </trkpt>
      <trkpt lat="43.39991" lon="1.78925">
        <ele>258</ele>
        <time>2022-04-13T09:54:07.999Z</time>
      </trkpt>
      <trkpt lat="43.40045" lon="1.78984">
        <ele>260</ele>
        <time>2022-04-13T09:54:12.999Z</time>
      </trkpt>
      <trkpt lat="43.40096" lon="1.79048">
        <ele>259</ele>
        <time>2022-04-13T09:54:17.999Z</time>
      </trkpt>
      <trkpt lat="43.40129" lon="1.7913">
        <ele>263</ele>
        <time>2022-04-13T09:54:22.999Z</time>
      </trkpt>
      <trkpt lat="43.40148" lon="1.79196">
        <ele>258</ele>
        <time>2022-04-13T09:54:27.999Z</time>
      </trkpt>
      <trkpt lat="43.40181" lon="1.79212">
        <ele>258</ele>
        <time>2022-04-13T09:54:32.999Z</time>
      </trkpt>
      <trkpt lat="43.40189" lon="1.79238">
        <ele>257</ele>
        <time>2022-04-13T09:54:38Z</time>
      </trkpt>
      <trkpt lat="43.40236" lon="1.79307">
        <ele>260</ele>
        <time>2022-04-13T09:54:43Z</time>
      </trkpt>
      <trkpt lat="43.40262" lon="1.79363">
        <ele>264</ele>
        <time>2022-04-13T09:55:07.999Z</time>
      </trkpt>
      <trkpt lat="43.40266" lon="1.79376">
        <ele>267</ele>
        <time>2022-04-13T09:55:12.999Z</time>
      </trkpt>
      <trkpt lat="43.40243" lon="1.79395">
        <ele>265</ele>
        <time>2022-04-13T09:55:17.999Z</time>
      </trkpt>
      <trkpt lat="43.40208" lon="1.79429">
        <ele>260</ele>
        <time>2022-04-13T09:55:22.999Z</time>
      </trkpt>
      <trkpt lat="43.40177" lon="1.79464">
        <ele>260</ele>
        <time>2022-04-13T09:55:27.999Z</time>
      </trkpt>
      <trkpt lat="43.40162" lon="1.79525">
        <ele>262</ele>
        <time>2022-04-13T09:55:32.999Z</time>
      </trkpt>
      <trkpt lat="43.40159" lon="1.79583">
        <ele>263</ele>
        <time>2022-04-13T09:55:37.999Z</time>
      </trkpt>
      <trkpt lat="43.40175" lon="1.79611">
        <ele>262</ele>
        <time>2022-04-13T09:55:42.999Z</time>
      </trkpt>
      <trkpt lat="43.40194" lon="1.79614">
        <ele>262</ele>
        <time>2022-04-13T09:55:47.999Z</time>
      </trkpt>
      <trkpt lat="43.40214" lon="1.79607">
        <ele>262</ele>
        <time>2022-04-13T09:55:52.999Z</time>
      </trkpt>
      <trkpt lat="43.40235" lon="1.79604">
        <ele>262</ele>
        <time>2022-04-13T09:55:57.999Z</time>
      </trkpt>
      <trkpt lat="43.40274" lon="1.79651">
        <ele>262</ele>
        <time>2022-04-13T09:56:02.999Z</time>
      </trkpt>
      <trkpt lat="43.40304" lon="1.79639">
        <ele>262</ele>
        <time>2022-04-13T09:56:07.999Z</time>
      </trkpt>
      <trkpt lat="43.40348" lon="1.79607">
        <ele>261</ele>
        <time>2022-04-13T09:56:53Z</time>
      </trkpt>
      <trkpt lat="43.4039" lon="1.79611">
        <ele>262</ele>
        <time>2022-04-13T09:56:57.999Z</time>
      </trkpt>
      <trkpt lat="43.4041" lon="1.79614">
        <ele>262</ele>
        <time>2022-04-13T09:57:02.999Z</time>
      </trkpt>
      <trkpt lat="43.40426" lon="1.79601">
        <ele>262</ele>
        <time>2022-04-13T09:57:07.999Z</time>
      </trkpt>
      <trkpt lat="43.40455" lon="1.79565">
        <ele>265</ele>
        <time>2022-04-13T09:57:12.999Z</time>
      </trkpt>
      <trkpt lat="43.4047" lon="1.79543">
        <ele>261</ele>
        <time>2022-04-13T09:57:17.999Z</time>
      </trkpt>
      <trkpt lat="43.40477" lon="1.79534">
        <ele>263</ele>
        <time>2022-04-13T09:57:22.999Z</time>
      </trkpt>
      <trkpt lat="43.40471" lon="1.79505">
        <ele>264</ele>
        <time>2022-04-13T09:57:27.999Z</time>
      </trkpt>
      <trkpt lat="43.40466" lon="1.79483">
        <ele>263</ele>
        <time>2022-04-13T09:57:32.999Z</time>
      </trkpt>
      <trkpt lat="43.40458" lon="1.79446">
        <ele>265</ele>
        <time>2022-04-13T09:57:37.999Z</time>
      </trkpt>
      <trkpt lat="43.40493" lon="1.79437">
        <ele>259</ele>
        <time>2022-04-13T09:57:42.999Z</time>
      </trkpt>
      <trkpt lat="43.40517" lon="1.79432">
        <ele>257</ele>
        <time>2022-04-13T09:57:47.999Z</time>
      </trkpt>
      <trkpt lat="43.40541" lon="1.79433">
        <ele>257</ele>
        <time>2022-04-13T09:57:52.999Z</time>
      </trkpt>
      <trkpt lat="43.40575" lon="1.79446">
        <ele>251</ele>
        <time>2022-04-13T09:57:57.999Z</time>
      </trkpt>
      <trkpt lat="43.40592" lon="1.79464">
        <ele>253</ele>
        <time>2022-04-13T09:58:02.999Z</time>
      </trkpt>
      <trkpt lat="43.40622" lon="1.795">
        <ele>254</ele>
        <time>2022-04-13T09:58:07.999Z</time>
      </trkpt>
      <trkpt lat="43.40675" lon="1.79531">
        <ele>256</ele>
        <time>2022-04-13T09:58:12.999Z</time>
      </trkpt>
      <trkpt lat="43.40718" lon="1.7957">
        <ele>257</ele>
        <time>2022-04-13T09:58:17.999Z</time>
      </trkpt>
      <trkpt lat="43.40738" lon="1.79581">
        <ele>257</ele>
        <time>2022-04-13T09:58:22.999Z</time>
      </trkpt>
      <trkpt lat="43.40781" lon="1.79593">
        <ele>258</ele>
        <time>2022-04-13T09:58:27.999Z</time>
      </trkpt>
      <trkpt lat="43.40819" lon="1.79598">
        <ele>260</ele>
        <time>2022-04-13T09:58:32.999Z</time>
      </trkpt>
      <trkpt lat="43.4083" lon="1.79592">
        <ele>260</ele>
        <time>2022-04-13T09:58:37.999Z</time>
      </trkpt>
      <trkpt lat="43.40838" lon="1.79575">
        <ele>260</ele>
        <time>2022-04-13T09:58:42.999Z</time>
      </trkpt>
      <trkpt lat="43.40866" lon="1.79616">
        <ele>258</ele>
        <time>2022-04-13T09:58:47.999Z</time>
      </trkpt>
      <trkpt lat="43.40888" lon="1.79648">
        <ele>254</ele>
        <time>2022-04-13T09:58:52.999Z</time>
      </trkpt>
      <trkpt lat="43.40895" lon="1.79658">
        <ele>253</ele>
        <time>2022-04-13T09:58:57.999Z</time>
      </trkpt>
      <trkpt lat="43.40905" lon="1.79662">
        <ele>252</ele>
        <time>2022-04-13T09:59:02.999Z</time>
      </trkpt>
      <trkpt lat="43.40914" lon="1.79659">
        <ele>252</ele>
        <time>2022-04-13T09:59:07.999Z</time>
      </trkpt>
      <trkpt lat="43.40956" lon="1.79641">
        <ele>252</ele>
        <time>2022-04-13T09:59:12.999Z</time>
      </trkpt>
      <trkpt lat="43.4098" lon="1.7965">
        <ele>249</ele>
        <time>2022-04-13T09:59:17.999Z</time>
      </trkpt>
      <trkpt lat="43.41011" lon="1.79665">
        <ele>248</ele>
        <time>2022-04-13T09:59:22.999Z</time>
      </trkpt>
      <trkpt lat="43.41035" lon="1.79683">
        <ele>247</ele>
        <time>2022-04-13T09:59:27.999Z</time>
      </trkpt>
      <trkpt lat="43.41099" lon="1.79759">
        <ele>233</ele>
        <time>2022-04-13T09:59:32.999Z</time>
      </trkpt>
      <trkpt lat="43.4111" lon="1.79763">
        <ele>233</ele>
        <time>2022-04-13T09:59:37.999Z</time>
      </trkpt>
      <trkpt lat="43.41149" lon="1.79751">
        <ele>232</ele>
        <time>2022-04-13T09:59:42.999Z</time>
      </trkpt>
      <trkpt lat="43.41193" lon="1.79744">
        <ele>231</ele>
        <time>2022-04-13T09:59:46.999Z</time>
      </trkpt>
      <trkpt lat="43.41214" lon="1.79741">
        <ele>231</ele>
        <time>2022-04-13T09:59:51.999Z</time>
      </trkpt>
      <trkpt lat="43.41214" lon="1.79741">
        <ele>231</ele>
        <time>2022-04-13T09:59:56.999Z</time>
      </trkpt>
      <trkpt lat="43.41224" lon="1.79739">
        <ele>231</ele>
        <time>2022-04-13T10:00:01.999Z</time>
      </trkpt>
      <trkpt lat="43.41242" lon="1.79735">
        <ele>230</ele>
        <time>2022-04-13T10:00:06.999Z</time>
      </trkpt>
      <trkpt lat="43.41265" lon="1.79737">
        <ele>231</ele>
        <time>2022-04-13T10:00:11.999Z</time>
      </trkpt>
      <trkpt lat="43.41292" lon="1.79744">
        <ele>234</ele>
        <time>2022-04-13T10:00:16.999Z</time>
      </trkpt>
      <trkpt lat="43.41315" lon="1.79746">
        <ele>234</ele>
        <time>2022-04-13T10:00:21.999Z</time>
      </trkpt>
      <trkpt lat="43.4133" lon="1.7974">
        <ele>237</ele>
        <time>2022-04-13T10:00:26.999Z</time>
      </trkpt>
      <trkpt lat="43.41355" lon="1.79701">
        <ele>239</ele>
        <time>2022-04-13T10:00:31.999Z</time>
      </trkpt>
      <trkpt lat="43.41394" lon="1.79671">
        <ele>241</ele>
        <time>2022-04-13T10:00:36.999Z</time>
      </trkpt>
      <trkpt lat="43.41404" lon="1.79626">
        <ele>241</ele>
        <time>2022-04-13T10:00:41.999Z</time>
      </trkpt>
      <trkpt lat="43.41417" lon="1.79556">
        <ele>239</ele>
        <time>2022-04-13T10:00:46.999Z</time>
      </trkpt>
      <trkpt lat="43.41431" lon="1.79473">
        <ele>239</ele>
        <time>2022-04-13T10:00:51.999Z</time>
      </trkpt>
      <trkpt lat="43.41442" lon="1.79381">
        <ele>240</ele>
        <time>2022-04-13T10:00:56.999Z</time>
      </trkpt>
      <trkpt lat="43.41456" lon="1.79292">
        <ele>239</ele>
        <time>2022-04-13T10:01:01.999Z</time>
      </trkpt>
      <trkpt lat="43.41471" lon="1.79203">
        <ele>239</ele>
        <time>2022-04-13T10:01:06.999Z</time>
      </trkpt>
      <trkpt lat="43.41486" lon="1.79115">
        <ele>236</ele>
        <time>2022-04-13T10:01:11.999Z</time>
      </trkpt>
      <trkpt lat="43.41499" lon="1.79038">
        <ele>233</ele>
        <time>2022-04-13T10:01:16.999Z</time>
      </trkpt>
      <trkpt lat="43.41508" lon="1.78982">
        <ele>232</ele>
        <time>2022-04-13T10:01:21.999Z</time>
      </trkpt>
      <trkpt lat="43.41518" lon="1.78932">
        <ele>232</ele>
        <time>2022-04-13T10:01:26.999Z</time>
      </trkpt>
      <trkpt lat="43.41523" lon="1.78904">
        <ele>234</ele>
        <time>2022-04-13T10:01:31.999Z</time>
      </trkpt>
      <trkpt lat="43.41532" lon="1.78889">
        <ele>234</ele>
        <time>2022-04-13T10:01:36.999Z</time>
      </trkpt>
      <trkpt lat="43.41537" lon="1.78896">
        <ele>234</ele>
        <time>2022-04-13T10:01:41.999Z</time>
      </trkpt>
      <trkpt lat="43.4155" lon="1.78903">
        <ele>233</ele>
        <time>2022-04-13T10:01:46.999Z</time>
      </trkpt>
      <trkpt lat="43.41559" lon="1.78921">
        <ele>233</ele>
        <time>2022-04-13T10:01:51.999Z</time>
      </trkpt>
      <trkpt lat="43.41565" lon="1.78939">
        <ele>232</ele>
        <time>2022-04-13T10:02:06.999Z</time>
      </trkpt>
      <trkpt lat="43.41568" lon="1.78905">
        <ele>233</ele>
        <time>2022-04-13T10:02:11.999Z</time>
      </trkpt>
      <trkpt lat="43.41585" lon="1.78898">
        <ele>232</ele>
        <time>2022-04-13T10:02:16.999Z</time>
      </trkpt>
      <trkpt lat="43.4162" lon="1.78891">
        <ele>229</ele>
        <time>2022-04-13T10:02:21.999Z</time>
      </trkpt>
      <trkpt lat="43.41625" lon="1.78882">
        <ele>229</ele>
        <time>2022-04-13T10:02:26.999Z</time>
      </trkpt>
      <trkpt lat="43.41629" lon="1.78851">
        <ele>226</ele>
        <time>2022-04-13T10:02:31.999Z</time>
      </trkpt>
      <trkpt lat="43.41651" lon="1.78836">
        <ele>225</ele>
        <time>2022-04-13T10:02:36.999Z</time>
      </trkpt>
      <trkpt lat="43.4169" lon="1.78823">
        <ele>221</ele>
        <time>2022-04-13T10:02:41.999Z</time>
      </trkpt>
      <trkpt lat="43.41732" lon="1.78808">
        <ele>220</ele>
        <time>2022-04-13T10:02:46.999Z</time>
      </trkpt>
      <trkpt lat="43.41761" lon="1.78796">
        <ele>219</ele>
        <time>2022-04-13T10:02:51.999Z</time>
      </trkpt>
      <trkpt lat="43.41794" lon="1.78799">
        <ele>218</ele>
        <time>2022-04-13T10:02:56.999Z</time>
      </trkpt>
      <trkpt lat="43.41834" lon="1.78804">
        <ele>219</ele>
        <time>2022-04-13T10:03:01.999Z</time>
      </trkpt>
      <trkpt lat="43.41871" lon="1.78816">
        <ele>219</ele>
        <time>2022-04-13T10:03:06.999Z</time>
      </trkpt>
      <trkpt lat="43.41909" lon="1.78822">
        <ele>221</ele>
        <time>2022-04-13T10:03:11.999Z</time>
      </trkpt>
      <trkpt lat="43.41951" lon="1.78811">
        <ele>216</ele>
        <time>2022-04-13T10:03:16.999Z</time>
      </trkpt>
      <trkpt lat="43.41991" lon="1.78799">
        <ele>221</ele>
        <time>2022-04-13T10:03:21.999Z</time>
      </trkpt>
      <trkpt lat="43.42025" lon="1.78792">
        <ele>222</ele>
        <time>2022-04-13T10:03:26.999Z</time>
      </trkpt>
      <trkpt lat="43.42062" lon="1.7879">
        <ele>219</ele>
        <time>2022-04-13T10:03:31.999Z</time>
      </trkpt>
      <trkpt lat="43.421" lon="1.78792">
        <ele>220</ele>
        <time>2022-04-13T10:03:36.999Z</time>
      </trkpt>
      <trkpt lat="43.42135" lon="1.78781">
        <ele>219</ele>
        <time>2022-04-13T10:03:41.999Z</time>
      </trkpt>
      <trkpt lat="43.42176" lon="1.78768">
        <ele>219</ele>
        <time>2022-04-13T10:03:46.999Z</time>
      </trkpt>
      <trkpt lat="43.42207" lon="1.78737">
        <ele>219</ele>
        <time>2022-04-13T10:03:51.999Z</time>
      </trkpt>
      <trkpt lat="43.42215" lon="1.78726">
        <ele>220</ele>
        <time>2022-04-13T10:03:56.999Z</time>
      </trkpt>
      <trkpt lat="43.42233" lon="1.78722">
        <ele>220</ele>
        <time>2022-04-13T10:04:01.999Z</time>
      </trkpt>
      <trkpt lat="43.42249" lon="1.78727">
        <ele>221</ele>
        <time>2022-04-13T10:04:06.999Z</time>
      </trkpt>
      <trkpt lat="43.42262" lon="1.78744">
        <ele>222</ele>
        <time>2022-04-13T10:04:11.999Z</time>
      </trkpt>
      <trkpt lat="43.42262" lon="1.78768">
        <ele>226</ele>
        <time>2022-04-13T10:04:16.999Z</time>
      </trkpt>
      <trkpt lat="43.42239" lon="1.7881">
        <ele>231</ele>
        <time>2022-04-13T10:04:21.999Z</time>
      </trkpt>
      <trkpt lat="43.42217" lon="1.78855">
        <ele>232</ele>
        <time>2022-04-13T10:04:26.999Z</time>
      </trkpt>
      <trkpt lat="43.42204" lon="1.78905">
        <ele>232</ele>
        <time>2022-04-13T10:04:31.999Z</time>
      </trkpt>
      <trkpt lat="43.42196" lon="1.78956">
        <ele>236</ele>
        <time>2022-04-13T10:04:36.999Z</time>
      </trkpt>
      <trkpt lat="43.42196" lon="1.79003">
        <ele>242</ele>
        <time>2022-04-13T10:04:41.999Z</time>
      </trkpt>
      <trkpt lat="43.42213" lon="1.79016">
        <ele>249</ele>
        <time>2022-04-13T10:04:46.999Z</time>
      </trkpt>
      <trkpt lat="43.4223" lon="1.79029">
        <ele>249</ele>
        <time>2022-04-13T10:04:51.999Z</time>
      </trkpt>
      <trkpt lat="43.4224" lon="1.79032">
        <ele>251</ele>
        <time>2022-04-13T10:04:56.999Z</time>
      </trkpt>
      <trkpt lat="43.42262" lon="1.79023">
        <ele>251</ele>
        <time>2022-04-13T10:05:01.999Z</time>
      </trkpt>
      <trkpt lat="43.42256" lon="1.79045">
        <ele>254</ele>
        <time>2022-04-13T10:05:07Z</time>
      </trkpt>
      <trkpt lat="43.42248" lon="1.79075">
        <ele>255</ele>
        <time>2022-04-13T10:05:12Z</time>
      </trkpt>
      <trkpt lat="43.42234" lon="1.79114">
        <ele>254</ele>
        <time>2022-04-13T10:05:17Z</time>
      </trkpt>
      <trkpt lat="43.42217" lon="1.79155">
        <ele>254</ele>
        <time>2022-04-13T10:05:22Z</time>
      </trkpt>
      <trkpt lat="43.42205" lon="1.79204">
        <ele>255</ele>
        <time>2022-04-13T10:05:27Z</time>
      </trkpt>
      <trkpt lat="43.42182" lon="1.79254">
        <ele>257</ele>
        <time>2022-04-13T10:05:32Z</time>
      </trkpt>
      <trkpt lat="43.42151" lon="1.79306">
        <ele>260</ele>
        <time>2022-04-13T10:05:36.999Z</time>
      </trkpt>
      <trkpt lat="43.42125" lon="1.79358">
        <ele>262</ele>
        <time>2022-04-13T10:05:41.999Z</time>
      </trkpt>
      <trkpt lat="43.42105" lon="1.79417">
        <ele>261</ele>
        <time>2022-04-13T10:05:46.999Z</time>
      </trkpt>
      <trkpt lat="43.42079" lon="1.79492">
        <ele>259</ele>
        <time>2022-04-13T10:05:51.999Z</time>
      </trkpt>
      <trkpt lat="43.42064" lon="1.79521">
        <ele>260</ele>
        <time>2022-04-13T10:05:56.999Z</time>
      </trkpt>
      <trkpt lat="43.42016" lon="1.79527">
        <ele>259</ele>
        <time>2022-04-13T10:06:01.999Z</time>
      </trkpt>
      <trkpt lat="43.41957" lon="1.79533">
        <ele>257</ele>
        <time>2022-04-13T10:06:06.999Z</time>
      </trkpt>
      <trkpt lat="43.41915" lon="1.79538">
        <ele>257</ele>
        <time>2022-04-13T10:06:11.999Z</time>
      </trkpt>
      <trkpt lat="43.41878" lon="1.79571">
        <ele>253</ele>
        <time>2022-04-13T10:06:16.999Z</time>
      </trkpt>
      <trkpt lat="43.41859" lon="1.79612">
        <ele>248</ele>
        <time>2022-04-13T10:06:21.999Z</time>
      </trkpt>
      <trkpt lat="43.41852" lon="1.79652">
        <ele>247</ele>
        <time>2022-04-13T10:06:26.999Z</time>
      </trkpt>
      <trkpt lat="43.4184" lon="1.79701">
        <ele>242</ele>
        <time>2022-04-13T10:06:31.999Z</time>
      </trkpt>
      <trkpt lat="43.41835" lon="1.79713">
        <ele>244</ele>
        <time>2022-04-13T10:06:36.999Z</time>
      </trkpt>
      <trkpt lat="43.41817" lon="1.79728">
        <ele>242</ele>
        <time>2022-04-13T10:06:41.999Z</time>
      </trkpt>
      <trkpt lat="43.41781" lon="1.79729">
        <ele>239</ele>
        <time>2022-04-13T10:06:46.999Z</time>
      </trkpt>
      <trkpt lat="43.41747" lon="1.79726">
        <ele>237</ele>
        <time>2022-04-13T10:06:51.999Z</time>
      </trkpt>
      <trkpt lat="43.41743" lon="1.79749">
        <ele>236</ele>
        <time>2022-04-13T10:06:56.999Z</time>
      </trkpt>
      <trkpt lat="43.41728" lon="1.79796">
        <ele>237</ele>
        <time>2022-04-13T10:07:01.999Z</time>
      </trkpt>
      <trkpt lat="43.41705" lon="1.79854">
        <ele>241</ele>
        <time>2022-04-13T10:07:06.999Z</time>
      </trkpt>
      <trkpt lat="43.41698" lon="1.79885">
        <ele>243</ele>
        <time>2022-04-13T10:07:26Z</time>
      </trkpt>
      <trkpt lat="43.41701" lon="1.79917">
        <ele>243</ele>
        <time>2022-04-13T10:07:31Z</time>
      </trkpt>
      <trkpt lat="43.41728" lon="1.79988">
        <ele>245</ele>
        <time>2022-04-13T10:07:36Z</time>
      </trkpt>
      <trkpt lat="43.41757" lon="1.80063">
        <ele>245</ele>
        <time>2022-04-13T10:07:40.999Z</time>
      </trkpt>
      <trkpt lat="43.41775" lon="1.80131">
        <ele>253</ele>
        <time>2022-04-13T10:07:45.999Z</time>
      </trkpt>
      <trkpt lat="43.41793" lon="1.80218">
        <ele>262</ele>
        <time>2022-04-13T10:07:50.999Z</time>
      </trkpt>
      <trkpt lat="43.41795" lon="1.80259">
        <ele>264</ele>
        <time>2022-04-13T10:07:55.999Z</time>
      </trkpt>
      <trkpt lat="43.41792" lon="1.803">
        <ele>267</ele>
        <time>2022-04-13T10:08:00.999Z</time>
      </trkpt>
      <trkpt lat="43.41786" lon="1.80352">
        <ele>265</ele>
        <time>2022-04-13T10:08:05.999Z</time>
      </trkpt>
      <trkpt lat="43.41774" lon="1.80386">
        <ele>265</ele>
        <time>2022-04-13T10:08:10.999Z</time>
      </trkpt>
      <trkpt lat="43.41731" lon="1.80466">
        <ele>269</ele>
        <time>2022-04-13T10:08:15.999Z</time>
      </trkpt>
      <trkpt lat="43.41699" lon="1.8055">
        <ele>268</ele>
        <time>2022-04-13T10:08:20.999Z</time>
      </trkpt>
      <trkpt lat="43.41676" lon="1.80634">
        <ele>272</ele>
        <time>2022-04-13T10:08:25.999Z</time>
      </trkpt>
      <trkpt lat="43.41664" lon="1.80685">
        <ele>273</ele>
        <time>2022-04-13T10:08:30.999Z</time>
      </trkpt>
      <trkpt lat="43.41659" lon="1.80741">
        <ele>274</ele>
        <time>2022-04-13T10:08:35.999Z</time>
      </trkpt>
      <trkpt lat="43.41669" lon="1.80786">
        <ele>273</ele>
        <time>2022-04-13T10:08:40.999Z</time>
      </trkpt>
      <trkpt lat="43.41695" lon="1.80836">
        <ele>274</ele>
        <time>2022-04-13T10:08:45.999Z</time>
      </trkpt>
      <trkpt lat="43.41715" lon="1.80902">
        <ele>275</ele>
        <time>2022-04-13T10:08:50.999Z</time>
      </trkpt>
      <trkpt lat="43.41754" lon="1.80958">
        <ele>273</ele>
        <time>2022-04-13T10:08:55.999Z</time>
      </trkpt>
      <trkpt lat="43.41809" lon="1.81021">
        <ele>269</ele>
        <time>2022-04-13T10:09:00.999Z</time>
      </trkpt>
      <trkpt lat="43.41866" lon="1.81075">
        <ele>269</ele>
        <time>2022-04-13T10:09:05.999Z</time>
      </trkpt>
      <trkpt lat="43.41916" lon="1.81116">
        <ele>264</ele>
        <time>2022-04-13T10:09:10.999Z</time>
      </trkpt>
      <trkpt lat="43.41957" lon="1.81145">
        <ele>263</ele>
        <time>2022-04-13T10:09:15.999Z</time>
      </trkpt>
      <trkpt lat="43.4199" lon="1.81169">
        <ele>259</ele>
        <time>2022-04-13T10:09:21Z</time>
      </trkpt>
      <trkpt lat="43.42032" lon="1.81201">
        <ele>259</ele>
        <time>2022-04-13T10:09:26Z</time>
      </trkpt>
      <trkpt lat="43.42081" lon="1.81235">
        <ele>260</ele>
        <time>2022-04-13T10:09:31Z</time>
      </trkpt>
      <trkpt lat="43.42129" lon="1.81271">
        <ele>264</ele>
        <time>2022-04-13T10:09:36Z</time>
      </trkpt>
      <trkpt lat="43.42184" lon="1.81321">
        <ele>267</ele>
        <time>2022-04-13T10:09:40.999Z</time>
      </trkpt>
      <trkpt lat="43.4224" lon="1.81378">
        <ele>271</ele>
        <time>2022-04-13T10:09:45.999Z</time>
      </trkpt>
      <trkpt lat="43.42292" lon="1.81428">
        <ele>270</ele>
        <time>2022-04-13T10:09:50.999Z</time>
      </trkpt>
      <trkpt lat="43.42339" lon="1.81489">
        <ele>270</ele>
        <time>2022-04-13T10:09:55.999Z</time>
      </trkpt>
      <trkpt lat="43.4239" lon="1.81546">
        <ele>273</ele>
        <time>2022-04-13T10:10:00.999Z</time>
      </trkpt>
      <trkpt lat="43.42448" lon="1.81581">
        <ele>279</ele>
        <time>2022-04-13T10:10:04.999Z</time>
      </trkpt>
      <trkpt lat="43.42484" lon="1.816">
        <ele>282</ele>
        <time>2022-04-13T10:10:09.999Z</time>
      </trkpt>
      <trkpt lat="43.4251" lon="1.81609">
        <ele>284</ele>
        <time>2022-04-13T10:10:14.999Z</time>
      </trkpt>
      <trkpt lat="43.42549" lon="1.81629">
        <ele>287</ele>
        <time>2022-04-13T10:10:19.999Z</time>
      </trkpt>
      <trkpt lat="43.42597" lon="1.8165">
        <ele>289</ele>
        <time>2022-04-13T10:10:24.999Z</time>
      </trkpt>
      <trkpt lat="43.42623" lon="1.81668">
        <ele>291</ele>
        <time>2022-04-13T10:10:29.999Z</time>
      </trkpt>
      <trkpt lat="43.4263" lon="1.81683">
        <ele>291</ele>
        <time>2022-04-13T10:10:34.999Z</time>
      </trkpt>
      <trkpt lat="43.42641" lon="1.8169">
        <ele>291</ele>
        <time>2022-04-13T10:10:39.999Z</time>
      </trkpt>
      <trkpt lat="43.42666" lon="1.817">
        <ele>289</ele>
        <time>2022-04-13T10:10:44.999Z</time>
      </trkpt>
      <trkpt lat="43.42699" lon="1.81713">
        <ele>289</ele>
        <time>2022-04-13T10:10:49.999Z</time>
      </trkpt>
      <trkpt lat="43.42732" lon="1.8174">
        <ele>287</ele>
        <time>2022-04-13T10:10:54.999Z</time>
      </trkpt>
      <trkpt lat="43.42763" lon="1.81786">
        <ele>286</ele>
        <time>2022-04-13T10:10:59.999Z</time>
      </trkpt>
      <trkpt lat="43.42794" lon="1.81849">
        <ele>287</ele>
        <time>2022-04-13T10:11:04.999Z</time>
      </trkpt>
      <trkpt lat="43.42824" lon="1.81912">
        <ele>289</ele>
        <time>2022-04-13T10:11:09.999Z</time>
      </trkpt>
      <trkpt lat="43.4283" lon="1.8194">
        <ele>288</ele>
        <time>2022-04-13T10:11:14.999Z</time>
      </trkpt>
      <trkpt lat="43.42822" lon="1.81989">
        <ele>286</ele>
        <time>2022-04-13T10:11:19.999Z</time>
      </trkpt>
      <trkpt lat="43.42812" lon="1.82027">
        <ele>285</ele>
        <time>2022-04-13T10:11:24.999Z</time>
      </trkpt>
      <trkpt lat="43.42793" lon="1.82072">
        <ele>284</ele>
        <time>2022-04-13T10:11:29.999Z</time>
      </trkpt>
      <trkpt lat="43.42784" lon="1.8211">
        <ele>285</ele>
        <time>2022-04-13T10:11:34.999Z</time>
      </trkpt>
      <trkpt lat="43.42782" lon="1.82158">
        <ele>286</ele>
        <time>2022-04-13T10:11:39.999Z</time>
      </trkpt>
      <trkpt lat="43.42804" lon="1.82244">
        <ele>287</ele>
        <time>2022-04-13T10:11:44.999Z</time>
      </trkpt>
      <trkpt lat="43.42837" lon="1.82327">
        <ele>285</ele>
        <time>2022-04-13T10:11:49.999Z</time>
      </trkpt>
      <trkpt lat="43.42858" lon="1.8238">
        <ele>287</ele>
        <time>2022-04-13T10:11:54.999Z</time>
      </trkpt>
      <trkpt lat="43.42862" lon="1.82393">
        <ele>287</ele>
        <time>2022-04-13T10:11:59.999Z</time>
      </trkpt>
      <trkpt lat="43.42897" lon="1.82372">
        <ele>284</ele>
        <time>2022-04-13T10:12:04.999Z</time>
      </trkpt>
      <trkpt lat="43.42908" lon="1.82361">
        <ele>284</ele>
        <time>2022-04-13T10:12:09.999Z</time>
      </trkpt>
      <trkpt lat="43.4292" lon="1.82373">
        <ele>284</ele>
        <time>2022-04-13T10:12:14.999Z</time>
      </trkpt>
      <trkpt lat="43.42943" lon="1.82411">
        <ele>286</ele>
        <time>2022-04-13T10:12:19.999Z</time>
      </trkpt>
      <trkpt lat="43.42967" lon="1.82455">
        <ele>284</ele>
        <time>2022-04-13T10:12:24.999Z</time>
      </trkpt>
      <trkpt lat="43.42993" lon="1.82494">
        <ele>280</ele>
        <time>2022-04-13T10:12:29.999Z</time>
      </trkpt>
      <trkpt lat="43.43019" lon="1.82539">
        <ele>276</ele>
        <time>2022-04-13T10:12:34.999Z</time>
      </trkpt>
      <trkpt lat="43.43039" lon="1.82567">
        <ele>275</ele>
        <time>2022-04-13T10:12:39.999Z</time>
      </trkpt>
      <trkpt lat="43.4306" lon="1.82602">
        <ele>271</ele>
        <time>2022-04-13T10:12:44.999Z</time>
      </trkpt>
      <trkpt lat="43.4308" lon="1.82635">
        <ele>266</ele>
        <time>2022-04-13T10:12:49.999Z</time>
      </trkpt>
      <trkpt lat="43.43093" lon="1.82639">
        <ele>266</ele>
        <time>2022-04-13T10:12:54.999Z</time>
      </trkpt>
      <trkpt lat="43.43104" lon="1.82629">
        <ele>263</ele>
        <time>2022-04-13T10:12:59.999Z</time>
      </trkpt>
      <trkpt lat="43.43137" lon="1.82612">
        <ele>261</ele>
        <time>2022-04-13T10:13:04.999Z</time>
      </trkpt>
      <trkpt lat="43.43152" lon="1.82602">
        <ele>261</ele>
        <time>2022-04-13T10:13:09.999Z</time>
      </trkpt>
      <trkpt lat="43.43164" lon="1.82585">
        <ele>260</ele>
        <time>2022-04-13T10:13:14.999Z</time>
      </trkpt>
      <trkpt lat="43.4319" lon="1.82555">
        <ele>258</ele>
        <time>2022-04-13T10:13:19.999Z</time>
      </trkpt>
      <trkpt lat="43.43198" lon="1.82551">
        <ele>258</ele>
        <time>2022-04-13T10:13:24.999Z</time>
      </trkpt>
      <trkpt lat="43.43201" lon="1.82543">
        <ele>258</ele>
        <time>2022-04-13T10:13:29.999Z</time>
      </trkpt>
      <trkpt lat="43.43201" lon="1.82523">
        <ele>262</ele>
        <time>2022-04-13T10:13:34.999Z</time>
      </trkpt>
      <trkpt lat="43.43203" lon="1.82515">
        <ele>262</ele>
        <time>2022-04-13T10:13:39.999Z</time>
      </trkpt>
      <trkpt lat="43.43208" lon="1.82513">
        <ele>262</ele>
        <time>2022-04-13T10:13:44.999Z</time>
      </trkpt>
      <trkpt lat="43.43224" lon="1.82531">
        <ele>257</ele>
        <time>2022-04-13T10:13:49.999Z</time>
      </trkpt>
      <trkpt lat="43.43238" lon="1.82541">
        <ele>253</ele>
        <time>2022-04-13T10:13:54.999Z</time>
      </trkpt>
      <trkpt lat="43.43254" lon="1.82543">
        <ele>248</ele>
        <time>2022-04-13T10:13:59.999Z</time>
      </trkpt>
      <trkpt lat="43.43273" lon="1.82539">
        <ele>248</ele>
        <time>2022-04-13T10:14:04.999Z</time>
      </trkpt>
      <trkpt lat="43.43286" lon="1.82522">
        <ele>248</ele>
        <time>2022-04-13T10:14:09.999Z</time>
      </trkpt>
      <trkpt lat="43.43309" lon="1.82487">
        <ele>245</ele>
        <time>2022-04-13T10:14:14.999Z</time>
      </trkpt>
      <trkpt lat="43.43335" lon="1.82457">
        <ele>248</ele>
        <time>2022-04-13T10:14:19.999Z</time>
      </trkpt>
      <trkpt lat="43.43364" lon="1.82426">
        <ele>249</ele>
        <time>2022-04-13T10:14:24.999Z</time>
      </trkpt>
      <trkpt lat="43.4339" lon="1.82402">
        <ele>249</ele>
        <time>2022-04-13T10:14:29.999Z</time>
      </trkpt>
      <trkpt lat="43.43389" lon="1.82403">
        <ele>249</ele>
        <time>2022-04-13T10:14:34.999Z</time>
      </trkpt>
      <trkpt lat="43.43389" lon="1.82403">
        <ele>249</ele>
        <time>2022-04-13T10:14:39.999Z</time>
      </trkpt>
      <trkpt lat="43.43384" lon="1.82407">
        <ele>244</ele>
        <time>2022-04-13T10:14:44.999Z</time>
      </trkpt>
      <trkpt lat="43.43415" lon="1.82376">
        <ele>243</ele>
        <time>2022-04-13T10:14:49.999Z</time>
      </trkpt>
      <trkpt lat="43.43443" lon="1.82346">
        <ele>249</ele>
        <time>2022-04-13T10:14:54.999Z</time>
      </trkpt>
      <trkpt lat="43.43472" lon="1.82309">
        <ele>247</ele>
        <time>2022-04-13T10:14:59.999Z</time>
      </trkpt>
      <trkpt lat="43.43505" lon="1.82278">
        <ele>243</ele>
        <time>2022-04-13T10:15:04.999Z</time>
      </trkpt>
      <trkpt lat="43.43539" lon="1.82244">
        <ele>242</ele>
        <time>2022-04-13T10:15:09.999Z</time>
      </trkpt>
      <trkpt lat="43.43574" lon="1.82207">
        <ele>238</ele>
        <time>2022-04-13T10:15:14.999Z</time>
      </trkpt>
      <trkpt lat="43.43611" lon="1.82169">
        <ele>238</ele>
        <time>2022-04-13T10:15:19.999Z</time>
      </trkpt>
      <trkpt lat="43.43652" lon="1.82127">
        <ele>238</ele>
        <time>2022-04-13T10:15:24.999Z</time>
      </trkpt>
      <trkpt lat="43.43692" lon="1.82084">
        <ele>238</ele>
        <time>2022-04-13T10:15:29.999Z</time>
      </trkpt>
      <trkpt lat="43.43739" lon="1.82057">
        <ele>234</ele>
        <time>2022-04-13T10:15:34.999Z</time>
      </trkpt>
      <trkpt lat="43.43787" lon="1.82022">
        <ele>234</ele>
        <time>2022-04-13T10:15:39.999Z</time>
      </trkpt>
      <trkpt lat="43.4383" lon="1.81997">
        <ele>234</ele>
        <time>2022-04-13T10:15:44.999Z</time>
      </trkpt>
      <trkpt lat="43.43863" lon="1.82009">
        <ele>230</ele>
        <time>2022-04-13T10:15:49.999Z</time>
      </trkpt>
      <trkpt lat="43.43875" lon="1.82016">
        <ele>228</ele>
        <time>2022-04-13T10:15:54.999Z</time>
      </trkpt>
      <trkpt lat="43.43886" lon="1.82034">
        <ele>226</ele>
        <time>2022-04-13T10:15:59.999Z</time>
      </trkpt>
      <trkpt lat="43.43898" lon="1.82039">
        <ele>226</ele>
        <time>2022-04-13T10:16:04.999Z</time>
      </trkpt>
      <trkpt lat="43.43915" lon="1.82032">
        <ele>225</ele>
        <time>2022-04-13T10:16:09.999Z</time>
      </trkpt>
      <trkpt lat="43.43952" lon="1.8202">
        <ele>224</ele>
        <time>2022-04-13T10:16:14.999Z</time>
      </trkpt>
      <trkpt lat="43.43981" lon="1.82034">
        <ele>223</ele>
        <time>2022-04-13T10:16:19.999Z</time>
      </trkpt>
      <trkpt lat="43.43988" lon="1.8204">
        <ele>222</ele>
        <time>2022-04-13T10:16:24.999Z</time>
      </trkpt>
      <trkpt lat="43.43989" lon="1.82041">
        <ele>222</ele>
        <time>2022-04-13T10:16:29.999Z</time>
      </trkpt>
      <trkpt lat="43.43989" lon="1.82041">
        <ele>222</ele>
        <time>2022-04-13T10:16:34.999Z</time>
      </trkpt>
      <trkpt lat="43.43989" lon="1.82042">
        <ele>222</ele>
        <time>2022-04-13T10:16:39.999Z</time>
      </trkpt>
      <trkpt lat="43.43995" lon="1.82046">
        <ele>222</ele>
        <time>2022-04-13T10:16:44.999Z</time>
      </trkpt>
      <trkpt lat="43.44013" lon="1.82068">
        <ele>222</ele>
        <time>2022-04-13T10:16:49.999Z</time>
      </trkpt>
      <trkpt lat="43.44036" lon="1.82092">
        <ele>223</ele>
        <time>2022-04-13T10:16:54.999Z</time>
      </trkpt>
      <trkpt lat="43.44054" lon="1.82102">
        <ele>224</ele>
        <time>2022-04-13T10:16:59.999Z</time>
      </trkpt>
      <trkpt lat="43.44052" lon="1.82101">
        <ele>224</ele>
        <time>2022-04-13T10:17:04.999Z</time>
      </trkpt>
      <trkpt lat="43.44076" lon="1.82101">
        <ele>228</ele>
        <time>2022-04-13T10:17:09.999Z</time>
      </trkpt>
      <trkpt lat="43.44105" lon="1.82082">
        <ele>234</ele>
        <time>2022-04-13T10:17:14.999Z</time>
      </trkpt>
      <trkpt lat="43.44137" lon="1.82037">
        <ele>237</ele>
        <time>2022-04-13T10:17:19.999Z</time>
      </trkpt>
      <trkpt lat="43.44175" lon="1.81976">
        <ele>237</ele>
        <time>2022-04-13T10:17:24.999Z</time>
      </trkpt>
      <trkpt lat="43.4422" lon="1.81908">
        <ele>241</ele>
        <time>2022-04-13T10:17:29.999Z</time>
      </trkpt>
      <trkpt lat="43.4427" lon="1.81855">
        <ele>244</ele>
        <time>2022-04-13T10:17:31.999Z</time>
      </trkpt>
      <trkpt lat="43.44284" lon="1.81845">
        <ele>242</ele>
        <time>2022-04-13T10:19:03.999Z</time>
      </trkpt>
      <trkpt lat="43.44306" lon="1.81854">
        <ele>244</ele>
        <time>2022-04-13T10:19:08.999Z</time>
      </trkpt>
      <trkpt lat="43.44349" lon="1.81769">
        <ele>241</ele>
        <time>2022-04-13T10:19:13.999Z</time>
      </trkpt>
      <trkpt lat="43.44384" lon="1.81695">
        <ele>240</ele>
        <time>2022-04-13T10:19:18.999Z</time>
      </trkpt>
      <trkpt lat="43.44415" lon="1.81612">
        <ele>234</ele>
        <time>2022-04-13T10:19:23.999Z</time>
      </trkpt>
      <trkpt lat="43.44444" lon="1.81526">
        <ele>229</ele>
        <time>2022-04-13T10:19:28.999Z</time>
      </trkpt>
      <trkpt lat="43.44467" lon="1.81442">
        <ele>228</ele>
        <time>2022-04-13T10:19:33.999Z</time>
      </trkpt>
      <trkpt lat="43.44468" lon="1.81402">
        <ele>225</ele>
        <time>2022-04-13T10:19:53.999Z</time>
      </trkpt>
      <trkpt lat="43.4446" lon="1.8135">
        <ele>222</ele>
        <time>2022-04-13T10:19:58.999Z</time>
      </trkpt>
      <trkpt lat="43.44454" lon="1.81301">
        <ele>219</ele>
        <time>2022-04-13T10:20:02.999Z</time>
      </trkpt>
      <trkpt lat="43.44452" lon="1.81255">
        <ele>216</ele>
        <time>2022-04-13T10:20:07.999Z</time>
      </trkpt>
      <trkpt lat="43.44451" lon="1.81225">
        <ele>215</ele>
        <time>2022-04-13T10:20:12.999Z</time>
      </trkpt>
      <trkpt lat="43.44467" lon="1.81182">
        <ele>214</ele>
        <time>2022-04-13T10:20:17.999Z</time>
      </trkpt>
      <trkpt lat="43.44492" lon="1.81138">
        <ele>214</ele>
        <time>2022-04-13T10:20:22.999Z</time>
      </trkpt>
      <trkpt lat="43.44492" lon="1.81138">
        <ele>214</ele>
        <time>2022-04-13T10:20:27.999Z</time>
      </trkpt>
      <trkpt lat="43.44503" lon="1.81119">
        <ele>213</ele>
        <time>2022-04-13T10:20:32.999Z</time>
      </trkpt>
      <trkpt lat="43.44512" lon="1.8114">
        <ele>214</ele>
        <time>2022-04-13T10:20:37.999Z</time>
      </trkpt>
      <trkpt lat="43.44528" lon="1.81182">
        <ele>215</ele>
        <time>2022-04-13T10:20:42.999Z</time>
      </trkpt>
      <trkpt lat="43.4455" lon="1.81227">
        <ele>216</ele>
        <time>2022-04-13T10:20:47.999Z</time>
      </trkpt>
      <trkpt lat="43.44556" lon="1.81257">
        <ele>215</ele>
        <time>2022-04-13T10:20:52.999Z</time>
      </trkpt>
      <trkpt lat="43.44566" lon="1.8128">
        <ele>215</ele>
        <time>2022-04-13T10:20:57.999Z</time>
      </trkpt>
      <trkpt lat="43.44578" lon="1.81307">
        <ele>217</ele>
        <time>2022-04-13T10:21:02.999Z</time>
      </trkpt>
      <trkpt lat="43.4458" lon="1.81331">
        <ele>215</ele>
        <time>2022-04-13T10:21:07.999Z</time>
      </trkpt>
      <trkpt lat="43.44581" lon="1.81358">
        <ele>215</ele>
        <time>2022-04-13T10:21:12.999Z</time>
      </trkpt>
      <trkpt lat="43.44588" lon="1.81382">
        <ele>215</ele>
        <time>2022-04-13T10:21:17.999Z</time>
      </trkpt>
      <trkpt lat="43.44602" lon="1.81398">
        <ele>215</ele>
        <time>2022-04-13T10:21:22.999Z</time>
      </trkpt>
      <trkpt lat="43.44615" lon="1.81432">
        <ele>215</ele>
        <time>2022-04-13T10:21:27.999Z</time>
      </trkpt>
      <trkpt lat="43.44635" lon="1.81427">
        <ele>215</ele>
        <time>2022-04-13T10:21:32.999Z</time>
      </trkpt>
      <trkpt lat="43.44671" lon="1.81415">
        <ele>218</ele>
        <time>2022-04-13T10:21:37.999Z</time>
      </trkpt>
      <trkpt lat="43.44689" lon="1.81413">
        <ele>223</ele>
        <time>2022-04-13T10:21:42.999Z</time>
      </trkpt>
      <trkpt lat="43.44701" lon="1.81428">
        <ele>223</ele>
        <time>2022-04-13T10:21:47.999Z</time>
      </trkpt>
      <trkpt lat="43.44706" lon="1.81479">
        <ele>221</ele>
        <time>2022-04-13T10:21:52.999Z</time>
      </trkpt>
      <trkpt lat="43.447" lon="1.81532">
        <ele>221</ele>
        <time>2022-04-13T10:21:57.999Z</time>
      </trkpt>
      <trkpt lat="43.44693" lon="1.81557">
        <ele>220</ele>
        <time>2022-04-13T10:22:02.999Z</time>
      </trkpt>
      <trkpt lat="43.44705" lon="1.81649">
        <ele>220</ele>
        <time>2022-04-13T10:22:07.999Z</time>
      </trkpt>
      <trkpt lat="43.44715" lon="1.81762">
        <ele>227</ele>
        <time>2022-04-13T10:22:12.999Z</time>
      </trkpt>
      <trkpt lat="43.44717" lon="1.81798">
        <ele>228</ele>
        <time>2022-04-13T10:22:17.999Z</time>
      </trkpt>
      <trkpt lat="43.44712" lon="1.81896">
        <ele>231</ele>
        <time>2022-04-13T10:22:22.999Z</time>
      </trkpt>
      <trkpt lat="43.44702" lon="1.82024">
        <ele>224</ele>
        <time>2022-04-13T10:22:27.999Z</time>
      </trkpt>
      <trkpt lat="43.44694" lon="1.82141">
        <ele>227</ele>
        <time>2022-04-13T10:22:32.999Z</time>
      </trkpt>
      <trkpt lat="43.44691" lon="1.82199">
        <ele>228</ele>
        <time>2022-04-13T10:22:37.999Z</time>
      </trkpt>
      <trkpt lat="43.44689" lon="1.82218">
        <ele>228</ele>
        <time>2022-04-13T10:22:42.999Z</time>
      </trkpt>
      <trkpt lat="43.44691" lon="1.82258">
        <ele>228</ele>
        <time>2022-04-13T10:22:47.999Z</time>
      </trkpt>
      <trkpt lat="43.44708" lon="1.82301">
        <ele>223</ele>
        <time>2022-04-13T10:22:52.999Z</time>
      </trkpt>
      <trkpt lat="43.44733" lon="1.82343">
        <ele>223</ele>
        <time>2022-04-13T10:22:57.999Z</time>
      </trkpt>
      <trkpt lat="43.44764" lon="1.82386">
        <ele>220</ele>
        <time>2022-04-13T10:23:02.999Z</time>
      </trkpt>
      <trkpt lat="43.44806" lon="1.82426">
        <ele>227</ele>
        <time>2022-04-13T10:23:07.999Z</time>
      </trkpt>
      <trkpt lat="43.44839" lon="1.82464">
        <ele>225</ele>
        <time>2022-04-13T10:23:12.999Z</time>
      </trkpt>
      <trkpt lat="43.44859" lon="1.8251">
        <ele>227</ele>
        <time>2022-04-13T10:23:17.999Z</time>
      </trkpt>
      <trkpt lat="43.44874" lon="1.82568">
        <ele>225</ele>
        <time>2022-04-13T10:23:22.999Z</time>
      </trkpt>
      <trkpt lat="43.44881" lon="1.8264">
        <ele>233</ele>
        <time>2022-04-13T10:23:27.999Z</time>
      </trkpt>
      <trkpt lat="43.44896" lon="1.82702">
        <ele>231</ele>
        <time>2022-04-13T10:23:32.999Z</time>
      </trkpt>
      <trkpt lat="43.44899" lon="1.82764">
        <ele>228</ele>
        <time>2022-04-13T10:23:37.999Z</time>
      </trkpt>
      <trkpt lat="43.44888" lon="1.82822">
        <ele>224</ele>
        <time>2022-04-13T10:23:42.999Z</time>
      </trkpt>
      <trkpt lat="43.44881" lon="1.82849">
        <ele>224</ele>
        <time>2022-04-13T10:23:47.999Z</time>
      </trkpt>
      <trkpt lat="43.44846" lon="1.82853">
        <ele>224</ele>
        <time>2022-04-13T10:23:52.999Z</time>
      </trkpt>
      <trkpt lat="43.44838" lon="1.82862">
        <ele>224</ele>
        <time>2022-04-13T10:23:57.999Z</time>
      </trkpt>
      <trkpt lat="43.44841" lon="1.82917">
        <ele>224</ele>
        <time>2022-04-13T10:24:02.999Z</time>
      </trkpt>
      <trkpt lat="43.44826" lon="1.82991">
        <ele>225</ele>
        <time>2022-04-13T10:24:07.999Z</time>
      </trkpt>
      <trkpt lat="43.44857" lon="1.83218">
        <ele>226</ele>
        <time>2022-04-13T10:24:12.999Z</time>
      </trkpt>
      <trkpt lat="43.44864" lon="1.83275">
        <ele>227</ele>
        <time>2022-04-13T10:24:17.999Z</time>
      </trkpt>
      <trkpt lat="43.4487" lon="1.83332">
        <ele>227</ele>
        <time>2022-04-13T10:24:22.999Z</time>
      </trkpt>
      <trkpt lat="43.44877" lon="1.83394">
        <ele>229</ele>
        <time>2022-04-13T10:24:27.999Z</time>
      </trkpt>
      <trkpt lat="43.44883" lon="1.83447">
        <ele>229</ele>
        <time>2022-04-13T10:24:32.999Z</time>
      </trkpt>
      <trkpt lat="43.44867" lon="1.83488">
        <ele>229</ele>
        <time>2022-04-13T10:24:37.999Z</time>
      </trkpt>
      <trkpt lat="43.44845" lon="1.83523">
        <ele>229</ele>
        <time>2022-04-13T10:24:42.999Z</time>
      </trkpt>
      <trkpt lat="43.44834" lon="1.83558">
        <ele>229</ele>
        <time>2022-04-13T10:24:47.999Z</time>
      </trkpt>
      <trkpt lat="43.44822" lon="1.83608">
        <ele>229</ele>
        <time>2022-04-13T10:24:52.999Z</time>
      </trkpt>
      <trkpt lat="43.44825" lon="1.83663">
        <ele>229</ele>
        <time>2022-04-13T10:24:57.999Z</time>
      </trkpt>
      <trkpt lat="43.44829" lon="1.83719">
        <ele>229</ele>
        <time>2022-04-13T10:25:02.999Z</time>
      </trkpt>
      <trkpt lat="43.44842" lon="1.83775">
        <ele>230</ele>
        <time>2022-04-13T10:25:07.999Z</time>
      </trkpt>
      <trkpt lat="43.44857" lon="1.83824">
        <ele>229</ele>
        <time>2022-04-13T10:25:12.999Z</time>
      </trkpt>
      <trkpt lat="43.44912" lon="1.83907">
        <ele>233</ele>
        <time>2022-04-13T10:25:18Z</time>
      </trkpt>
      <trkpt lat="43.44968" lon="1.83789">
        <ele>234</ele>
        <time>2022-04-13T10:25:23Z</time>
      </trkpt>
      <trkpt lat="43.45061" lon="1.83717">
        <ele>236</ele>
        <time>2022-04-13T10:25:28Z</time>
      </trkpt>
      <trkpt lat="43.45158" lon="1.83722">
        <ele>243</ele>
        <time>2022-04-13T10:25:33Z</time>
      </trkpt>
      <trkpt lat="43.45202" lon="1.83732">
        <ele>249</ele>
        <time>2022-04-13T10:26:47.999Z</time>
      </trkpt>
      <trkpt lat="43.45246" lon="1.83759">
        <ele>249</ele>
        <time>2022-04-13T10:26:52.999Z</time>
      </trkpt>
      <trkpt lat="43.45293" lon="1.83841">
        <ele>254</ele>
        <time>2022-04-13T10:26:57.999Z</time>
      </trkpt>
      <trkpt lat="43.45329" lon="1.83834">
        <ele>256</ele>
        <time>2022-04-13T10:27:02.999Z</time>
      </trkpt>
      <trkpt lat="43.45521" lon="1.83587">
        <ele>279</ele>
        <time>2022-04-13T10:27:07.999Z</time>
      </trkpt>
      <trkpt lat="43.4554" lon="1.83608">
        <ele>280</ele>
        <time>2022-04-13T10:27:12.999Z</time>
      </trkpt>
      <trkpt lat="43.45578" lon="1.83717">
        <ele>290</ele>
        <time>2022-04-13T10:27:17.999Z</time>
      </trkpt>
      <trkpt lat="43.45602" lon="1.83734">
        <ele>292</ele>
        <time>2022-04-13T10:27:23Z</time>
      </trkpt>
      <trkpt lat="43.45632" lon="1.83726">
        <ele>292</ele>
        <time>2022-04-13T10:27:28Z</time>
      </trkpt>
      <trkpt lat="43.45794" lon="1.83602">
        <ele>278</ele>
        <time>2022-04-13T10:27:33Z</time>
      </trkpt>
      <trkpt lat="43.45877" lon="1.83507">
        <ele>278</ele>
        <time>2022-04-13T10:27:38Z</time>
      </trkpt>
      <trkpt lat="43.46131" lon="1.83519">
        <ele>277</ele>
        <time>2022-04-13T10:27:43Z</time>
      </trkpt>
      <trkpt lat="43.4611" lon="1.83712">
        <ele>277</ele>
        <time>2022-04-13T10:27:48Z</time>
      </trkpt>
      <trkpt lat="43.46119" lon="1.83799">
        <ele>279</ele>
        <time>2022-04-13T10:27:53Z</time>
      </trkpt>
      <trkpt lat="43.46153" lon="1.83944">
        <ele>277</ele>
        <time>2022-04-13T10:27:57.999Z</time>
      </trkpt>
      <trkpt lat="43.46157" lon="1.84059">
        <ele>275</ele>
        <time>2022-04-13T10:28:02.999Z</time>
      </trkpt>
      <trkpt lat="43.45979" lon="1.84949">
        <ele>265</ele>
        <time>2022-04-13T10:28:07.999Z</time>
      </trkpt>
      <trkpt lat="43.45897" lon="1.85082">
        <ele>268</ele>
        <time>2022-04-13T10:28:12.999Z</time>
      </trkpt>
      <trkpt lat="43.45868" lon="1.85246">
        <ele>268</ele>
        <time>2022-04-13T10:28:17.999Z</time>
      </trkpt>
      <trkpt lat="43.45813" lon="1.85328">
        <ele>268</ele>
        <time>2022-04-13T10:28:22.999Z</time>
      </trkpt>
      <trkpt lat="43.45818" lon="1.85348">
        <ele>269</ele>
        <time>2022-04-13T10:28:27.999Z</time>
      </trkpt>
      <trkpt lat="43.45806" lon="1.85395">
        <ele>272</ele>
        <time>2022-04-13T10:28:32.999Z</time>
      </trkpt>
      <trkpt lat="43.45799" lon="1.85427">
        <ele>273</ele>
        <time>2022-04-13T10:28:37.999Z</time>
      </trkpt>
      <trkpt lat="43.45791" lon="1.85465">
        <ele>277</ele>
        <time>2022-04-13T10:28:42.999Z</time>
      </trkpt>
      <trkpt lat="43.45779" lon="1.85505">
        <ele>277</ele>
        <time>2022-04-13T10:28:47.999Z</time>
      </trkpt>
      <trkpt lat="43.4575" lon="1.85564">
        <ele>277</ele>
        <time>2022-04-13T10:28:52.999Z</time>
      </trkpt>
      <trkpt lat="43.45718" lon="1.85615">
        <ele>272</ele>
        <time>2022-04-13T10:28:55.999Z</time>
      </trkpt>
      <trkpt lat="43.45686" lon="1.85672">
        <ele>272</ele>
        <time>2022-04-13T10:30:05.999Z</time>
      </trkpt>
      <trkpt lat="43.45665" lon="1.85742">
        <ele>266</ele>
        <time>2022-04-13T10:30:10.999Z</time>
      </trkpt>
      <trkpt lat="43.45655" lon="1.85796">
        <ele>260</ele>
        <time>2022-04-13T10:30:15.999Z</time>
      </trkpt>
      <trkpt lat="43.45646" lon="1.8584">
        <ele>263</ele>
        <time>2022-04-13T10:30:20.999Z</time>
      </trkpt>
      <trkpt lat="43.45637" lon="1.85895">
        <ele>256</ele>
        <time>2022-04-13T10:30:25.999Z</time>
      </trkpt>
      <trkpt lat="43.45625" lon="1.85943">
        <ele>248</ele>
        <time>2022-04-13T10:30:30.999Z</time>
      </trkpt>
      <trkpt lat="43.45607" lon="1.85989">
        <ele>246</ele>
        <time>2022-04-13T10:36:47.999Z</time>
      </trkpt>
      <trkpt lat="43.45575" lon="1.86052">
        <ele>242</ele>
        <time>2022-04-13T10:36:52.999Z</time>
      </trkpt>
      <trkpt lat="43.45547" lon="1.86109">
        <ele>241</ele>
        <time>2022-04-13T10:36:57.999Z</time>
      </trkpt>
      <trkpt lat="43.45516" lon="1.86174">
        <ele>241</ele>
        <time>2022-04-13T10:37:02.999Z</time>
      </trkpt>
      <trkpt lat="43.45508" lon="1.86244">
        <ele>244</ele>
        <time>2022-04-13T10:37:07.999Z</time>
      </trkpt>
      <trkpt lat="43.45473" lon="1.86304">
        <ele>245</ele>
        <time>2022-04-13T10:37:12.999Z</time>
      </trkpt>
      <trkpt lat="43.45447" lon="1.86366">
        <ele>246</ele>
        <time>2022-04-13T10:37:17.999Z</time>
      </trkpt>
      <trkpt lat="43.45426" lon="1.86428">
        <ele>247</ele>
        <time>2022-04-13T10:37:22.999Z</time>
      </trkpt>
      <trkpt lat="43.45403" lon="1.86495">
        <ele>248</ele>
        <time>2022-04-13T10:37:27.999Z</time>
      </trkpt>
      <trkpt lat="43.45384" lon="1.86553">
        <ele>248</ele>
        <time>2022-04-13T10:37:32.999Z</time>
      </trkpt>
      <trkpt lat="43.45348" lon="1.86624">
        <ele>247</ele>
        <time>2022-04-13T10:37:37.999Z</time>
      </trkpt>
      <trkpt lat="43.45327" lon="1.86691">
        <ele>252</ele>
        <time>2022-04-13T10:37:42.999Z</time>
      </trkpt>
      <trkpt lat="43.45301" lon="1.86775">
        <ele>256</ele>
        <time>2022-04-13T10:37:47.999Z</time>
      </trkpt>
      <trkpt lat="43.45275" lon="1.86863">
        <ele>254</ele>
        <time>2022-04-13T10:37:52.999Z</time>
      </trkpt>
      <trkpt lat="43.45157" lon="1.87362">
        <ele>257</ele>
        <time>2022-04-13T10:37:57.999Z</time>
      </trkpt>
      <trkpt lat="43.45134" lon="1.87435">
        <ele>260</ele>
        <time>2022-04-13T10:38:02.999Z</time>
      </trkpt>
      <trkpt lat="43.45106" lon="1.87492">
        <ele>262</ele>
        <time>2022-04-13T10:38:08Z</time>
      </trkpt>
      <trkpt lat="43.4506" lon="1.87563">
        <ele>262</ele>
        <time>2022-04-13T10:38:13Z</time>
      </trkpt>
      <trkpt lat="43.45014" lon="1.8769">
        <ele>261</ele>
        <time>2022-04-13T10:38:17.999Z</time>
      </trkpt>
      <trkpt lat="43.44992" lon="1.8775">
        <ele>263</ele>
        <time>2022-04-13T10:38:22.999Z</time>
      </trkpt>
      <trkpt lat="43.44957" lon="1.87824">
        <ele>264</ele>
        <time>2022-04-13T10:38:27.999Z</time>
      </trkpt>
      <trkpt lat="43.44916" lon="1.87905">
        <ele>267</ele>
        <time>2022-04-13T10:41:49.999Z</time>
      </trkpt>
      <trkpt lat="43.44874" lon="1.87994">
        <ele>268</ele>
        <time>2022-04-13T10:41:54.999Z</time>
      </trkpt>
      <trkpt lat="43.44827" lon="1.88076">
        <ele>270</ele>
        <time>2022-04-13T10:41:59.999Z</time>
      </trkpt>
      <trkpt lat="43.44797" lon="1.88146">
        <ele>271</ele>
        <time>2022-04-13T10:42:05Z</time>
      </trkpt>
      <trkpt lat="43.44747" lon="1.88293">
        <ele>280</ele>
        <time>2022-04-13T10:42:10Z</time>
      </trkpt>
      <trkpt lat="43.44713" lon="1.88242">
        <ele>276</ele>
        <time>2022-04-13T10:42:15Z</time>
      </trkpt>
      <trkpt lat="43.44661" lon="1.882">
        <ele>277</ele>
        <time>2022-04-13T10:42:20Z</time>
      </trkpt>
      <trkpt lat="43.44602" lon="1.88164">
        <ele>279</ele>
        <time>2022-04-13T10:42:25Z</time>
      </trkpt>
      <trkpt lat="43.44539" lon="1.88149">
        <ele>292</ele>
        <time>2022-04-13T10:42:30Z</time>
      </trkpt>
      <trkpt lat="43.44486" lon="1.88136">
        <ele>295</ele>
        <time>2022-04-13T10:42:35Z</time>
      </trkpt>
      <trkpt lat="43.44458" lon="1.88123">
        <ele>296</ele>
        <time>2022-04-13T10:42:40Z</time>
      </trkpt>
      <trkpt lat="43.44431" lon="1.88118">
        <ele>296</ele>
        <time>2022-04-13T10:42:45Z</time>
      </trkpt>
      <trkpt lat="43.44402" lon="1.88107">
        <ele>297</ele>
        <time>2022-04-13T10:42:49.999Z</time>
      </trkpt>
      <trkpt lat="43.44374" lon="1.88123">
        <ele>301</ele>
        <time>2022-04-13T10:42:54.999Z</time>
      </trkpt>
      <trkpt lat="43.4434" lon="1.88138">
        <ele>306</ele>
        <time>2022-04-13T10:42:59.999Z</time>
      </trkpt>
      <trkpt lat="43.44313" lon="1.88171">
        <ele>309</ele>
        <time>2022-04-13T10:43:04.999Z</time>
      </trkpt>
      <trkpt lat="43.44286" lon="1.88203">
        <ele>314</ele>
        <time>2022-04-13T10:43:09.999Z</time>
      </trkpt>
      <trkpt lat="43.44278" lon="1.8822">
        <ele>315</ele>
        <time>2022-04-13T10:43:13.999Z</time>
      </trkpt>
      <trkpt lat="43.44263" lon="1.88175">
        <ele>319</ele>
        <time>2022-04-13T10:43:18.999Z</time>
      </trkpt>
      <trkpt lat="43.44258" lon="1.88149">
        <ele>321</ele>
        <time>2022-04-13T10:43:23.999Z</time>
      </trkpt>
      <trkpt lat="43.44252" lon="1.8811">
        <ele>323</ele>
        <time>2022-04-13T10:43:28.999Z</time>
      </trkpt>
      <trkpt lat="43.44243" lon="1.88078">
        <ele>323</ele>
        <time>2022-04-13T10:43:33.999Z</time>
      </trkpt>
      <trkpt lat="43.44236" lon="1.88037">
        <ele>328</ele>
        <time>2022-04-13T10:43:38.999Z</time>
      </trkpt>
      <trkpt lat="43.4424" lon="1.8802">
        <ele>323</ele>
        <time>2022-04-13T10:43:43.999Z</time>
      </trkpt>
      <trkpt lat="43.4424" lon="1.88018">
        <ele>323</ele>
        <time>2022-04-13T10:43:48.999Z</time>
      </trkpt>
      <trkpt lat="43.4424" lon="1.88018">
        <ele>323</ele>
        <time>2022-04-13T10:44:00.999Z</time>
      </trkpt>
      <trkpt lat="43.4424" lon="1.88018">
        <ele>323</ele>
        <time>2022-04-13T10:44:18Z</time>
      </trkpt>
      <trkpt lat="43.44242" lon="1.88011">
        <ele>325</ele>
        <time>2022-04-13T10:44:23Z</time>
      </trkpt>
      <trkpt lat="43.44258" lon="1.87982">
        <ele>325</ele>
        <time>2022-04-13T10:44:28Z</time>
      </trkpt>
      <trkpt lat="43.44286" lon="1.87945">
        <ele>323</ele>
        <time>2022-04-13T10:44:33Z</time>
      </trkpt>
      <trkpt lat="43.44299" lon="1.8792">
        <ele>324</ele>
        <time>2022-04-13T10:44:38Z</time>
      </trkpt>
      <trkpt lat="43.44258" lon="1.8787">
        <ele>323</ele>
        <time>2022-04-13T10:44:42Z</time>
      </trkpt>
      <trkpt lat="43.44222" lon="1.87826">
        <ele>317</ele>
        <time>2022-04-13T10:44:47Z</time>
      </trkpt>
      <trkpt lat="43.44198" lon="1.87791">
        <ele>310</ele>
        <time>2022-04-13T10:44:51.999Z</time>
      </trkpt>
      <trkpt lat="43.44191" lon="1.87731">
        <ele>308</ele>
        <time>2022-04-13T10:44:56.999Z</time>
      </trkpt>
      <trkpt lat="43.44174" lon="1.87661">
        <ele>301</ele>
        <time>2022-04-13T10:45:01.999Z</time>
      </trkpt>
      <trkpt lat="43.4414" lon="1.87618">
        <ele>303</ele>
        <time>2022-04-13T10:46:01.999Z</time>
      </trkpt>
      <trkpt lat="43.44124" lon="1.87564">
        <ele>302</ele>
        <time>2022-04-13T10:46:06.999Z</time>
      </trkpt>
      <trkpt lat="43.44117" lon="1.87499">
        <ele>302</ele>
        <time>2022-04-13T10:46:11.999Z</time>
      </trkpt>
      <trkpt lat="43.44122" lon="1.87424">
        <ele>306</ele>
        <time>2022-04-13T10:46:17Z</time>
      </trkpt>
      <trkpt lat="43.44128" lon="1.87352">
        <ele>307</ele>
        <time>2022-04-13T10:46:22Z</time>
      </trkpt>
      <trkpt lat="43.44136" lon="1.87284">
        <ele>313</ele>
        <time>2022-04-13T10:46:26Z</time>
      </trkpt>
      <trkpt lat="43.44138" lon="1.87215">
        <ele>317</ele>
        <time>2022-04-13T10:46:31Z</time>
      </trkpt>
      <trkpt lat="43.44115" lon="1.87156">
        <ele>319</ele>
        <time>2022-04-13T10:46:36Z</time>
      </trkpt>
      <trkpt lat="43.44107" lon="1.87109">
        <ele>316</ele>
        <time>2022-04-13T10:46:41Z</time>
      </trkpt>
      <trkpt lat="43.44118" lon="1.87048">
        <ele>315</ele>
        <time>2022-04-13T10:46:45.999Z</time>
      </trkpt>
      <trkpt lat="43.44135" lon="1.86978">
        <ele>313</ele>
        <time>2022-04-13T10:46:50.999Z</time>
      </trkpt>
      <trkpt lat="43.44152" lon="1.86909">
        <ele>311</ele>
        <time>2022-04-13T10:46:54.999Z</time>
      </trkpt>
      <trkpt lat="43.44167" lon="1.86853">
        <ele>312</ele>
        <time>2022-04-13T10:46:59.999Z</time>
      </trkpt>
      <trkpt lat="43.44196" lon="1.8679">
        <ele>310</ele>
        <time>2022-04-13T10:47:03.999Z</time>
      </trkpt>
      <trkpt lat="43.4423" lon="1.86736">
        <ele>310</ele>
        <time>2022-04-13T10:47:08.999Z</time>
      </trkpt>
      <trkpt lat="43.44262" lon="1.86683">
        <ele>308</ele>
        <time>2022-04-13T10:47:11.999Z</time>
      </trkpt>
      <trkpt lat="43.44285" lon="1.86647">
        <ele>307</ele>
        <time>2022-04-13T10:50:43Z</time>
      </trkpt>
      <trkpt lat="43.44307" lon="1.86621">
        <ele>310</ele>
        <time>2022-04-13T10:50:48Z</time>
      </trkpt>
      <trkpt lat="43.44307" lon="1.8662">
        <ele>310</ele>
        <time>2022-04-13T10:50:52Z</time>
      </trkpt>
      <trkpt lat="43.44326" lon="1.86598">
        <ele>309</ele>
        <time>2022-04-13T10:50:56.999Z</time>
      </trkpt>
      <trkpt lat="43.44357" lon="1.8656">
        <ele>304</ele>
        <time>2022-04-13T10:51:00.999Z</time>
      </trkpt>
      <trkpt lat="43.44377" lon="1.86534">
        <ele>303</ele>
        <time>2022-04-13T10:51:05.999Z</time>
      </trkpt>
      <trkpt lat="43.44362" lon="1.86501">
        <ele>302</ele>
        <time>2022-04-13T10:51:09.999Z</time>
      </trkpt>
      <trkpt lat="43.4434" lon="1.86453">
        <ele>297</ele>
        <time>2022-04-13T10:51:14.999Z</time>
      </trkpt>
      <trkpt lat="43.44334" lon="1.86411">
        <ele>292</ele>
        <time>2022-04-13T10:51:19.999Z</time>
      </trkpt>
      <trkpt lat="43.44336" lon="1.86363">
        <ele>284</ele>
        <time>2022-04-13T10:51:24.999Z</time>
      </trkpt>
      <trkpt lat="43.44355" lon="1.86312">
        <ele>280</ele>
        <time>2022-04-13T10:51:29.999Z</time>
      </trkpt>
      <trkpt lat="43.44386" lon="1.86258">
        <ele>275</ele>
        <time>2022-04-13T10:51:34.999Z</time>
      </trkpt>
      <trkpt lat="43.44415" lon="1.86212">
        <ele>275</ele>
        <time>2022-04-13T10:51:39.999Z</time>
      </trkpt>
      <trkpt lat="43.44437" lon="1.86175">
        <ele>273</ele>
        <time>2022-04-13T10:51:44.999Z</time>
      </trkpt>
      <trkpt lat="43.44445" lon="1.86126">
        <ele>271</ele>
        <time>2022-04-13T10:51:49.999Z</time>
      </trkpt>
      <trkpt lat="43.4444" lon="1.86032">
        <ele>261</ele>
        <time>2022-04-13T10:51:54.999Z</time>
      </trkpt>
      <trkpt lat="43.44435" lon="1.85924">
        <ele>257</ele>
        <time>2022-04-13T10:51:59.999Z</time>
      </trkpt>
      <trkpt lat="43.44422" lon="1.85822">
        <ele>256</ele>
        <time>2022-04-13T10:52:04.999Z</time>
      </trkpt>
      <trkpt lat="43.44403" lon="1.85726">
        <ele>252</ele>
        <time>2022-04-13T10:52:09.999Z</time>
      </trkpt>
      <trkpt lat="43.44374" lon="1.85607">
        <ele>248</ele>
        <time>2022-04-13T10:52:14.999Z</time>
      </trkpt>
      <trkpt lat="43.44371" lon="1.85607">
        <ele>248</ele>
        <time>2022-04-13T10:52:19.999Z</time>
      </trkpt>
      <trkpt lat="43.44342" lon="1.85651">
        <ele>248</ele>
        <time>2022-04-13T10:52:24.999Z</time>
      </trkpt>
      <trkpt lat="43.44304" lon="1.8569">
        <ele>249</ele>
        <time>2022-04-13T10:52:29.999Z</time>
      </trkpt>
      <trkpt lat="43.4426" lon="1.85746">
        <ele>249</ele>
        <time>2022-04-13T10:52:35Z</time>
      </trkpt>
      <trkpt lat="43.44211" lon="1.85808">
        <ele>252</ele>
        <time>2022-04-13T10:52:39Z</time>
      </trkpt>
      <trkpt lat="43.44149" lon="1.85866">
        <ele>253</ele>
        <time>2022-04-13T10:52:44Z</time>
      </trkpt>
      <trkpt lat="43.44092" lon="1.85925">
        <ele>254</ele>
        <time>2022-04-13T10:52:49Z</time>
      </trkpt>
      <trkpt lat="43.4407" lon="1.85962">
        <ele>254</ele>
        <time>2022-04-13T10:52:53.999Z</time>
      </trkpt>
      <trkpt lat="43.44037" lon="1.85983">
        <ele>254</ele>
        <time>2022-04-13T10:52:58.999Z</time>
      </trkpt>
      <trkpt lat="43.43967" lon="1.86017">
        <ele>257</ele>
        <time>2022-04-13T10:53:02.999Z</time>
      </trkpt>
      <trkpt lat="43.43894" lon="1.86057">
        <ele>260</ele>
        <time>2022-04-13T10:53:07.999Z</time>
      </trkpt>
      <trkpt lat="43.43826" lon="1.86116">
        <ele>260</ele>
        <time>2022-04-13T10:53:12.999Z</time>
      </trkpt>
      <trkpt lat="43.43789" lon="1.86188">
        <ele>264</ele>
        <time>2022-04-13T10:53:17.999Z</time>
      </trkpt>
      <trkpt lat="43.43744" lon="1.86279">
        <ele>271</ele>
        <time>2022-04-13T10:53:22.999Z</time>
      </trkpt>
      <trkpt lat="43.43705" lon="1.864">
        <ele>267</ele>
        <time>2022-04-13T10:53:27.999Z</time>
      </trkpt>
      <trkpt lat="43.43676" lon="1.86452">
        <ele>266</ele>
        <time>2022-04-13T10:53:32.999Z</time>
      </trkpt>
      <trkpt lat="43.43625" lon="1.86532">
        <ele>269</ele>
        <time>2022-04-13T10:53:37.999Z</time>
      </trkpt>
      <trkpt lat="43.43583" lon="1.8662">
        <ele>274</ele>
        <time>2022-04-13T10:53:42.999Z</time>
      </trkpt>
      <trkpt lat="43.43539" lon="1.86692">
        <ele>279</ele>
        <time>2022-04-13T10:53:47.999Z</time>
      </trkpt>
      <trkpt lat="43.43514" lon="1.86711">
        <ele>280</ele>
        <time>2022-04-13T10:53:51.999Z</time>
      </trkpt>
      <trkpt lat="43.43487" lon="1.86703">
        <ele>277</ele>
        <time>2022-04-13T10:53:55.999Z</time>
      </trkpt>
      <trkpt lat="43.43434" lon="1.86642">
        <ele>279</ele>
        <time>2022-04-13T10:54:00.999Z</time>
      </trkpt>
      <trkpt lat="43.43336" lon="1.86712">
        <ele>282</ele>
        <time>2022-04-13T10:54:05.999Z</time>
      </trkpt>
      <trkpt lat="43.43288" lon="1.86673">
        <ele>274</ele>
        <time>2022-04-13T10:54:10.999Z</time>
      </trkpt>
      <trkpt lat="43.43258" lon="1.86626">
        <ele>273</ele>
        <time>2022-04-13T10:54:15.999Z</time>
      </trkpt>
      <trkpt lat="43.4323" lon="1.86564">
        <ele>271</ele>
        <time>2022-04-13T10:54:20.999Z</time>
      </trkpt>
      <trkpt lat="43.43208" lon="1.86512">
        <ele>268</ele>
        <time>2022-04-13T10:54:25.999Z</time>
      </trkpt>
      <trkpt lat="43.43181" lon="1.8645">
        <ele>267</ele>
        <time>2022-04-13T10:54:30.999Z</time>
      </trkpt>
      <trkpt lat="43.43162" lon="1.86404">
        <ele>264</ele>
        <time>2022-04-13T10:54:34.999Z</time>
      </trkpt>
      <trkpt lat="43.43155" lon="1.86385">
        <ele>264</ele>
        <time>2022-04-13T10:54:39.999Z</time>
      </trkpt>
      <trkpt lat="43.43143" lon="1.86381">
        <ele>261</ele>
        <time>2022-04-13T10:54:44.999Z</time>
      </trkpt>
      <trkpt lat="43.43109" lon="1.86412">
        <ele>258</ele>
        <time>2022-04-13T10:54:49.999Z</time>
      </trkpt>
      <trkpt lat="43.43062" lon="1.86442">
        <ele>255</ele>
        <time>2022-04-13T10:54:54.999Z</time>
      </trkpt>
      <trkpt lat="43.43006" lon="1.8646">
        <ele>254</ele>
        <time>2022-04-13T10:54:59.999Z</time>
      </trkpt>
      <trkpt lat="43.4295" lon="1.86479">
        <ele>251</ele>
        <time>2022-04-13T10:55:04.999Z</time>
      </trkpt>
      <trkpt lat="43.42906" lon="1.86494">
        <ele>250</ele>
        <time>2022-04-13T10:55:08.999Z</time>
      </trkpt>
      <trkpt lat="43.42856" lon="1.86511">
        <ele>251</ele>
        <time>2022-04-13T10:55:13.999Z</time>
      </trkpt>
      <trkpt lat="43.42828" lon="1.8652">
        <ele>252</ele>
        <time>2022-04-13T10:55:18.999Z</time>
      </trkpt>
      <trkpt lat="43.42789" lon="1.86541">
        <ele>249</ele>
        <time>2022-04-13T10:55:23.999Z</time>
      </trkpt>
      <trkpt lat="43.42737" lon="1.86587">
        <ele>249</ele>
        <time>2022-04-13T10:55:27.999Z</time>
      </trkpt>
      <trkpt lat="43.42693" lon="1.86645">
        <ele>248</ele>
        <time>2022-04-13T10:55:32.999Z</time>
      </trkpt>
      <trkpt lat="43.42657" lon="1.86691">
        <ele>250</ele>
        <time>2022-04-13T10:55:37.999Z</time>
      </trkpt>
      <trkpt lat="43.42613" lon="1.8672">
        <ele>250</ele>
        <time>2022-04-13T10:55:42.999Z</time>
      </trkpt>
      <trkpt lat="43.42594" lon="1.86731">
        <ele>249</ele>
        <time>2022-04-13T10:55:46.999Z</time>
      </trkpt>
      <trkpt lat="43.4258" lon="1.86712">
        <ele>249</ele>
        <time>2022-04-13T10:55:51.999Z</time>
      </trkpt>
      <trkpt lat="43.42538" lon="1.86668">
        <ele>250</ele>
        <time>2022-04-13T10:55:55.999Z</time>
      </trkpt>
      <trkpt lat="43.42496" lon="1.86631">
        <ele>249</ele>
        <time>2022-04-13T10:56:00.999Z</time>
      </trkpt>
      <trkpt lat="43.42449" lon="1.8664">
        <ele>250</ele>
        <time>2022-04-13T10:56:05.999Z</time>
      </trkpt>
      <trkpt lat="43.42439" lon="1.86616">
        <ele>248</ele>
        <time>2022-04-13T10:56:10.999Z</time>
      </trkpt>
      <trkpt lat="43.42404" lon="1.8656">
        <ele>247</ele>
        <time>2022-04-13T10:56:14.999Z</time>
      </trkpt>
      <trkpt lat="43.42357" lon="1.86491">
        <ele>251</ele>
        <time>2022-04-13T10:56:19.999Z</time>
      </trkpt>
      <trkpt lat="43.42303" lon="1.86413">
        <ele>253</ele>
        <time>2022-04-13T10:56:24.999Z</time>
      </trkpt>
      <trkpt lat="43.42259" lon="1.86337">
        <ele>254</ele>
        <time>2022-04-13T10:56:28.999Z</time>
      </trkpt>
      <trkpt lat="43.4222" lon="1.86237">
        <ele>250</ele>
        <time>2022-04-13T10:56:33.999Z</time>
      </trkpt>
      <trkpt lat="43.4217" lon="1.86125">
        <ele>246</ele>
        <time>2022-04-13T10:56:37.999Z</time>
      </trkpt>
      <trkpt lat="43.42103" lon="1.86028">
        <ele>248</ele>
        <time>2022-04-13T10:56:42.999Z</time>
      </trkpt>
      <trkpt lat="43.42069" lon="1.8598">
        <ele>247</ele>
        <time>2022-04-13T10:56:47.999Z</time>
      </trkpt>
      <trkpt lat="43.42014" lon="1.85899">
        <ele>246</ele>
        <time>2022-04-13T10:56:51.999Z</time>
      </trkpt>
      <trkpt lat="43.41989" lon="1.85805">
        <ele>244</ele>
        <time>2022-04-13T10:56:56.999Z</time>
      </trkpt>
      <trkpt lat="43.41963" lon="1.85738">
        <ele>243</ele>
        <time>2022-04-13T10:57:00.999Z</time>
      </trkpt>
      <trkpt lat="43.41941" lon="1.85712">
        <ele>242</ele>
        <time>2022-04-13T10:57:05.999Z</time>
      </trkpt>
      <trkpt lat="43.41921" lon="1.8575">
        <ele>244</ele>
        <time>2022-04-13T10:57:10.999Z</time>
      </trkpt>
      <trkpt lat="43.41902" lon="1.85788">
        <ele>247</ele>
        <time>2022-04-13T10:57:15.999Z</time>
      </trkpt>
      <trkpt lat="43.41879" lon="1.85833">
        <ele>248</ele>
        <time>2022-04-13T10:57:20.999Z</time>
      </trkpt>
      <trkpt lat="43.41855" lon="1.85876">
        <ele>247</ele>
        <time>2022-04-13T10:57:24.999Z</time>
      </trkpt>
      <trkpt lat="43.41833" lon="1.85936">
        <ele>250</ele>
        <time>2022-04-13T10:57:29.999Z</time>
      </trkpt>
      <trkpt lat="43.41811" lon="1.86005">
        <ele>250</ele>
        <time>2022-04-13T10:57:34.999Z</time>
      </trkpt>
      <trkpt lat="43.41786" lon="1.86077">
        <ele>254</ele>
        <time>2022-04-13T10:57:39.999Z</time>
      </trkpt>
      <trkpt lat="43.41758" lon="1.86152">
        <ele>254</ele>
        <time>2022-04-13T10:57:44.999Z</time>
      </trkpt>
      <trkpt lat="43.41735" lon="1.86215">
        <ele>259</ele>
        <time>2022-04-13T10:57:49.999Z</time>
      </trkpt>
      <trkpt lat="43.41696" lon="1.86286">
        <ele>263</ele>
        <time>2022-04-13T10:57:54.999Z</time>
      </trkpt>
      <trkpt lat="43.41657" lon="1.86358">
        <ele>267</ele>
        <time>2022-04-13T10:57:59.999Z</time>
      </trkpt>
      <trkpt lat="43.41614" lon="1.86423">
        <ele>267</ele>
        <time>2022-04-13T10:58:04.999Z</time>
      </trkpt>
      <trkpt lat="43.41594" lon="1.86437">
        <ele>267</ele>
        <time>2022-04-13T10:58:08.999Z</time>
      </trkpt>
      <trkpt lat="43.41562" lon="1.86404">
        <ele>265</ele>
        <time>2022-04-13T10:58:13.999Z</time>
      </trkpt>
      <trkpt lat="43.41519" lon="1.86361">
        <ele>262</ele>
        <time>2022-04-13T10:58:17.999Z</time>
      </trkpt>
      <trkpt lat="43.41475" lon="1.86323">
        <ele>260</ele>
        <time>2022-04-13T10:58:22.999Z</time>
      </trkpt>
      <trkpt lat="43.41442" lon="1.86293">
        <ele>258</ele>
        <time>2022-04-13T10:58:27.999Z</time>
      </trkpt>
      <trkpt lat="43.41439" lon="1.86254">
        <ele>256</ele>
        <time>2022-04-13T10:59:52.999Z</time>
      </trkpt>
      <trkpt lat="43.41434" lon="1.86192">
        <ele>256</ele>
        <time>2022-04-13T10:59:57.999Z</time>
      </trkpt>
      <trkpt lat="43.4144" lon="1.86149">
        <ele>257</ele>
        <time>2022-04-13T11:00:02.999Z</time>
      </trkpt>
      <trkpt lat="43.41443" lon="1.86123">
        <ele>257</ele>
        <time>2022-04-13T11:00:07.999Z</time>
      </trkpt>
      <trkpt lat="43.41436" lon="1.86105">
        <ele>257</ele>
        <time>2022-04-13T11:00:12.999Z</time>
      </trkpt>
      <trkpt lat="43.41402" lon="1.86073">
        <ele>254</ele>
        <time>2022-04-13T11:00:17.999Z</time>
      </trkpt>
      <trkpt lat="43.41365" lon="1.8605">
        <ele>254</ele>
        <time>2022-04-13T11:00:22.999Z</time>
      </trkpt>
      <trkpt lat="43.41331" lon="1.86029">
        <ele>254</ele>
        <time>2022-04-13T11:00:27.999Z</time>
      </trkpt>
      <trkpt lat="43.41307" lon="1.86014">
        <ele>251</ele>
        <time>2022-04-13T11:00:32.999Z</time>
      </trkpt>
      <trkpt lat="43.41275" lon="1.85992">
        <ele>248</ele>
        <time>2022-04-13T11:00:37.999Z</time>
      </trkpt>
      <trkpt lat="43.41244" lon="1.85971">
        <ele>247</ele>
        <time>2022-04-13T11:00:42.999Z</time>
      </trkpt>
      <trkpt lat="43.41217" lon="1.85955">
        <ele>244</ele>
        <time>2022-04-13T11:00:47.999Z</time>
      </trkpt>
      <trkpt lat="43.41189" lon="1.8594">
        <ele>242</ele>
        <time>2022-04-13T11:00:51.999Z</time>
      </trkpt>
      <trkpt lat="43.41157" lon="1.85927">
        <ele>241</ele>
        <time>2022-04-13T11:01:06Z</time>
      </trkpt>
      <trkpt lat="43.41127" lon="1.85905">
        <ele>241</ele>
        <time>2022-04-13T11:01:11Z</time>
      </trkpt>
      <trkpt lat="43.41102" lon="1.85879">
        <ele>243</ele>
        <time>2022-04-13T11:01:16Z</time>
      </trkpt>
      <trkpt lat="43.41077" lon="1.85848">
        <ele>245</ele>
        <time>2022-04-13T11:01:21Z</time>
      </trkpt>
      <trkpt lat="43.41058" lon="1.85835">
        <ele>245</ele>
        <time>2022-04-13T11:01:25.999Z</time>
      </trkpt>
      <trkpt lat="43.41055" lon="1.85834">
        <ele>245</ele>
        <time>2022-04-13T11:01:30.999Z</time>
      </trkpt>
      <trkpt lat="43.41038" lon="1.85825">
        <ele>245</ele>
        <time>2022-04-13T11:01:35.999Z</time>
      </trkpt>
      <trkpt lat="43.41005" lon="1.85801">
        <ele>241</ele>
        <time>2022-04-13T11:01:40.999Z</time>
      </trkpt>
      <trkpt lat="43.40957" lon="1.85759">
        <ele>237</ele>
        <time>2022-04-13T11:01:45.999Z</time>
      </trkpt>
      <trkpt lat="43.40904" lon="1.85715">
        <ele>240</ele>
        <time>2022-04-13T11:01:50.999Z</time>
      </trkpt>
      <trkpt lat="43.40876" lon="1.85695">
        <ele>244</ele>
        <time>2022-04-13T11:01:55.999Z</time>
      </trkpt>
      <trkpt lat="43.40864" lon="1.85686">
        <ele>246</ele>
        <time>2022-04-13T11:02:00.999Z</time>
      </trkpt>
      <trkpt lat="43.40853" lon="1.85671">
        <ele>246</ele>
        <time>2022-04-13T11:02:05.999Z</time>
      </trkpt>
      <trkpt lat="43.40838" lon="1.85652">
        <ele>247</ele>
        <time>2022-04-13T11:02:10.999Z</time>
      </trkpt>
      <trkpt lat="43.40815" lon="1.8562">
        <ele>250</ele>
        <time>2022-04-13T11:02:15.999Z</time>
      </trkpt>
      <trkpt lat="43.4079" lon="1.85587">
        <ele>254</ele>
        <time>2022-04-13T11:02:20.999Z</time>
      </trkpt>
      <trkpt lat="43.40764" lon="1.85547">
        <ele>254</ele>
        <time>2022-04-13T11:02:25.999Z</time>
      </trkpt>
      <trkpt lat="43.40733" lon="1.85512">
        <ele>248</ele>
        <time>2022-04-13T11:02:30.999Z</time>
      </trkpt>
      <trkpt lat="43.40712" lon="1.85514">
        <ele>252</ele>
        <time>2022-04-13T11:02:35.999Z</time>
      </trkpt>
      <trkpt lat="43.40704" lon="1.85532">
        <ele>250</ele>
        <time>2022-04-13T11:02:40.999Z</time>
      </trkpt>
      <trkpt lat="43.40692" lon="1.85547">
        <ele>255</ele>
        <time>2022-04-13T11:02:45.999Z</time>
      </trkpt>
      <trkpt lat="43.40676" lon="1.85564">
        <ele>251</ele>
        <time>2022-04-13T11:02:50.999Z</time>
      </trkpt>
      <trkpt lat="43.40659" lon="1.85582">
        <ele>256</ele>
        <time>2022-04-13T11:02:55.999Z</time>
      </trkpt>
      <trkpt lat="43.40637" lon="1.85612">
        <ele>254</ele>
        <time>2022-04-13T11:03:00.999Z</time>
      </trkpt>
      <trkpt lat="43.40609" lon="1.85648">
        <ele>252</ele>
        <time>2022-04-13T11:03:06Z</time>
      </trkpt>
      <trkpt lat="43.40587" lon="1.85686">
        <ele>253</ele>
        <time>2022-04-13T11:03:11Z</time>
      </trkpt>
      <trkpt lat="43.40567" lon="1.85747">
        <ele>250</ele>
        <time>2022-04-13T11:03:16Z</time>
      </trkpt>
      <trkpt lat="43.40548" lon="1.8582">
        <ele>253</ele>
        <time>2022-04-13T11:03:21Z</time>
      </trkpt>
      <trkpt lat="43.40526" lon="1.85894">
        <ele>254</ele>
        <time>2022-04-13T11:03:26Z</time>
      </trkpt>
      <trkpt lat="43.40504" lon="1.85967">
        <ele>256</ele>
        <time>2022-04-13T11:03:30.999Z</time>
      </trkpt>
      <trkpt lat="43.40489" lon="1.8604">
        <ele>257</ele>
        <time>2022-04-13T11:03:35.999Z</time>
      </trkpt>
      <trkpt lat="43.40485" lon="1.86111">
        <ele>258</ele>
        <time>2022-04-13T11:03:40.999Z</time>
      </trkpt>
      <trkpt lat="43.40469" lon="1.86174">
        <ele>257</ele>
        <time>2022-04-13T11:03:45.999Z</time>
      </trkpt>
      <trkpt lat="43.4044" lon="1.86221">
        <ele>258</ele>
        <time>2022-04-13T11:04:00.999Z</time>
      </trkpt>
      <trkpt lat="43.40403" lon="1.86262">
        <ele>257</ele>
        <time>2022-04-13T11:04:05.999Z</time>
      </trkpt>
      <trkpt lat="43.40373" lon="1.86313">
        <ele>257</ele>
        <time>2022-04-13T11:04:10.999Z</time>
      </trkpt>
      <trkpt lat="43.40357" lon="1.86358">
        <ele>259</ele>
        <time>2022-04-13T11:04:15.999Z</time>
      </trkpt>
      <trkpt lat="43.40342" lon="1.86401">
        <ele>260</ele>
        <time>2022-04-13T11:04:20.999Z</time>
      </trkpt>
      <trkpt lat="43.40317" lon="1.86374">
        <ele>259</ele>
        <time>2022-04-13T11:04:25.999Z</time>
      </trkpt>
      <trkpt lat="43.40272" lon="1.86288">
        <ele>257</ele>
        <time>2022-04-13T11:04:30.999Z</time>
      </trkpt>
      <trkpt lat="43.40242" lon="1.86212">
        <ele>257</ele>
        <time>2022-04-13T11:04:35.999Z</time>
      </trkpt>
      <trkpt lat="43.40217" lon="1.86266">
        <ele>259</ele>
        <time>2022-04-13T11:04:40.999Z</time>
      </trkpt>
      <trkpt lat="43.40187" lon="1.86282">
        <ele>261</ele>
        <time>2022-04-13T11:04:45.999Z</time>
      </trkpt>
      <trkpt lat="43.40159" lon="1.86313">
        <ele>262</ele>
        <time>2022-04-13T11:04:50.999Z</time>
      </trkpt>
      <trkpt lat="43.40135" lon="1.86363">
        <ele>262</ele>
        <time>2022-04-13T11:04:55.999Z</time>
      </trkpt>
      <trkpt lat="43.4011" lon="1.86418">
        <ele>263</ele>
        <time>2022-04-13T11:05:00.999Z</time>
      </trkpt>
      <trkpt lat="43.40084" lon="1.86472">
        <ele>267</ele>
        <time>2022-04-13T11:05:05.999Z</time>
      </trkpt>
      <trkpt lat="43.40062" lon="1.86516">
        <ele>270</ele>
        <time>2022-04-13T11:05:11Z</time>
      </trkpt>
      <trkpt lat="43.40034" lon="1.86573">
        <ele>274</ele>
        <time>2022-04-13T11:05:16Z</time>
      </trkpt>
      <trkpt lat="43.40007" lon="1.86628">
        <ele>273</ele>
        <time>2022-04-13T11:05:21Z</time>
      </trkpt>
      <trkpt lat="43.39999" lon="1.86641">
        <ele>273</ele>
        <time>2022-04-13T11:05:26Z</time>
      </trkpt>
      <trkpt lat="43.39986" lon="1.86642">
        <ele>274</ele>
        <time>2022-04-13T11:05:31Z</time>
      </trkpt>
      <trkpt lat="43.39957" lon="1.86611">
        <ele>272</ele>
        <time>2022-04-13T11:05:35.999Z</time>
      </trkpt>
      <trkpt lat="43.39922" lon="1.8657">
        <ele>271</ele>
        <time>2022-04-13T11:05:40.999Z</time>
      </trkpt>
      <trkpt lat="43.39883" lon="1.86528">
        <ele>270</ele>
        <time>2022-04-13T11:05:45.999Z</time>
      </trkpt>
      <trkpt lat="43.39849" lon="1.865">
        <ele>268</ele>
        <time>2022-04-13T11:05:50.999Z</time>
      </trkpt>
      <trkpt lat="43.39821" lon="1.86481">
        <ele>266</ele>
        <time>2022-04-13T11:05:55.999Z</time>
      </trkpt>
      <trkpt lat="43.39798" lon="1.86462">
        <ele>266</ele>
        <time>2022-04-13T11:06:00.999Z</time>
      </trkpt>
      <trkpt lat="43.39769" lon="1.86428">
        <ele>267</ele>
        <time>2022-04-13T11:06:48.999Z</time>
      </trkpt>
      <trkpt lat="43.39755" lon="1.86416">
        <ele>269</ele>
        <time>2022-04-13T11:12:12.999Z</time>
      </trkpt>
      <trkpt lat="43.39749" lon="1.86393">
        <ele>269</ele>
        <time>2022-04-13T11:12:17.999Z</time>
      </trkpt>
      <trkpt lat="43.39729" lon="1.86356">
        <ele>270</ele>
        <time>2022-04-13T11:12:22.999Z</time>
      </trkpt>
      <trkpt lat="43.39699" lon="1.86319">
        <ele>271</ele>
        <time>2022-04-13T11:12:27.999Z</time>
      </trkpt>
      <trkpt lat="43.39665" lon="1.86282">
        <ele>270</ele>
        <time>2022-04-13T11:12:32.999Z</time>
      </trkpt>
      <trkpt lat="43.39636" lon="1.86258">
        <ele>266</ele>
        <time>2022-04-13T11:12:37.999Z</time>
      </trkpt>
      <trkpt lat="43.39602" lon="1.86225">
        <ele>263</ele>
        <time>2022-04-13T11:12:42.999Z</time>
      </trkpt>
      <trkpt lat="43.39571" lon="1.86187">
        <ele>260</ele>
        <time>2022-04-13T11:12:46.999Z</time>
      </trkpt>
      <trkpt lat="43.39547" lon="1.8614">
        <ele>253</ele>
        <time>2022-04-13T11:13:06.999Z</time>
      </trkpt>
      <trkpt lat="43.3952" lon="1.86095">
        <ele>251</ele>
        <time>2022-04-13T11:13:11.999Z</time>
      </trkpt>
      <trkpt lat="43.395" lon="1.86048">
        <ele>248</ele>
        <time>2022-04-13T11:13:16.999Z</time>
      </trkpt>
      <trkpt lat="43.39489" lon="1.85987">
        <ele>249</ele>
        <time>2022-04-13T11:13:21.999Z</time>
      </trkpt>
      <trkpt lat="43.39463" lon="1.8595">
        <ele>244</ele>
        <time>2022-04-13T11:13:26.999Z</time>
      </trkpt>
      <trkpt lat="43.39452" lon="1.85895">
        <ele>241</ele>
        <time>2022-04-13T11:13:31.999Z</time>
      </trkpt>
      <trkpt lat="43.39446" lon="1.85846">
        <ele>241</ele>
        <time>2022-04-13T11:13:36.999Z</time>
      </trkpt>
      <trkpt lat="43.39429" lon="1.85815">
        <ele>242</ele>
        <time>2022-04-13T11:13:41.999Z</time>
      </trkpt>
      <trkpt lat="43.39413" lon="1.85786">
        <ele>242</ele>
        <time>2022-04-13T11:13:46.999Z</time>
      </trkpt>
      <trkpt lat="43.39402" lon="1.85764">
        <ele>241</ele>
        <time>2022-04-13T11:13:51.999Z</time>
      </trkpt>
      <trkpt lat="43.39391" lon="1.85744">
        <ele>241</ele>
        <time>2022-04-13T11:13:56.999Z</time>
      </trkpt>
      <trkpt lat="43.39386" lon="1.85719">
        <ele>241</ele>
        <time>2022-04-13T11:14:01.999Z</time>
      </trkpt>
      <trkpt lat="43.39392" lon="1.85682">
        <ele>242</ele>
        <time>2022-04-13T11:14:06.999Z</time>
      </trkpt>
      <trkpt lat="43.39392" lon="1.8565">
        <ele>247</ele>
        <time>2022-04-13T11:14:11.999Z</time>
      </trkpt>
      <trkpt lat="43.39389" lon="1.85606">
        <ele>249</ele>
        <time>2022-04-13T11:14:16.999Z</time>
      </trkpt>
      <trkpt lat="43.39387" lon="1.85562">
        <ele>251</ele>
        <time>2022-04-13T11:14:20.999Z</time>
      </trkpt>
      <trkpt lat="43.39384" lon="1.85525">
        <ele>253</ele>
        <time>2022-04-13T11:14:25.999Z</time>
      </trkpt>
      <trkpt lat="43.39379" lon="1.85488">
        <ele>254</ele>
        <time>2022-04-13T11:14:29.999Z</time>
      </trkpt>
      <trkpt lat="43.39363" lon="1.85448">
        <ele>255</ele>
        <time>2022-04-13T11:14:34.999Z</time>
      </trkpt>
      <trkpt lat="43.39347" lon="1.8542">
        <ele>256</ele>
        <time>2022-04-13T11:14:39.999Z</time>
      </trkpt>
      <trkpt lat="43.3933" lon="1.85389">
        <ele>257</ele>
        <time>2022-04-13T11:14:44.999Z</time>
      </trkpt>
      <trkpt lat="43.39301" lon="1.85352">
        <ele>256</ele>
        <time>2022-04-13T11:15:23.999Z</time>
      </trkpt>
      <trkpt lat="43.39274" lon="1.85322">
        <ele>257</ele>
        <time>2022-04-13T11:16:33.999Z</time>
      </trkpt>
      <trkpt lat="43.39236" lon="1.85284">
        <ele>255</ele>
        <time>2022-04-13T11:16:38.999Z</time>
      </trkpt>
      <trkpt lat="43.39186" lon="1.85234">
        <ele>256</ele>
        <time>2022-04-13T11:16:43.999Z</time>
      </trkpt>
      <trkpt lat="43.39139" lon="1.85187">
        <ele>259</ele>
        <time>2022-04-13T11:16:48.999Z</time>
      </trkpt>
      <trkpt lat="43.39088" lon="1.85148">
        <ele>251</ele>
        <time>2022-04-13T11:16:53.999Z</time>
      </trkpt>
      <trkpt lat="43.39061" lon="1.85127">
        <ele>251</ele>
        <time>2022-04-13T11:16:58.999Z</time>
      </trkpt>
      <trkpt lat="43.39038" lon="1.85098">
        <ele>251</ele>
        <time>2022-04-13T11:17:03.999Z</time>
      </trkpt>
      <trkpt lat="43.39016" lon="1.85044">
        <ele>251</ele>
        <time>2022-04-13T11:17:08.999Z</time>
      </trkpt>
      <trkpt lat="43.38984" lon="1.85021">
        <ele>249</ele>
        <time>2022-04-13T11:17:13.999Z</time>
      </trkpt>
      <trkpt lat="43.38935" lon="1.84984">
        <ele>243</ele>
        <time>2022-04-13T11:17:18.999Z</time>
      </trkpt>
      <trkpt lat="43.38948" lon="1.8497">
        <ele>243</ele>
        <time>2022-04-13T11:17:23.999Z</time>
      </trkpt>
      <trkpt lat="43.38974" lon="1.84928">
        <ele>246</ele>
        <time>2022-04-13T11:17:28.999Z</time>
      </trkpt>
      <trkpt lat="43.39008" lon="1.84874">
        <ele>245</ele>
        <time>2022-04-13T11:17:33.999Z</time>
      </trkpt>
      <trkpt lat="43.39014" lon="1.84843">
        <ele>247</ele>
        <time>2022-04-13T11:17:38.999Z</time>
      </trkpt>
      <trkpt lat="43.38972" lon="1.8481">
        <ele>241</ele>
        <time>2022-04-13T11:17:43.999Z</time>
      </trkpt>
      <trkpt lat="43.3892" lon="1.84797">
        <ele>239</ele>
        <time>2022-04-13T11:17:49Z</time>
      </trkpt>
      <trkpt lat="43.38877" lon="1.84793">
        <ele>239</ele>
        <time>2022-04-13T11:17:54Z</time>
      </trkpt>
      <trkpt lat="43.38827" lon="1.84788">
        <ele>244</ele>
        <time>2022-04-13T11:17:59Z</time>
      </trkpt>
      <trkpt lat="43.38795" lon="1.8479">
        <ele>245</ele>
        <time>2022-04-13T11:18:04Z</time>
      </trkpt>
      <trkpt lat="43.38773" lon="1.84778">
        <ele>245</ele>
        <time>2022-04-13T11:18:08.999Z</time>
      </trkpt>
      <trkpt lat="43.38752" lon="1.84781">
        <ele>245</ele>
        <time>2022-04-13T11:18:13.999Z</time>
      </trkpt>
      <trkpt lat="43.38712" lon="1.84811">
        <ele>246</ele>
        <time>2022-04-13T11:18:18.999Z</time>
      </trkpt>
      <trkpt lat="43.38671" lon="1.84848">
        <ele>245</ele>
        <time>2022-04-13T11:18:22.999Z</time>
      </trkpt>
      <trkpt lat="43.38637" lon="1.84896">
        <ele>246</ele>
        <time>2022-04-13T11:18:27.999Z</time>
      </trkpt>
      <trkpt lat="43.38581" lon="1.8492">
        <ele>249</ele>
        <time>2022-04-13T11:18:32.999Z</time>
      </trkpt>
      <trkpt lat="43.38556" lon="1.8492">
        <ele>251</ele>
        <time>2022-04-13T11:18:37.999Z</time>
      </trkpt>
      <trkpt lat="43.38539" lon="1.84909">
        <ele>255</ele>
        <time>2022-04-13T11:18:42.999Z</time>
      </trkpt>
      <trkpt lat="43.38522" lon="1.84917">
        <ele>255</ele>
        <time>2022-04-13T11:18:47.999Z</time>
      </trkpt>
      <trkpt lat="43.38485" lon="1.85022">
        <ele>251</ele>
        <time>2022-04-13T11:19:49.999Z</time>
      </trkpt>
      <trkpt lat="43.38409" lon="1.85009">
        <ele>255</ele>
        <time>2022-04-13T11:19:54.999Z</time>
      </trkpt>
      <trkpt lat="43.38378" lon="1.84995">
        <ele>257</ele>
        <time>2022-04-13T11:19:59.999Z</time>
      </trkpt>
      <trkpt lat="43.38322" lon="1.84947">
        <ele>263</ele>
        <time>2022-04-13T11:20:04.999Z</time>
      </trkpt>
      <trkpt lat="43.38305" lon="1.84931">
        <ele>261</ele>
        <time>2022-04-13T11:20:09.999Z</time>
      </trkpt>
      <trkpt lat="43.38309" lon="1.84903">
        <ele>262</ele>
        <time>2022-04-13T11:20:14.999Z</time>
      </trkpt>
      <trkpt lat="43.38356" lon="1.84793">
        <ele>275</ele>
        <time>2022-04-13T11:20:19.999Z</time>
      </trkpt>
      <trkpt lat="43.38408" lon="1.84676">
        <ele>284</ele>
        <time>2022-04-13T11:20:24.999Z</time>
      </trkpt>
      <trkpt lat="43.38437" lon="1.84588">
        <ele>292</ele>
        <time>2022-04-13T11:20:29.999Z</time>
      </trkpt>
      <trkpt lat="43.38453" lon="1.84506">
        <ele>298</ele>
        <time>2022-04-13T11:20:34.999Z</time>
      </trkpt>
      <trkpt lat="43.38483" lon="1.84464">
        <ele>297</ele>
        <time>2022-04-13T11:20:39.999Z</time>
      </trkpt>
      <trkpt lat="43.38472" lon="1.84434">
        <ele>296</ele>
        <time>2022-04-13T11:20:44.999Z</time>
      </trkpt>
      <trkpt lat="43.38461" lon="1.84401">
        <ele>296</ele>
        <time>2022-04-13T11:20:48.999Z</time>
      </trkpt>
      <trkpt lat="43.38454" lon="1.84376">
        <ele>298</ele>
        <time>2022-04-13T11:20:53.999Z</time>
      </trkpt>
      <trkpt lat="43.38455" lon="1.84349">
        <ele>298</ele>
        <time>2022-04-13T11:20:58.999Z</time>
      </trkpt>
      <trkpt lat="43.3847" lon="1.84299">
        <ele>297</ele>
        <time>2022-04-13T11:21:03.999Z</time>
      </trkpt>
      <trkpt lat="43.38483" lon="1.84258">
        <ele>297</ele>
        <time>2022-04-13T11:21:08.999Z</time>
      </trkpt>
      <trkpt lat="43.38498" lon="1.8421">
        <ele>299</ele>
        <time>2022-04-13T11:21:47.999Z</time>
      </trkpt>
      <trkpt lat="43.3852" lon="1.84156">
        <ele>299</ele>
        <time>2022-04-13T11:21:52.999Z</time>
      </trkpt>
      <trkpt lat="43.38547" lon="1.84096">
        <ele>296</ele>
        <time>2022-04-13T11:21:57.999Z</time>
      </trkpt>
      <trkpt lat="43.38566" lon="1.84042">
        <ele>296</ele>
        <time>2022-04-13T11:22:02.999Z</time>
      </trkpt>
      <trkpt lat="43.38581" lon="1.83989">
        <ele>297</ele>
        <time>2022-04-13T11:22:07.999Z</time>
      </trkpt>
      <trkpt lat="43.38599" lon="1.83919">
        <ele>294</ele>
        <time>2022-04-13T11:22:12.999Z</time>
      </trkpt>
      <trkpt lat="43.38616" lon="1.83862">
        <ele>292</ele>
        <time>2022-04-13T11:22:17.999Z</time>
      </trkpt>
      <trkpt lat="43.38633" lon="1.83798">
        <ele>294</ele>
        <time>2022-04-13T11:22:22.999Z</time>
      </trkpt>
      <trkpt lat="43.38648" lon="1.83744">
        <ele>291</ele>
        <time>2022-04-13T11:22:27.999Z</time>
      </trkpt>
      <trkpt lat="43.3866" lon="1.83687">
        <ele>290</ele>
        <time>2022-04-13T11:22:32.999Z</time>
      </trkpt>
      <trkpt lat="43.38652" lon="1.83628">
        <ele>284</ele>
        <time>2022-04-13T11:22:37.999Z</time>
      </trkpt>
      <trkpt lat="43.38646" lon="1.83566">
        <ele>284</ele>
        <time>2022-04-13T11:22:42.999Z</time>
      </trkpt>
      <trkpt lat="43.38641" lon="1.83549">
        <ele>284</ele>
        <time>2022-04-13T11:22:46.999Z</time>
      </trkpt>
      <trkpt lat="43.3861" lon="1.83519">
        <ele>281</ele>
        <time>2022-04-13T11:22:51.999Z</time>
      </trkpt>
      <trkpt lat="43.38565" lon="1.83484">
        <ele>270</ele>
        <time>2022-04-13T11:22:55.999Z</time>
      </trkpt>
      <trkpt lat="43.38542" lon="1.83478">
        <ele>270</ele>
        <time>2022-04-13T11:23:00.999Z</time>
      </trkpt>
      <trkpt lat="43.38524" lon="1.83489">
        <ele>262</ele>
        <time>2022-04-13T11:23:05.999Z</time>
      </trkpt>
      <trkpt lat="43.38503" lon="1.83541">
        <ele>257</ele>
        <time>2022-04-13T11:23:10.999Z</time>
      </trkpt>
      <trkpt lat="43.38492" lon="1.8354">
        <ele>257</ele>
        <time>2022-04-13T11:23:15.999Z</time>
      </trkpt>
      <trkpt lat="43.38484" lon="1.83519">
        <ele>255</ele>
        <time>2022-04-13T11:23:20.999Z</time>
      </trkpt>
      <trkpt lat="43.38482" lon="1.83483">
        <ele>254</ele>
        <time>2022-04-13T11:23:25.999Z</time>
      </trkpt>
      <trkpt lat="43.38482" lon="1.83468">
        <ele>254</ele>
        <time>2022-04-13T11:23:45.999Z</time>
      </trkpt>
      <trkpt lat="43.38472" lon="1.83455">
        <ele>253</ele>
        <time>2022-04-13T11:23:50.999Z</time>
      </trkpt>
      <trkpt lat="43.38436" lon="1.83437">
        <ele>251</ele>
        <time>2022-04-13T11:23:55.999Z</time>
      </trkpt>
      <trkpt lat="43.38395" lon="1.83386">
        <ele>243</ele>
        <time>2022-04-13T11:24:00.999Z</time>
      </trkpt>
      <trkpt lat="43.38354" lon="1.83323">
        <ele>242</ele>
        <time>2022-04-13T11:24:04.999Z</time>
      </trkpt>
      <trkpt lat="43.38304" lon="1.8328">
        <ele>241</ele>
        <time>2022-04-13T11:24:09.999Z</time>
      </trkpt>
      <trkpt lat="43.3824" lon="1.83252">
        <ele>241</ele>
        <time>2022-04-13T11:24:13.999Z</time>
      </trkpt>
      <trkpt lat="43.38169" lon="1.83221">
        <ele>235</ele>
        <time>2022-04-13T11:24:18.999Z</time>
      </trkpt>
      <trkpt lat="43.38133" lon="1.83192">
        <ele>236</ele>
        <time>2022-04-13T11:24:23.999Z</time>
      </trkpt>
      <trkpt lat="43.38101" lon="1.83161">
        <ele>235</ele>
        <time>2022-04-13T11:24:28.999Z</time>
      </trkpt>
      <trkpt lat="43.38086" lon="1.83179">
        <ele>234</ele>
        <time>2022-04-13T11:24:33.999Z</time>
      </trkpt>
      <trkpt lat="43.38057" lon="1.83284">
        <ele>235</ele>
        <time>2022-04-13T11:24:38.999Z</time>
      </trkpt>
      <trkpt lat="43.3804" lon="1.83372">
        <ele>233</ele>
        <time>2022-04-13T11:24:42.999Z</time>
      </trkpt>
      <trkpt lat="43.38031" lon="1.83439">
        <ele>235</ele>
        <time>2022-04-13T11:24:47.999Z</time>
      </trkpt>
      <trkpt lat="43.38004" lon="1.83537">
        <ele>236</ele>
        <time>2022-04-13T11:24:52.999Z</time>
      </trkpt>
      <trkpt lat="43.37957" lon="1.83675">
        <ele>238</ele>
        <time>2022-04-13T11:24:57.999Z</time>
      </trkpt>
      <trkpt lat="43.37949" lon="1.83733">
        <ele>237</ele>
        <time>2022-04-13T11:25:02.999Z</time>
      </trkpt>
      <trkpt lat="43.37935" lon="1.83781">
        <ele>237</ele>
        <time>2022-04-13T11:25:07.999Z</time>
      </trkpt>
      <trkpt lat="43.37899" lon="1.83881">
        <ele>233</ele>
        <time>2022-04-13T11:25:12.999Z</time>
      </trkpt>
      <trkpt lat="43.37894" lon="1.83913">
        <ele>233</ele>
        <time>2022-04-13T11:25:17.999Z</time>
      </trkpt>
      <trkpt lat="43.37907" lon="1.83946">
        <ele>235</ele>
        <time>2022-04-13T11:25:22.999Z</time>
      </trkpt>
      <trkpt lat="43.37926" lon="1.83966">
        <ele>236</ele>
        <time>2022-04-13T11:25:27.999Z</time>
      </trkpt>
      <trkpt lat="43.37928" lon="1.84001">
        <ele>236</ele>
        <time>2022-04-13T11:25:32.999Z</time>
      </trkpt>
      <trkpt lat="43.37937" lon="1.84084">
        <ele>240</ele>
        <time>2022-04-13T11:25:37.999Z</time>
      </trkpt>
      <trkpt lat="43.37934" lon="1.84124">
        <ele>241</ele>
        <time>2022-04-13T11:25:42.999Z</time>
      </trkpt>
      <trkpt lat="43.37925" lon="1.84162">
        <ele>237</ele>
        <time>2022-04-13T11:25:47.999Z</time>
      </trkpt>
      <trkpt lat="43.37913" lon="1.84257">
        <ele>244</ele>
        <time>2022-04-13T11:25:52.999Z</time>
      </trkpt>
      <trkpt lat="43.37903" lon="1.84339">
        <ele>242</ele>
        <time>2022-04-13T11:25:57.999Z</time>
      </trkpt>
      <trkpt lat="43.37894" lon="1.84381">
        <ele>245</ele>
        <time>2022-04-13T11:26:02.999Z</time>
      </trkpt>
      <trkpt lat="43.37873" lon="1.8441">
        <ele>246</ele>
        <time>2022-04-13T11:26:07.999Z</time>
      </trkpt>
      <trkpt lat="43.37831" lon="1.8445">
        <ele>246</ele>
        <time>2022-04-13T11:26:12.999Z</time>
      </trkpt>
      <trkpt lat="43.37776" lon="1.84509">
        <ele>237</ele>
        <time>2022-04-13T11:26:17.999Z</time>
      </trkpt>
      <trkpt lat="43.37739" lon="1.84554">
        <ele>236</ele>
        <time>2022-04-13T11:26:20.999Z</time>
      </trkpt>
      <trkpt lat="43.37727" lon="1.84573">
        <ele>235</ele>
        <time>2022-04-13T11:26:42.999Z</time>
      </trkpt>
      <trkpt lat="43.37694" lon="1.8451">
        <ele>234</ele>
        <time>2022-04-13T11:26:47.999Z</time>
      </trkpt>
      <trkpt lat="43.37656" lon="1.84429">
        <ele>232</ele>
        <time>2022-04-13T11:26:52.999Z</time>
      </trkpt>
      <trkpt lat="43.37615" lon="1.8434">
        <ele>226</ele>
        <time>2022-04-13T11:26:56.999Z</time>
      </trkpt>
      <trkpt lat="43.37578" lon="1.84282">
        <ele>228</ele>
        <time>2022-04-13T11:27:01.999Z</time>
      </trkpt>
      <trkpt lat="43.37508" lon="1.84237">
        <ele>232</ele>
        <time>2022-04-13T11:27:06.999Z</time>
      </trkpt>
      <trkpt lat="43.37439" lon="1.84181">
        <ele>234</ele>
        <time>2022-04-13T11:27:11.999Z</time>
      </trkpt>
      <trkpt lat="43.37379" lon="1.84112">
        <ele>235</ele>
        <time>2022-04-13T11:27:16.999Z</time>
      </trkpt>
      <trkpt lat="43.37335" lon="1.84102">
        <ele>236</ele>
        <time>2022-04-13T11:27:21.999Z</time>
      </trkpt>
      <trkpt lat="43.37309" lon="1.84078">
        <ele>236</ele>
        <time>2022-04-13T11:27:26.999Z</time>
      </trkpt>
      <trkpt lat="43.37258" lon="1.84034">
        <ele>232</ele>
        <time>2022-04-13T11:27:30.999Z</time>
      </trkpt>
      <trkpt lat="43.37202" lon="1.8396">
        <ele>228</ele>
        <time>2022-04-13T11:27:35.999Z</time>
      </trkpt>
      <trkpt lat="43.37159" lon="1.83891">
        <ele>225</ele>
        <time>2022-04-13T11:27:40.999Z</time>
      </trkpt>
      <trkpt lat="43.37104" lon="1.83823">
        <ele>224</ele>
        <time>2022-04-13T11:27:45.999Z</time>
      </trkpt>
      <trkpt lat="43.37081" lon="1.83795">
        <ele>224</ele>
        <time>2022-04-13T11:27:50.999Z</time>
      </trkpt>
      <trkpt lat="43.37043" lon="1.83749">
        <ele>225</ele>
        <time>2022-04-13T11:27:55.999Z</time>
      </trkpt>
      <trkpt lat="43.36995" lon="1.83691">
        <ele>231</ele>
        <time>2022-04-13T11:28:00.999Z</time>
      </trkpt>
      <trkpt lat="43.36949" lon="1.83629">
        <ele>233</ele>
        <time>2022-04-13T11:28:05.999Z</time>
      </trkpt>
      <trkpt lat="43.36904" lon="1.83567">
        <ele>234</ele>
        <time>2022-04-13T11:28:10.999Z</time>
      </trkpt>
      <trkpt lat="43.36871" lon="1.83487">
        <ele>235</ele>
        <time>2022-04-13T11:28:16Z</time>
      </trkpt>
      <trkpt lat="43.36831" lon="1.83403">
        <ele>230</ele>
        <time>2022-04-13T11:28:21Z</time>
      </trkpt>
      <trkpt lat="43.36788" lon="1.83324">
        <ele>227</ele>
        <time>2022-04-13T11:28:26Z</time>
      </trkpt>
      <trkpt lat="43.3653" lon="1.83098">
        <ele>233</ele>
        <time>2022-04-13T11:28:31Z</time>
      </trkpt>
      <trkpt lat="43.3652" lon="1.83135">
        <ele>232</ele>
        <time>2022-04-13T11:28:36Z</time>
      </trkpt>
      <trkpt lat="43.36502" lon="1.83194">
        <ele>231</ele>
        <time>2022-04-13T11:28:40.999Z</time>
      </trkpt>
      <trkpt lat="43.36487" lon="1.83241">
        <ele>231</ele>
        <time>2022-04-13T11:28:45.999Z</time>
      </trkpt>
      <trkpt lat="43.36474" lon="1.83281">
        <ele>232</ele>
        <time>2022-04-13T11:28:49.999Z</time>
      </trkpt>
      <trkpt lat="43.36463" lon="1.83286">
        <ele>232</ele>
        <time>2022-04-13T11:28:54.999Z</time>
      </trkpt>
      <trkpt lat="43.36453" lon="1.83279">
        <ele>232</ele>
        <time>2022-04-13T11:28:59.999Z</time>
      </trkpt>
      <trkpt lat="43.36418" lon="1.83259">
        <ele>231</ele>
        <time>2022-04-13T11:29:04.999Z</time>
      </trkpt>
      <trkpt lat="43.36365" lon="1.83229">
        <ele>230</ele>
        <time>2022-04-13T11:29:09.999Z</time>
      </trkpt>
      <trkpt lat="43.36312" lon="1.83203">
        <ele>228</ele>
        <time>2022-04-13T11:29:14.999Z</time>
      </trkpt>
      <trkpt lat="43.36301" lon="1.83211">
        <ele>228</ele>
        <time>2022-04-13T11:29:19.999Z</time>
      </trkpt>
      <trkpt lat="43.36247" lon="1.83471">
        <ele>218</ele>
        <time>2022-04-13T11:29:24.999Z</time>
      </trkpt>
      <trkpt lat="43.36241" lon="1.83487">
        <ele>217</ele>
        <time>2022-04-13T11:29:29.999Z</time>
      </trkpt>
      <trkpt lat="43.36232" lon="1.83499">
        <ele>216</ele>
        <time>2022-04-13T11:29:34.999Z</time>
      </trkpt>
      <trkpt lat="43.36194" lon="1.83498">
        <ele>215</ele>
        <time>2022-04-13T11:29:38.999Z</time>
      </trkpt>
      <trkpt lat="43.36139" lon="1.83502">
        <ele>216</ele>
        <time>2022-04-13T11:29:43.999Z</time>
      </trkpt>
      <trkpt lat="43.36083" lon="1.83498">
        <ele>212</ele>
        <time>2022-04-13T11:29:48.999Z</time>
      </trkpt>
      <trkpt lat="43.36052" lon="1.8351">
        <ele>213</ele>
        <time>2022-04-13T11:29:53.999Z</time>
      </trkpt>
      <trkpt lat="43.36035" lon="1.8352">
        <ele>213</ele>
        <time>2022-04-13T11:29:58.999Z</time>
      </trkpt>
      <trkpt lat="43.36024" lon="1.83547">
        <ele>212</ele>
        <time>2022-04-13T11:30:03.999Z</time>
      </trkpt>
      <trkpt lat="43.35989" lon="1.83588">
        <ele>211</ele>
        <time>2022-04-13T11:30:08.999Z</time>
      </trkpt>
      <trkpt lat="43.35958" lon="1.83635">
        <ele>209</ele>
        <time>2022-04-13T11:30:13.999Z</time>
      </trkpt>
      <trkpt lat="43.35942" lon="1.83673">
        <ele>208</ele>
        <time>2022-04-13T11:31:05.999Z</time>
      </trkpt>
      <trkpt lat="43.35931" lon="1.83713">
        <ele>205</ele>
        <time>2022-04-13T11:31:09.999Z</time>
      </trkpt>
      <trkpt lat="43.35918" lon="1.83759">
        <ele>207</ele>
        <time>2022-04-13T11:31:14.999Z</time>
      </trkpt>
      <trkpt lat="43.35913" lon="1.83822">
        <ele>204</ele>
        <time>2022-04-13T11:31:19.999Z</time>
      </trkpt>
      <trkpt lat="43.359" lon="1.83933">
        <ele>204</ele>
        <time>2022-04-13T11:31:24.999Z</time>
      </trkpt>
      <trkpt lat="43.35893" lon="1.84035">
        <ele>204</ele>
        <time>2022-04-13T11:31:29.999Z</time>
      </trkpt>
      <trkpt lat="43.35891" lon="1.8407">
        <ele>203</ele>
        <time>2022-04-13T11:31:34.999Z</time>
      </trkpt>
      <trkpt lat="43.35877" lon="1.84136">
        <ele>204</ele>
        <time>2022-04-13T11:31:39.999Z</time>
      </trkpt>
      <trkpt lat="43.35853" lon="1.84229">
        <ele>202</ele>
        <time>2022-04-13T11:31:44.999Z</time>
      </trkpt>
      <trkpt lat="43.35795" lon="1.8431">
        <ele>208</ele>
        <time>2022-04-13T11:32:04.999Z</time>
      </trkpt>
      <trkpt lat="43.3574" lon="1.84372">
        <ele>206</ele>
        <time>2022-04-13T11:32:09.999Z</time>
      </trkpt>
      <trkpt lat="43.35662" lon="1.84422">
        <ele>197</ele>
        <time>2022-04-13T11:32:14.999Z</time>
      </trkpt>
      <trkpt lat="43.35628" lon="1.8447">
        <ele>197</ele>
        <time>2022-04-13T11:32:19.999Z</time>
      </trkpt>
      <trkpt lat="43.35623" lon="1.84545">
        <ele>196</ele>
        <time>2022-04-13T11:32:24.999Z</time>
      </trkpt>
      <trkpt lat="43.35616" lon="1.84614">
        <ele>196</ele>
        <time>2022-04-13T11:32:30Z</time>
      </trkpt>
      <trkpt lat="43.3559" lon="1.84711">
        <ele>194</ele>
        <time>2022-04-13T11:32:35Z</time>
      </trkpt>
      <trkpt lat="43.35577" lon="1.84754">
        <ele>193</ele>
        <time>2022-04-13T11:32:39Z</time>
      </trkpt>
      <trkpt lat="43.35574" lon="1.84799">
        <ele>193</ele>
        <time>2022-04-13T11:32:44Z</time>
      </trkpt>
      <trkpt lat="43.35578" lon="1.84857">
        <ele>192</ele>
        <time>2022-04-13T11:32:49Z</time>
      </trkpt>
      <trkpt lat="43.35574" lon="1.84891">
        <ele>193</ele>
        <time>2022-04-13T11:32:53.999Z</time>
      </trkpt>
      <trkpt lat="43.35565" lon="1.84958">
        <ele>192</ele>
        <time>2022-04-13T11:32:58.999Z</time>
      </trkpt>
      <trkpt lat="43.35549" lon="1.85002">
        <ele>192</ele>
        <time>2022-04-13T11:33:03.999Z</time>
      </trkpt>
      <trkpt lat="43.35541" lon="1.85021">
        <ele>192</ele>
        <time>2022-04-13T11:33:08.999Z</time>
      </trkpt>
      <trkpt lat="43.35532" lon="1.85034">
        <ele>192</ele>
        <time>2022-04-13T11:33:13.999Z</time>
      </trkpt>
      <trkpt lat="43.3551" lon="1.85045">
        <ele>192</ele>
        <time>2022-04-13T11:33:18.999Z</time>
      </trkpt>
      <trkpt lat="43.35487" lon="1.85064">
        <ele>192</ele>
        <time>2022-04-13T11:33:23.999Z</time>
      </trkpt>
      <trkpt lat="43.35417" lon="1.85142">
        <ele>191</ele>
        <time>2022-04-13T11:33:28.999Z</time>
      </trkpt>
      <trkpt lat="43.35387" lon="1.85135">
        <ele>190</ele>
        <time>2022-04-13T11:33:33.999Z</time>
      </trkpt>
      <trkpt lat="43.35145" lon="1.85007">
        <ele>186</ele>
        <time>2022-04-13T11:33:38.999Z</time>
      </trkpt>
      <trkpt lat="43.35071" lon="1.84968">
        <ele>187</ele>
        <time>2022-04-13T11:33:43.999Z</time>
      </trkpt>
      <trkpt lat="43.3499" lon="1.84925">
        <ele>190</ele>
        <time>2022-04-13T11:34:03.999Z</time>
      </trkpt>
      <trkpt lat="43.34984" lon="1.84914">
        <ele>189</ele>
        <time>2022-04-13T11:34:08.999Z</time>
      </trkpt>
      <trkpt lat="43.34981" lon="1.84838">
        <ele>191</ele>
        <time>2022-04-13T11:34:13.999Z</time>
      </trkpt>
      <trkpt lat="43.34977" lon="1.84755">
        <ele>190</ele>
        <time>2022-04-13T11:34:18.999Z</time>
      </trkpt>
      <trkpt lat="43.34975" lon="1.84678">
        <ele>188</ele>
        <time>2022-04-13T11:34:23.999Z</time>
      </trkpt>
      <trkpt lat="43.34972" lon="1.84625">
        <ele>189</ele>
        <time>2022-04-13T11:34:28.999Z</time>
      </trkpt>
      <trkpt lat="43.34962" lon="1.84589">
        <ele>189</ele>
        <time>2022-04-13T11:34:33.999Z</time>
      </trkpt>
      <trkpt lat="43.34962" lon="1.8455">
        <ele>189</ele>
        <time>2022-04-13T11:34:37.999Z</time>
      </trkpt>
      <trkpt lat="43.34943" lon="1.84548">
        <ele>190</ele>
        <time>2022-04-13T11:34:42.999Z</time>
      </trkpt>
      <trkpt lat="43.34942" lon="1.84525">
        <ele>190</ele>
        <time>2022-04-13T11:34:47.999Z</time>
      </trkpt>
      <trkpt lat="43.34925" lon="1.84525">
        <ele>191</ele>
        <time>2022-04-13T11:34:52.999Z</time>
      </trkpt>
      <trkpt lat="43.34896" lon="1.84509">
        <ele>189</ele>
        <time>2022-04-13T11:34:57.999Z</time>
      </trkpt>
      <trkpt lat="43.34892" lon="1.8453">
        <ele>191</ele>
        <time>2022-04-13T11:35:02.999Z</time>
      </trkpt>
      <trkpt lat="43.34831" lon="1.84782">
        <ele>191</ele>
        <time>2022-04-13T11:35:07.999Z</time>
      </trkpt>
      <trkpt lat="43.34815" lon="1.84843">
        <ele>190</ele>
        <time>2022-04-13T11:35:12.999Z</time>
      </trkpt>
      <trkpt lat="43.34797" lon="1.84905">
        <ele>190</ele>
        <time>2022-04-13T11:35:17.999Z</time>
      </trkpt>
      <trkpt lat="43.34776" lon="1.84955">
        <ele>190</ele>
        <time>2022-04-13T11:35:22.999Z</time>
      </trkpt>
      <trkpt lat="43.3476" lon="1.84997">
        <ele>190</ele>
        <time>2022-04-13T11:35:27.999Z</time>
      </trkpt>
      <trkpt lat="43.34743" lon="1.85032">
        <ele>190</ele>
        <time>2022-04-13T11:35:32.999Z</time>
      </trkpt>
      <trkpt lat="43.34725" lon="1.85071">
        <ele>190</ele>
        <time>2022-04-13T11:35:36.999Z</time>
      </trkpt>
      <trkpt lat="43.34704" lon="1.8511">
        <ele>190</ele>
        <time>2022-04-13T11:35:41.999Z</time>
      </trkpt>
      <trkpt lat="43.34689" lon="1.85138">
        <ele>190</ele>
        <time>2022-04-13T11:35:46.999Z</time>
      </trkpt>
      <trkpt lat="43.34681" lon="1.85152">
        <ele>190</ele>
        <time>2022-04-13T11:35:50.999Z</time>
      </trkpt>
      <trkpt lat="43.34675" lon="1.85169">
        <ele>189</ele>
        <time>2022-04-13T11:35:55.999Z</time>
      </trkpt>
      <trkpt lat="43.34663" lon="1.85192">
        <ele>188</ele>
        <time>2022-04-13T11:36:00.999Z</time>
      </trkpt>
      <trkpt lat="43.34653" lon="1.85213">
        <ele>189</ele>
        <time>2022-04-13T11:36:05.999Z</time>
      </trkpt>
      <trkpt lat="43.34638" lon="1.85247">
        <ele>189</ele>
        <time>2022-04-13T11:36:10.999Z</time>
      </trkpt>
      <trkpt lat="43.3461" lon="1.85312">
        <ele>186</ele>
        <time>2022-04-13T11:36:15.999Z</time>
      </trkpt>
      <trkpt lat="43.34592" lon="1.85359">
        <ele>181</ele>
        <time>2022-04-13T11:36:20.999Z</time>
      </trkpt>
      <trkpt lat="43.34579" lon="1.85409">
        <ele>180</ele>
        <time>2022-04-13T11:36:25.999Z</time>
      </trkpt>
      <trkpt lat="43.34574" lon="1.85433">
        <ele>180</ele>
        <time>2022-04-13T11:36:30.999Z</time>
      </trkpt>
      <trkpt lat="43.34503" lon="1.85389">
        <ele>184</ele>
        <time>2022-04-13T11:36:35.999Z</time>
      </trkpt>
      <trkpt lat="43.3444" lon="1.85336">
        <ele>183</ele>
        <time>2022-04-13T11:36:40.999Z</time>
      </trkpt>
      <trkpt lat="43.34397" lon="1.85325">
        <ele>184</ele>
        <time>2022-04-13T11:36:45.999Z</time>
      </trkpt>
      <trkpt lat="43.34355" lon="1.85304">
        <ele>184</ele>
        <time>2022-04-13T11:36:49.999Z</time>
      </trkpt>
      <trkpt lat="43.34322" lon="1.85277">
        <ele>185</ele>
        <time>2022-04-13T11:36:54.999Z</time>
      </trkpt>
      <trkpt lat="43.34304" lon="1.85251">
        <ele>182</ele>
        <time>2022-04-13T11:36:58.999Z</time>
      </trkpt>
      <trkpt lat="43.3427" lon="1.85193">
        <ele>180</ele>
        <time>2022-04-13T11:37:03.999Z</time>
      </trkpt>
      <trkpt lat="43.34243" lon="1.85184">
        <ele>181</ele>
        <time>2022-04-13T11:37:07.999Z</time>
      </trkpt>
      <trkpt lat="43.34191" lon="1.85176">
        <ele>184</ele>
        <time>2022-04-13T11:37:12.999Z</time>
      </trkpt>
      <trkpt lat="43.34141" lon="1.85154">
        <ele>185</ele>
        <time>2022-04-13T11:37:17.999Z</time>
      </trkpt>
      <trkpt lat="43.34083" lon="1.85129">
        <ele>185</ele>
        <time>2022-04-13T11:37:22.999Z</time>
      </trkpt>
      <trkpt lat="43.34021" lon="1.85102">
        <ele>185</ele>
        <time>2022-04-13T11:37:27.999Z</time>
      </trkpt>
      <trkpt lat="43.33958" lon="1.85061">
        <ele>186</ele>
        <time>2022-04-13T11:37:32.999Z</time>
      </trkpt>
      <trkpt lat="43.33902" lon="1.85025">
        <ele>189</ele>
        <time>2022-04-13T11:37:36.999Z</time>
      </trkpt>
      <trkpt lat="43.33886" lon="1.85003">
        <ele>188</ele>
        <time>2022-04-13T11:37:41.999Z</time>
      </trkpt>
      <trkpt lat="43.3387" lon="1.84963">
        <ele>186</ele>
        <time>2022-04-13T11:37:46.999Z</time>
      </trkpt>
      <trkpt lat="43.33837" lon="1.84956">
        <ele>184</ele>
        <time>2022-04-13T11:37:51.999Z</time>
      </trkpt>
      <trkpt lat="43.33817" lon="1.84951">
        <ele>184</ele>
        <time>2022-04-13T11:37:56.999Z</time>
      </trkpt>
      <trkpt lat="43.33797" lon="1.84956">
        <ele>184</ele>
        <time>2022-04-13T11:38:01.999Z</time>
      </trkpt>
      <trkpt lat="43.33752" lon="1.84992">
        <ele>185</ele>
        <time>2022-04-13T11:38:06.999Z</time>
      </trkpt>
      <trkpt lat="43.33705" lon="1.8503">
        <ele>185</ele>
        <time>2022-04-13T11:38:11.999Z</time>
      </trkpt>
      <trkpt lat="43.33668" lon="1.85084">
        <ele>186</ele>
        <time>2022-04-13T11:38:16.999Z</time>
      </trkpt>
      <trkpt lat="43.33642" lon="1.85156">
        <ele>187</ele>
        <time>2022-04-13T11:38:21.999Z</time>
      </trkpt>
      <trkpt lat="43.33615" lon="1.85236">
        <ele>188</ele>
        <time>2022-04-13T11:38:26.999Z</time>
      </trkpt>
      <trkpt lat="43.33587" lon="1.85322">
        <ele>187</ele>
        <time>2022-04-13T11:38:31.999Z</time>
      </trkpt>
      <trkpt lat="43.33551" lon="1.85404">
        <ele>188</ele>
        <time>2022-04-13T11:38:36.999Z</time>
      </trkpt>
      <trkpt lat="43.33513" lon="1.85477">
        <ele>188</ele>
        <time>2022-04-13T11:38:41.999Z</time>
      </trkpt>
      <trkpt lat="43.3346" lon="1.85534">
        <ele>187</ele>
        <time>2022-04-13T11:38:47Z</time>
      </trkpt>
      <trkpt lat="43.33413" lon="1.85595">
        <ele>187</ele>
        <time>2022-04-13T11:38:52Z</time>
      </trkpt>
      <trkpt lat="43.33371" lon="1.85667">
        <ele>188</ele>
        <time>2022-04-13T11:38:56.999Z</time>
      </trkpt>
      <trkpt lat="43.33328" lon="1.85747">
        <ele>189</ele>
        <time>2022-04-13T11:39:02Z</time>
      </trkpt>
      <trkpt lat="43.33284" lon="1.8582">
        <ele>190</ele>
        <time>2022-04-13T11:39:06.999Z</time>
      </trkpt>
      <trkpt lat="43.33257" lon="1.85892">
        <ele>189</ele>
        <time>2022-04-13T11:39:11.999Z</time>
      </trkpt>
      <trkpt lat="43.33225" lon="1.85946">
        <ele>188</ele>
        <time>2022-04-13T11:39:16.999Z</time>
      </trkpt>
      <trkpt lat="43.33186" lon="1.86">
        <ele>190</ele>
        <time>2022-04-13T11:39:21.999Z</time>
      </trkpt>
      <trkpt lat="43.33184" lon="1.86016">
        <ele>191</ele>
        <time>2022-04-13T11:39:26.999Z</time>
      </trkpt>
      <trkpt lat="43.33172" lon="1.86025">
        <ele>191</ele>
        <time>2022-04-13T11:39:31.999Z</time>
      </trkpt>
      <trkpt lat="43.3315" lon="1.86062">
        <ele>192</ele>
        <time>2022-04-13T11:39:36.999Z</time>
      </trkpt>
      <trkpt lat="43.33116" lon="1.86133">
        <ele>191</ele>
        <time>2022-04-13T11:39:56.999Z</time>
      </trkpt>
      <trkpt lat="43.33087" lon="1.86184">
        <ele>192</ele>
        <time>2022-04-13T11:40:01.999Z</time>
      </trkpt>
      <trkpt lat="43.33047" lon="1.86172">
        <ele>191</ele>
        <time>2022-04-13T11:40:06.999Z</time>
      </trkpt>
      <trkpt lat="43.3302" lon="1.86162">
        <ele>191</ele>
        <time>2022-04-13T11:40:11.999Z</time>
      </trkpt>
      <trkpt lat="43.32998" lon="1.8615">
        <ele>192</ele>
        <time>2022-04-13T11:40:16.999Z</time>
      </trkpt>
      <trkpt lat="43.33012" lon="1.86099">
        <ele>192</ele>
        <time>2022-04-13T11:40:21.999Z</time>
      </trkpt>
      <trkpt lat="43.32969" lon="1.86067">
        <ele>191</ele>
        <time>2022-04-13T11:40:26.999Z</time>
      </trkpt>
      <trkpt lat="43.32934" lon="1.86038">
        <ele>190</ele>
        <time>2022-04-13T11:40:31.999Z</time>
      </trkpt>
      <trkpt lat="43.32892" lon="1.86004">
        <ele>191</ele>
        <time>2022-04-13T11:40:36.999Z</time>
      </trkpt>
      <trkpt lat="43.32796" lon="1.85928">
        <ele>192</ele>
        <time>2022-04-13T11:40:41.999Z</time>
      </trkpt>
      <trkpt lat="43.3274" lon="1.85883">
        <ele>194</ele>
        <time>2022-04-13T11:40:46.999Z</time>
      </trkpt>
      <trkpt lat="43.32689" lon="1.85839">
        <ele>195</ele>
        <time>2022-04-13T11:40:52Z</time>
      </trkpt>
      <trkpt lat="43.32654" lon="1.85812">
        <ele>196</ele>
        <time>2022-04-13T11:40:56Z</time>
      </trkpt>
      <trkpt lat="43.32638" lon="1.8585">
        <ele>194</ele>
        <time>2022-04-13T11:41:01Z</time>
      </trkpt>
      <trkpt lat="43.32621" lon="1.85914">
        <ele>197</ele>
        <time>2022-04-13T11:41:06Z</time>
      </trkpt>
      <trkpt lat="43.32601" lon="1.85986">
        <ele>197</ele>
        <time>2022-04-13T11:41:10.999Z</time>
      </trkpt>
      <trkpt lat="43.32593" lon="1.86014">
        <ele>195</ele>
        <time>2022-04-13T11:41:15.999Z</time>
      </trkpt>
      <trkpt lat="43.32581" lon="1.86024">
        <ele>194</ele>
        <time>2022-04-13T11:42:28.999Z</time>
      </trkpt>
      <trkpt lat="43.32565" lon="1.86029">
        <ele>194</ele>
        <time>2022-04-13T11:42:33.999Z</time>
      </trkpt>
      <trkpt lat="43.32536" lon="1.86039">
        <ele>195</ele>
        <time>2022-04-13T11:42:38.999Z</time>
      </trkpt>
      <trkpt lat="43.32503" lon="1.86045">
        <ele>196</ele>
        <time>2022-04-13T11:42:43.999Z</time>
      </trkpt>
      <trkpt lat="43.32464" lon="1.86038">
        <ele>198</ele>
        <time>2022-04-13T11:42:48.999Z</time>
      </trkpt>
      <trkpt lat="43.32403" lon="1.86002">
        <ele>200</ele>
        <time>2022-04-13T11:42:52.999Z</time>
      </trkpt>
      <trkpt lat="43.32329" lon="1.85948">
        <ele>200</ele>
        <time>2022-04-13T11:42:57.999Z</time>
      </trkpt>
      <trkpt lat="43.3226" lon="1.859">
        <ele>201</ele>
        <time>2022-04-13T11:43:00.999Z</time>
      </trkpt>
      <trkpt lat="43.32198" lon="1.85837">
        <ele>202</ele>
        <time>2022-04-13T11:44:46.999Z</time>
      </trkpt>
      <trkpt lat="43.32142" lon="1.85777">
        <ele>203</ele>
        <time>2022-04-13T11:44:51.999Z</time>
      </trkpt>
      <trkpt lat="43.32096" lon="1.85718">
        <ele>203</ele>
        <time>2022-04-13T11:44:55.999Z</time>
      </trkpt>
      <trkpt lat="43.32064" lon="1.85687">
        <ele>206</ele>
        <time>2022-04-13T11:45:00.999Z</time>
      </trkpt>
      <trkpt lat="43.3205" lon="1.85683">
        <ele>206</ele>
        <time>2022-04-13T11:45:05.998Z</time>
      </trkpt>
      <trkpt lat="43.32045" lon="1.85663">
        <ele>209</ele>
        <time>2022-04-13T11:45:10.998Z</time>
      </trkpt>
      <trkpt lat="43.3202" lon="1.8562">
        <ele>212</ele>
        <time>2022-04-13T11:45:15.998Z</time>
      </trkpt>
      <trkpt lat="43.32014" lon="1.85591">
        <ele>211</ele>
        <time>2022-04-13T11:45:20.998Z</time>
      </trkpt>
      <trkpt lat="43.32012" lon="1.85557">
        <ele>212</ele>
        <time>2022-04-13T11:45:24.998Z</time>
      </trkpt>
      <trkpt lat="43.32001" lon="1.85477">
        <ele>216</ele>
        <time>2022-04-13T11:45:29.999Z</time>
      </trkpt>
      <trkpt lat="43.31989" lon="1.85408">
        <ele>222</ele>
        <time>2022-04-13T11:45:34.999Z</time>
      </trkpt>
      <trkpt lat="43.31971" lon="1.8538">
        <ele>223</ele>
        <time>2022-04-13T11:45:39.999Z</time>
      </trkpt>
      <trkpt lat="43.31955" lon="1.85378">
        <ele>221</ele>
        <time>2022-04-13T11:45:43.999Z</time>
      </trkpt>
      <trkpt lat="43.31916" lon="1.854">
        <ele>222</ele>
        <time>2022-04-13T11:45:48.999Z</time>
      </trkpt>
      <trkpt lat="43.31903" lon="1.85418">
        <ele>226</ele>
        <time>2022-04-13T11:45:53.999Z</time>
      </trkpt>
      <trkpt lat="43.31885" lon="1.85489">
        <ele>225</ele>
        <time>2022-04-13T11:45:58.999Z</time>
      </trkpt>
      <trkpt lat="43.31873" lon="1.85504">
        <ele>229</ele>
        <time>2022-04-13T11:46:03.999Z</time>
      </trkpt>
      <trkpt lat="43.31849" lon="1.85525">
        <ele>227</ele>
        <time>2022-04-13T11:46:08.999Z</time>
      </trkpt>
      <trkpt lat="43.318" lon="1.8554">
        <ele>233</ele>
        <time>2022-04-13T11:46:13.999Z</time>
      </trkpt>
      <trkpt lat="43.31761" lon="1.85535">
        <ele>237</ele>
        <time>2022-04-13T11:46:18.999Z</time>
      </trkpt>
      <trkpt lat="43.31731" lon="1.85525">
        <ele>240</ele>
        <time>2022-04-13T11:46:22.999Z</time>
      </trkpt>
      <trkpt lat="43.3171" lon="1.85525">
        <ele>240</ele>
        <time>2022-04-13T11:46:27.999Z</time>
      </trkpt>
      <trkpt lat="43.31687" lon="1.85537">
        <ele>243</ele>
        <time>2022-04-13T11:46:32.999Z</time>
      </trkpt>
      <trkpt lat="43.31645" lon="1.8556">
        <ele>245</ele>
        <time>2022-04-13T11:46:37.999Z</time>
      </trkpt>
      <trkpt lat="43.31605" lon="1.85593">
        <ele>248</ele>
        <time>2022-04-13T11:46:42.999Z</time>
      </trkpt>
      <trkpt lat="43.31592" lon="1.85596">
        <ele>250</ele>
        <time>2022-04-13T11:46:47.999Z</time>
      </trkpt>
      <trkpt lat="43.31574" lon="1.85586">
        <ele>250</ele>
        <time>2022-04-13T11:46:52.999Z</time>
      </trkpt>
      <trkpt lat="43.31562" lon="1.85562">
        <ele>249</ele>
        <time>2022-04-13T11:46:57.999Z</time>
      </trkpt>
      <trkpt lat="43.31547" lon="1.85491">
        <ele>255</ele>
        <time>2022-04-13T11:47:02.999Z</time>
      </trkpt>
      <trkpt lat="43.31539" lon="1.85464">
        <ele>250</ele>
        <time>2022-04-13T11:47:07.999Z</time>
      </trkpt>
      <trkpt lat="43.31512" lon="1.85408">
        <ele>254</ele>
        <time>2022-04-13T11:47:12.998Z</time>
      </trkpt>
      <trkpt lat="43.31489" lon="1.85376">
        <ele>259</ele>
        <time>2022-04-13T11:47:17.998Z</time>
      </trkpt>
      <trkpt lat="43.31471" lon="1.85365">
        <ele>262</ele>
        <time>2022-04-13T11:47:22.998Z</time>
      </trkpt>
      <trkpt lat="43.31451" lon="1.85368">
        <ele>263</ele>
        <time>2022-04-13T11:47:27.998Z</time>
      </trkpt>
      <trkpt lat="43.31424" lon="1.85376">
        <ele>259</ele>
        <time>2022-04-13T11:47:31.999Z</time>
      </trkpt>
      <trkpt lat="43.31402" lon="1.85375">
        <ele>265</ele>
        <time>2022-04-13T11:47:36.999Z</time>
      </trkpt>
      <trkpt lat="43.31361" lon="1.85362">
        <ele>260</ele>
        <time>2022-04-13T11:47:41.999Z</time>
      </trkpt>
      <trkpt lat="43.31343" lon="1.85345">
        <ele>262</ele>
        <time>2022-04-13T11:47:46.999Z</time>
      </trkpt>
      <trkpt lat="43.31335" lon="1.85307">
        <ele>267</ele>
        <time>2022-04-13T11:47:51.999Z</time>
      </trkpt>
      <trkpt lat="43.31333" lon="1.85228">
        <ele>277</ele>
        <time>2022-04-13T11:47:56.999Z</time>
      </trkpt>
      <trkpt lat="43.31335" lon="1.85151">
        <ele>278</ele>
        <time>2022-04-13T11:48:00.999Z</time>
      </trkpt>
      <trkpt lat="43.31378" lon="1.85148">
        <ele>279</ele>
        <time>2022-04-13T11:48:05.999Z</time>
      </trkpt>
      <trkpt lat="43.31424" lon="1.85138">
        <ele>280</ele>
        <time>2022-04-13T11:48:10.999Z</time>
      </trkpt>
      <trkpt lat="43.31443" lon="1.85121">
        <ele>279</ele>
        <time>2022-04-13T11:48:15.999Z</time>
      </trkpt>
      <trkpt lat="43.31468" lon="1.85049">
        <ele>277</ele>
        <time>2022-04-13T11:48:20.999Z</time>
      </trkpt>
      <trkpt lat="43.31518" lon="1.84982">
        <ele>278</ele>
        <time>2022-04-13T11:48:25.999Z</time>
      </trkpt>
      <trkpt lat="43.31583" lon="1.84859">
        <ele>278</ele>
        <time>2022-04-13T11:48:30.999Z</time>
      </trkpt>
      <trkpt lat="43.31779" lon="1.8456">
        <ele>276</ele>
        <time>2022-04-13T11:48:35.999Z</time>
      </trkpt>
      <trkpt lat="43.31872" lon="1.84422">
        <ele>274</ele>
        <time>2022-04-13T11:48:40.999Z</time>
      </trkpt>
      <trkpt lat="43.31915" lon="1.84315">
        <ele>277</ele>
        <time>2022-04-13T11:48:45.999Z</time>
      </trkpt>
      <trkpt lat="43.31937" lon="1.84285">
        <ele>278</ele>
        <time>2022-04-13T11:48:50.999Z</time>
      </trkpt>
      <trkpt lat="43.32031" lon="1.84222">
        <ele>284</ele>
        <time>2022-04-13T11:48:55.999Z</time>
      </trkpt>
      <trkpt lat="43.32074" lon="1.84179">
        <ele>285</ele>
        <time>2022-04-13T11:49:00.999Z</time>
      </trkpt>
      <trkpt lat="43.32137" lon="1.841">
        <ele>286</ele>
        <time>2022-04-13T11:49:05.999Z</time>
      </trkpt>
      <trkpt lat="43.32171" lon="1.84054">
        <ele>287</ele>
        <time>2022-04-13T11:49:10.999Z</time>
      </trkpt>
      <trkpt lat="43.32195" lon="1.84009">
        <ele>287</ele>
        <time>2022-04-13T11:49:15.999Z</time>
      </trkpt>
      <trkpt lat="43.32208" lon="1.83967">
        <ele>287</ele>
        <time>2022-04-13T11:49:20.999Z</time>
      </trkpt>
      <trkpt lat="43.32223" lon="1.83923">
        <ele>286</ele>
        <time>2022-04-13T11:49:25.999Z</time>
      </trkpt>
      <trkpt lat="43.3224" lon="1.83875">
        <ele>285</ele>
        <time>2022-04-13T11:49:30.999Z</time>
      </trkpt>
      <trkpt lat="43.32255" lon="1.83807">
        <ele>281</ele>
        <time>2022-04-13T11:49:35.999Z</time>
      </trkpt>
      <trkpt lat="43.32317" lon="1.83551">
        <ele>276</ele>
        <time>2022-04-13T11:49:40.999Z</time>
      </trkpt>
      <trkpt lat="43.32333" lon="1.83496">
        <ele>275</ele>
        <time>2022-04-13T11:49:45.999Z</time>
      </trkpt>
      <trkpt lat="43.3235" lon="1.83438">
        <ele>273</ele>
        <time>2022-04-13T11:49:50.999Z</time>
      </trkpt>
      <trkpt lat="43.32369" lon="1.83363">
        <ele>273</ele>
        <time>2022-04-13T11:49:55.999Z</time>
      </trkpt>
      <trkpt lat="43.32385" lon="1.83286">
        <ele>274</ele>
        <time>2022-04-13T11:50:00.999Z</time>
      </trkpt>
      <trkpt lat="43.32401" lon="1.83208">
        <ele>275</ele>
        <time>2022-04-13T11:50:05.999Z</time>
      </trkpt>
      <trkpt lat="43.32419" lon="1.83136">
        <ele>276</ele>
        <time>2022-04-13T11:50:10.999Z</time>
      </trkpt>
      <trkpt lat="43.32435" lon="1.83061">
        <ele>273</ele>
        <time>2022-04-13T11:50:15.999Z</time>
      </trkpt>
      <trkpt lat="43.32458" lon="1.82981">
        <ele>272</ele>
        <time>2022-04-13T11:50:20.999Z</time>
      </trkpt>
      <trkpt lat="43.32558" lon="1.82709">
        <ele>265</ele>
        <time>2022-04-13T11:50:25.999Z</time>
      </trkpt>
      <trkpt lat="43.32579" lon="1.82667">
        <ele>263</ele>
        <time>2022-04-13T11:50:30.999Z</time>
      </trkpt>
      <trkpt lat="43.32583" lon="1.82643">
        <ele>263</ele>
        <time>2022-04-13T11:50:35.999Z</time>
      </trkpt>
      <trkpt lat="43.3257" lon="1.82652">
        <ele>263</ele>
        <time>2022-04-13T11:50:40Z</time>
      </trkpt>
      <trkpt lat="43.32544" lon="1.82672">
        <ele>262</ele>
        <time>2022-04-13T11:50:45Z</time>
      </trkpt>
      <trkpt lat="43.32506" lon="1.82716">
        <ele>261</ele>
        <time>2022-04-13T11:50:50Z</time>
      </trkpt>
      <trkpt lat="43.32479" lon="1.8274">
        <ele>260</ele>
        <time>2022-04-13T11:50:55Z</time>
      </trkpt>
      <trkpt lat="43.32445" lon="1.82759">
        <ele>257</ele>
        <time>2022-04-13T11:51:00Z</time>
      </trkpt>
      <trkpt lat="43.32424" lon="1.82767">
        <ele>258</ele>
        <time>2022-04-13T11:51:05Z</time>
      </trkpt>
      <trkpt lat="43.3238" lon="1.8276">
        <ele>254</ele>
        <time>2022-04-13T11:51:10Z</time>
      </trkpt>
      <trkpt lat="43.3235" lon="1.82766">
        <ele>254</ele>
        <time>2022-04-13T11:51:14Z</time>
      </trkpt>
      <trkpt lat="43.32326" lon="1.82778">
        <ele>253</ele>
        <time>2022-04-13T11:51:19Z</time>
      </trkpt>
      <trkpt lat="43.32284" lon="1.82806">
        <ele>247</ele>
        <time>2022-04-13T11:51:23.999Z</time>
      </trkpt>
      <trkpt lat="43.3227" lon="1.82831">
        <ele>248</ele>
        <time>2022-04-13T11:51:28.999Z</time>
      </trkpt>
      <trkpt lat="43.32248" lon="1.82874">
        <ele>247</ele>
        <time>2022-04-13T11:51:33.999Z</time>
      </trkpt>
      <trkpt lat="43.32233" lon="1.82916">
        <ele>245</ele>
        <time>2022-04-13T11:51:37.999Z</time>
      </trkpt>
      <trkpt lat="43.32224" lon="1.82973">
        <ele>246</ele>
        <time>2022-04-13T11:51:42.999Z</time>
      </trkpt>
      <trkpt lat="43.3221" lon="1.82997">
        <ele>246</ele>
        <time>2022-04-13T11:51:47.999Z</time>
      </trkpt>
      <trkpt lat="43.32148" lon="1.8302">
        <ele>245</ele>
        <time>2022-04-13T11:51:52.999Z</time>
      </trkpt>
      <trkpt lat="43.32078" lon="1.83037">
        <ele>243</ele>
        <time>2022-04-13T11:51:57.999Z</time>
      </trkpt>
      <trkpt lat="43.32027" lon="1.83051">
        <ele>241</ele>
        <time>2022-04-13T11:52:25Z</time>
      </trkpt>
      <trkpt lat="43.32008" lon="1.83044">
        <ele>240</ele>
        <time>2022-04-13T11:52:30Z</time>
      </trkpt>
      <trkpt lat="43.31979" lon="1.83006">
        <ele>238</ele>
        <time>2022-04-13T11:56:08.999Z</time>
      </trkpt>
      <trkpt lat="43.31957" lon="1.82966">
        <ele>236</ele>
        <time>2022-04-13T11:56:13.999Z</time>
      </trkpt>
      <trkpt lat="43.31939" lon="1.82945">
        <ele>235</ele>
        <time>2022-04-13T11:56:18.999Z</time>
      </trkpt>
      <trkpt lat="43.31874" lon="1.8292">
        <ele>233</ele>
        <time>2022-04-13T11:56:22.999Z</time>
      </trkpt>
      <trkpt lat="43.31846" lon="1.82907">
        <ele>233</ele>
        <time>2022-04-13T11:56:27.999Z</time>
      </trkpt>
      <trkpt lat="43.31819" lon="1.82905">
        <ele>235</ele>
        <time>2022-04-13T11:56:32.999Z</time>
      </trkpt>
      <trkpt lat="43.31792" lon="1.8291">
        <ele>235</ele>
        <time>2022-04-13T11:56:37.999Z</time>
      </trkpt>
      <trkpt lat="43.31799" lon="1.82885">
        <ele>236</ele>
        <time>2022-04-13T11:56:42.999Z</time>
      </trkpt>
      <trkpt lat="43.31819" lon="1.82829">
        <ele>238</ele>
        <time>2022-04-13T11:56:47.999Z</time>
      </trkpt>
      <trkpt lat="43.31812" lon="1.82764">
        <ele>242</ele>
        <time>2022-04-13T11:56:52.999Z</time>
      </trkpt>
      <trkpt lat="43.31814" lon="1.8272">
        <ele>244</ele>
        <time>2022-04-13T11:56:57.999Z</time>
      </trkpt>
      <trkpt lat="43.31807" lon="1.82674">
        <ele>243</ele>
        <time>2022-04-13T11:57:03Z</time>
      </trkpt>
      <trkpt lat="43.31751" lon="1.82577">
        <ele>246</ele>
        <time>2022-04-13T11:57:08Z</time>
      </trkpt>
      <trkpt lat="43.31747" lon="1.82549">
        <ele>248</ele>
        <time>2022-04-13T11:57:13Z</time>
      </trkpt>
      <trkpt lat="43.31749" lon="1.82502">
        <ele>249</ele>
        <time>2022-04-13T11:57:17Z</time>
      </trkpt>
      <trkpt lat="43.3174" lon="1.82462">
        <ele>249</ele>
        <time>2022-04-13T11:57:22Z</time>
      </trkpt>
      <trkpt lat="43.31717" lon="1.82435">
        <ele>251</ele>
        <time>2022-04-13T11:57:27Z</time>
      </trkpt>
      <trkpt lat="43.31697" lon="1.82427">
        <ele>252</ele>
        <time>2022-04-13T11:57:32Z</time>
      </trkpt>
      <trkpt lat="43.31647" lon="1.82475">
        <ele>259</ele>
        <time>2022-04-13T11:57:36Z</time>
      </trkpt>
      <trkpt lat="43.316" lon="1.82525">
        <ele>264</ele>
        <time>2022-04-13T11:57:40.998Z</time>
      </trkpt>
      <trkpt lat="43.31576" lon="1.82549">
        <ele>267</ele>
        <time>2022-04-13T11:57:44.998Z</time>
      </trkpt>
      <trkpt lat="43.31554" lon="1.82562">
        <ele>267</ele>
        <time>2022-04-13T11:57:49.998Z</time>
      </trkpt>
      <trkpt lat="43.31525" lon="1.82564">
        <ele>268</ele>
        <time>2022-04-13T11:57:54.998Z</time>
      </trkpt>
      <trkpt lat="43.31506" lon="1.82546">
        <ele>273</ele>
        <time>2022-04-13T11:57:59.998Z</time>
      </trkpt>
      <trkpt lat="43.315" lon="1.82513">
        <ele>273</ele>
        <time>2022-04-13T11:58:03.999Z</time>
      </trkpt>
      <trkpt lat="43.31494" lon="1.82482">
        <ele>271</ele>
        <time>2022-04-13T11:58:08.999Z</time>
      </trkpt>
      <trkpt lat="43.31485" lon="1.8242">
        <ele>272</ele>
        <time>2022-04-13T11:58:13.999Z</time>
      </trkpt>
      <trkpt lat="43.31476" lon="1.8241">
        <ele>272</ele>
        <time>2022-04-13T11:58:17.999Z</time>
      </trkpt>
      <trkpt lat="43.3145" lon="1.82472">
        <ele>273</ele>
        <time>2022-04-13T11:58:21.999Z</time>
      </trkpt>
      <trkpt lat="43.31434" lon="1.82528">
        <ele>278</ele>
        <time>2022-04-13T11:58:26.999Z</time>
      </trkpt>
      <trkpt lat="43.31417" lon="1.82584">
        <ele>279</ele>
        <time>2022-04-13T11:58:30.999Z</time>
      </trkpt>
      <trkpt lat="43.31401" lon="1.82656">
        <ele>279</ele>
        <time>2022-04-13T11:58:46Z</time>
      </trkpt>
      <trkpt lat="43.31388" lon="1.82732">
        <ele>283</ele>
        <time>2022-04-13T11:58:50Z</time>
      </trkpt>
      <trkpt lat="43.3138" lon="1.82797">
        <ele>286</ele>
        <time>2022-04-13T11:58:54Z</time>
      </trkpt>
      <trkpt lat="43.31353" lon="1.82876">
        <ele>285</ele>
        <time>2022-04-13T11:58:59Z</time>
      </trkpt>
      <trkpt lat="43.31335" lon="1.82946">
        <ele>287</ele>
        <time>2022-04-13T11:59:04Z</time>
      </trkpt>
      <trkpt lat="43.31317" lon="1.83014">
        <ele>289</ele>
        <time>2022-04-13T11:59:09Z</time>
      </trkpt>
      <trkpt lat="43.31302" lon="1.83077">
        <ele>291</ele>
        <time>2022-04-13T11:59:14Z</time>
      </trkpt>
      <trkpt lat="43.31295" lon="1.83104">
        <ele>289</ele>
        <time>2022-04-13T11:59:19Z</time>
      </trkpt>
      <trkpt lat="43.31277" lon="1.83138">
        <ele>289</ele>
        <time>2022-04-13T11:59:24Z</time>
      </trkpt>
      <trkpt lat="43.31273" lon="1.83183">
        <ele>286</ele>
        <time>2022-04-13T11:59:29.001Z</time>
      </trkpt>
      <trkpt lat="43.31252" lon="1.83237">
        <ele>289</ele>
        <time>2022-04-13T11:59:34.001Z</time>
      </trkpt>
      <trkpt lat="43.31232" lon="1.83281">
        <ele>289</ele>
        <time>2022-04-13T11:59:39.001Z</time>
      </trkpt>
      <trkpt lat="43.31209" lon="1.83333">
        <ele>288</ele>
        <time>2022-04-13T11:59:43.001Z</time>
      </trkpt>
      <trkpt lat="43.31192" lon="1.83383">
        <ele>288</ele>
        <time>2022-04-13T11:59:47.998Z</time>
      </trkpt>
      <trkpt lat="43.3117" lon="1.83434">
        <ele>290</ele>
        <time>2022-04-13T11:59:51.998Z</time>
      </trkpt>
      <trkpt lat="43.31152" lon="1.8346">
        <ele>292</ele>
        <time>2022-04-13T11:59:55.998Z</time>
      </trkpt>
      <trkpt lat="43.31126" lon="1.83465">
        <ele>292</ele>
        <time>2022-04-13T12:00:00.998Z</time>
      </trkpt>
      <trkpt lat="43.31104" lon="1.83497">
        <ele>290</ele>
        <time>2022-04-13T12:00:05.998Z</time>
      </trkpt>
      <trkpt lat="43.31092" lon="1.8352">
        <ele>286</ele>
        <time>2022-04-13T12:00:10.999Z</time>
      </trkpt>
      <trkpt lat="43.31091" lon="1.83522">
        <ele>286</ele>
        <time>2022-04-13T12:00:15.999Z</time>
      </trkpt>
      <trkpt lat="43.31014" lon="1.83602">
        <ele>277</ele>
        <time>2022-04-13T12:00:20.999Z</time>
      </trkpt>
      <trkpt lat="43.3094" lon="1.83733">
        <ele>274</ele>
        <time>2022-04-13T12:00:25.999Z</time>
      </trkpt>
      <trkpt lat="43.30867" lon="1.839">
        <ele>264</ele>
        <time>2022-04-13T12:00:30.999Z</time>
      </trkpt>
      <trkpt lat="43.30796" lon="1.84002">
        <ele>261</ele>
        <time>2022-04-13T12:00:35.999Z</time>
      </trkpt>
      <trkpt lat="43.30759" lon="1.83996">
        <ele>257</ele>
        <time>2022-04-13T12:00:41Z</time>
      </trkpt>
      <trkpt lat="43.30746" lon="1.83958">
        <ele>253</ele>
        <time>2022-04-13T12:00:46Z</time>
      </trkpt>
      <trkpt lat="43.30732" lon="1.83939">
        <ele>254</ele>
        <time>2022-04-13T12:00:50Z</time>
      </trkpt>
      <trkpt lat="43.3071" lon="1.83923">
        <ele>253</ele>
        <time>2022-04-13T12:00:55Z</time>
      </trkpt>
      <trkpt lat="43.30687" lon="1.83925">
        <ele>253</ele>
        <time>2022-04-13T12:01:00Z</time>
      </trkpt>
      <trkpt lat="43.30676" lon="1.83934">
        <ele>254</ele>
        <time>2022-04-13T12:01:05Z</time>
      </trkpt>
      <trkpt lat="43.30658" lon="1.83955">
        <ele>254</ele>
        <time>2022-04-13T12:01:10Z</time>
      </trkpt>
      <trkpt lat="43.30626" lon="1.83975">
        <ele>254</ele>
        <time>2022-04-13T12:01:14Z</time>
      </trkpt>
      <trkpt lat="43.30601" lon="1.83961">
        <ele>254</ele>
        <time>2022-04-13T12:01:19Z</time>
      </trkpt>
      <trkpt lat="43.30589" lon="1.83928">
        <ele>257</ele>
        <time>2022-04-13T12:01:36.001Z</time>
      </trkpt>
      <trkpt lat="43.3059" lon="1.83859">
        <ele>257</ele>
        <time>2022-04-13T12:01:41.001Z</time>
      </trkpt>
      <trkpt lat="43.30571" lon="1.8383">
        <ele>257</ele>
        <time>2022-04-13T12:01:45.001Z</time>
      </trkpt>
      <trkpt lat="43.30547" lon="1.83815">
        <ele>259</ele>
        <time>2022-04-13T12:01:50.001Z</time>
      </trkpt>
      <trkpt lat="43.30503" lon="1.83809">
        <ele>257</ele>
        <time>2022-04-13T12:01:53.998Z</time>
      </trkpt>
      <trkpt lat="43.3045" lon="1.83824">
        <ele>256</ele>
        <time>2022-04-13T12:01:58.998Z</time>
      </trkpt>
      <trkpt lat="43.30416" lon="1.83879">
        <ele>255</ele>
        <time>2022-04-13T12:02:03.998Z</time>
      </trkpt>
      <trkpt lat="43.30393" lon="1.8396">
        <ele>251</ele>
        <time>2022-04-13T12:02:08.998Z</time>
      </trkpt>
      <trkpt lat="43.30372" lon="1.84048">
        <ele>247</ele>
        <time>2022-04-13T12:02:13.999Z</time>
      </trkpt>
      <trkpt lat="43.30351" lon="1.84119">
        <ele>249</ele>
        <time>2022-04-13T12:02:18.999Z</time>
      </trkpt>
      <trkpt lat="43.30301" lon="1.84121">
        <ele>246</ele>
        <time>2022-04-13T12:02:23.999Z</time>
      </trkpt>
      <trkpt lat="43.30251" lon="1.8408">
        <ele>245</ele>
        <time>2022-04-13T12:02:28.999Z</time>
      </trkpt>
      <trkpt lat="43.30236" lon="1.84007">
        <ele>242</ele>
        <time>2022-04-13T12:02:33.999Z</time>
      </trkpt>
      <trkpt lat="43.30218" lon="1.83989">
        <ele>242</ele>
        <time>2022-04-13T12:02:39Z</time>
      </trkpt>
      <trkpt lat="43.30192" lon="1.84002">
        <ele>241</ele>
        <time>2022-04-13T12:02:44Z</time>
      </trkpt>
      <trkpt lat="43.30144" lon="1.84031">
        <ele>240</ele>
        <time>2022-04-13T12:02:49Z</time>
      </trkpt>
      <trkpt lat="43.30083" lon="1.84085">
        <ele>243</ele>
        <time>2022-04-13T12:02:54Z</time>
      </trkpt>
      <trkpt lat="43.30021" lon="1.84137">
        <ele>241</ele>
        <time>2022-04-13T12:03:39.001Z</time>
      </trkpt>
      <trkpt lat="43.29972" lon="1.84163">
        <ele>237</ele>
        <time>2022-04-13T12:03:44.001Z</time>
      </trkpt>
      <trkpt lat="43.29904" lon="1.84146">
        <ele>235</ele>
        <time>2022-04-13T12:03:49.001Z</time>
      </trkpt>
      <trkpt lat="43.29847" lon="1.84118">
        <ele>232</ele>
        <time>2022-04-13T12:03:54.001Z</time>
      </trkpt>
      <trkpt lat="43.29774" lon="1.84082">
        <ele>237</ele>
        <time>2022-04-13T12:03:58.999Z</time>
      </trkpt>
      <trkpt lat="43.29707" lon="1.8406">
        <ele>246</ele>
        <time>2022-04-13T12:04:03.999Z</time>
      </trkpt>
      <trkpt lat="43.29653" lon="1.84034">
        <ele>246</ele>
        <time>2022-04-13T12:04:08.999Z</time>
      </trkpt>
      <trkpt lat="43.29628" lon="1.84018">
        <ele>248</ele>
        <time>2022-04-13T12:04:13.999Z</time>
      </trkpt>
      <trkpt lat="43.29639" lon="1.83963">
        <ele>250</ele>
        <time>2022-04-13T12:04:18.999Z</time>
      </trkpt>
      <trkpt lat="43.2965" lon="1.83913">
        <ele>251</ele>
        <time>2022-04-13T12:04:24Z</time>
      </trkpt>
      <trkpt lat="43.29668" lon="1.83895">
        <ele>251</ele>
        <time>2022-04-13T12:04:29Z</time>
      </trkpt>
      <trkpt lat="43.29705" lon="1.83849">
        <ele>252</ele>
        <time>2022-04-13T12:04:34Z</time>
      </trkpt>
      <trkpt lat="43.29729" lon="1.83785">
        <ele>255</ele>
        <time>2022-04-13T12:04:39Z</time>
      </trkpt>
      <trkpt lat="43.29765" lon="1.83697">
        <ele>256</ele>
        <time>2022-04-13T12:04:44Z</time>
      </trkpt>
      <trkpt lat="43.29789" lon="1.8362">
        <ele>261</ele>
        <time>2022-04-13T12:04:49Z</time>
      </trkpt>
      <trkpt lat="43.29805" lon="1.83533">
        <ele>262</ele>
        <time>2022-04-13T12:04:54.001Z</time>
      </trkpt>
      <trkpt lat="43.298" lon="1.83447">
        <ele>260</ele>
        <time>2022-04-13T12:04:59.001Z</time>
      </trkpt>
      <trkpt lat="43.29822" lon="1.83363">
        <ele>258</ele>
        <time>2022-04-13T12:05:04.001Z</time>
      </trkpt>
      <trkpt lat="43.29832" lon="1.83326">
        <ele>258</ele>
        <time>2022-04-13T12:05:09.001Z</time>
      </trkpt>
      <trkpt lat="43.29819" lon="1.83296">
        <ele>257</ele>
        <time>2022-04-13T12:05:14.001Z</time>
      </trkpt>
      <trkpt lat="43.29773" lon="1.83245">
        <ele>254</ele>
        <time>2022-04-13T12:05:19.001Z</time>
      </trkpt>
      <trkpt lat="43.29759" lon="1.83157">
        <ele>255</ele>
        <time>2022-04-13T12:05:24.001Z</time>
      </trkpt>
      <trkpt lat="43.29756" lon="1.83065">
        <ele>253</ele>
        <time>2022-04-13T12:05:29.001Z</time>
      </trkpt>
      <trkpt lat="43.29771" lon="1.82983">
        <ele>253</ele>
        <time>2022-04-13T12:05:34.002Z</time>
      </trkpt>
      <trkpt lat="43.29781" lon="1.82904">
        <ele>255</ele>
        <time>2022-04-13T12:05:39.002Z</time>
      </trkpt>
      <trkpt lat="43.29771" lon="1.8282">
        <ele>264</ele>
        <time>2022-04-13T12:05:44.002Z</time>
      </trkpt>
      <trkpt lat="43.29812" lon="1.82778">
        <ele>269</ele>
        <time>2022-04-13T12:05:49.002Z</time>
      </trkpt>
      <trkpt lat="43.29821" lon="1.82709">
        <ele>270</ele>
        <time>2022-04-13T12:05:52.002Z</time>
      </trkpt>
      <trkpt lat="43.29809" lon="1.82631">
        <ele>277</ele>
        <time>2022-04-13T12:16:43Z</time>
      </trkpt>
      <trkpt lat="43.29787" lon="1.8255">
        <ele>285</ele>
        <time>2022-04-13T12:16:48Z</time>
      </trkpt>
      <trkpt lat="43.29782" lon="1.82457">
        <ele>289</ele>
        <time>2022-04-13T12:16:53Z</time>
      </trkpt>
      <trkpt lat="43.29798" lon="1.82354">
        <ele>288</ele>
        <time>2022-04-13T12:16:57Z</time>
      </trkpt>
      <trkpt lat="43.29825" lon="1.82283">
        <ele>286</ele>
        <time>2022-04-13T12:17:02Z</time>
      </trkpt>
      <trkpt lat="43.29856" lon="1.82192">
        <ele>289</ele>
        <time>2022-04-13T12:17:06Z</time>
      </trkpt>
      <trkpt lat="43.2988" lon="1.821">
        <ele>289</ele>
        <time>2022-04-13T12:17:11Z</time>
      </trkpt>
      <trkpt lat="43.2989" lon="1.82007">
        <ele>291</ele>
        <time>2022-04-13T12:17:16Z</time>
      </trkpt>
      <trkpt lat="43.29923" lon="1.81923">
        <ele>293</ele>
        <time>2022-04-13T12:17:21Z</time>
      </trkpt>
      <trkpt lat="43.29942" lon="1.81848">
        <ele>292</ele>
        <time>2022-04-13T12:17:26Z</time>
      </trkpt>
      <trkpt lat="43.29957" lon="1.81744">
        <ele>290</ele>
        <time>2022-04-13T12:17:31Z</time>
      </trkpt>
      <trkpt lat="43.29991" lon="1.81653">
        <ele>292</ele>
        <time>2022-04-13T12:17:36Z</time>
      </trkpt>
      <trkpt lat="43.30039" lon="1.81571">
        <ele>293</ele>
        <time>2022-04-13T12:17:40Z</time>
      </trkpt>
      <trkpt lat="43.30082" lon="1.81489">
        <ele>287</ele>
        <time>2022-04-13T12:17:45Z</time>
      </trkpt>
      <trkpt lat="43.30104" lon="1.81395">
        <ele>293</ele>
        <time>2022-04-13T12:17:50Z</time>
      </trkpt>
      <trkpt lat="43.30126" lon="1.81297">
        <ele>292</ele>
        <time>2022-04-13T12:17:54Z</time>
      </trkpt>
      <trkpt lat="43.3015" lon="1.81193">
        <ele>281</ele>
        <time>2022-04-13T12:17:59Z</time>
      </trkpt>
      <trkpt lat="43.30179" lon="1.81092">
        <ele>282</ele>
        <time>2022-04-13T12:18:04Z</time>
      </trkpt>
      <trkpt lat="43.30211" lon="1.81008">
        <ele>281</ele>
        <time>2022-04-13T12:18:09Z</time>
      </trkpt>
      <trkpt lat="43.30227" lon="1.80969">
        <ele>280</ele>
        <time>2022-04-13T12:18:14Z</time>
      </trkpt>
      <trkpt lat="43.30246" lon="1.80991">
        <ele>280</ele>
        <time>2022-04-13T12:18:19Z</time>
      </trkpt>
      <trkpt lat="43.30288" lon="1.8101">
        <ele>280</ele>
        <time>2022-04-13T12:18:24Z</time>
      </trkpt>
      <trkpt lat="43.30345" lon="1.81003">
        <ele>277</ele>
        <time>2022-04-13T12:18:29Z</time>
      </trkpt>
      <trkpt lat="43.30397" lon="1.80973">
        <ele>279</ele>
        <time>2022-04-13T12:18:34Z</time>
      </trkpt>
      <trkpt lat="43.30458" lon="1.8092">
        <ele>281</ele>
        <time>2022-04-13T12:18:39Z</time>
      </trkpt>
      <trkpt lat="43.30484" lon="1.80896">
        <ele>280</ele>
        <time>2022-04-13T12:18:44Z</time>
      </trkpt>
      <trkpt lat="43.30521" lon="1.80882">
        <ele>276</ele>
        <time>2022-04-13T12:18:49Z</time>
      </trkpt>
      <trkpt lat="43.30558" lon="1.80878">
        <ele>274</ele>
        <time>2022-04-13T12:18:54Z</time>
      </trkpt>
      <trkpt lat="43.30576" lon="1.80908">
        <ele>271</ele>
        <time>2022-04-13T12:18:58.999Z</time>
      </trkpt>
      <trkpt lat="43.30609" lon="1.80941">
        <ele>270</ele>
        <time>2022-04-13T12:19:03.999Z</time>
      </trkpt>
      <trkpt lat="43.30654" lon="1.80904">
        <ele>267</ele>
        <time>2022-04-13T12:19:09Z</time>
      </trkpt>
      <trkpt lat="43.30693" lon="1.80854">
        <ele>269</ele>
        <time>2022-04-13T12:19:14Z</time>
      </trkpt>
      <trkpt lat="43.30749" lon="1.80778">
        <ele>263</ele>
        <time>2022-04-13T12:19:19Z</time>
      </trkpt>
      <trkpt lat="43.30799" lon="1.80703">
        <ele>263</ele>
        <time>2022-04-13T12:19:24Z</time>
      </trkpt>
      <trkpt lat="43.30826" lon="1.80683">
        <ele>261</ele>
        <time>2022-04-13T12:19:29Z</time>
      </trkpt>
      <trkpt lat="43.30858" lon="1.80701">
        <ele>262</ele>
        <time>2022-04-13T12:19:34Z</time>
      </trkpt>
      <trkpt lat="43.30922" lon="1.80695">
        <ele>257</ele>
        <time>2022-04-13T12:19:39Z</time>
      </trkpt>
      <trkpt lat="43.30963" lon="1.80664">
        <ele>254</ele>
        <time>2022-04-13T12:19:44Z</time>
      </trkpt>
      <trkpt lat="43.31009" lon="1.80688">
        <ele>248</ele>
        <time>2022-04-13T12:19:49Z</time>
      </trkpt>
      <trkpt lat="43.31059" lon="1.80702">
        <ele>246</ele>
        <time>2022-04-13T12:19:54Z</time>
      </trkpt>
      <trkpt lat="43.31081" lon="1.80664">
        <ele>245</ele>
        <time>2022-04-13T12:19:59Z</time>
      </trkpt>
      <trkpt lat="43.31122" lon="1.8064">
        <ele>246</ele>
        <time>2022-04-13T12:20:04Z</time>
      </trkpt>
      <trkpt lat="43.31145" lon="1.80554">
        <ele>251</ele>
        <time>2022-04-13T12:20:08.999Z</time>
      </trkpt>
      <trkpt lat="43.31152" lon="1.80486">
        <ele>258</ele>
        <time>2022-04-13T12:20:13.999Z</time>
      </trkpt>
      <trkpt lat="43.31139" lon="1.80396">
        <ele>262</ele>
        <time>2022-04-13T12:20:18.999Z</time>
      </trkpt>
      <trkpt lat="43.31137" lon="1.80338">
        <ele>264</ele>
        <time>2022-04-13T12:20:36.999Z</time>
      </trkpt>
      <trkpt lat="43.31142" lon="1.80315">
        <ele>264</ele>
        <time>2022-04-13T12:20:41.999Z</time>
      </trkpt>
      <trkpt lat="43.31175" lon="1.80324">
        <ele>263</ele>
        <time>2022-04-13T12:20:46.999Z</time>
      </trkpt>
      <trkpt lat="43.31206" lon="1.8031">
        <ele>261</ele>
        <time>2022-04-13T12:20:51.999Z</time>
      </trkpt>
      <trkpt lat="43.31229" lon="1.80282">
        <ele>259</ele>
        <time>2022-04-13T12:20:56.999Z</time>
      </trkpt>
      <trkpt lat="43.31259" lon="1.80252">
        <ele>257</ele>
        <time>2022-04-13T12:21:00.999Z</time>
      </trkpt>
      <trkpt lat="43.31284" lon="1.80226">
        <ele>255</ele>
        <time>2022-04-13T12:21:05.999Z</time>
      </trkpt>
      <trkpt lat="43.31315" lon="1.80194">
        <ele>254</ele>
        <time>2022-04-13T12:21:10.999Z</time>
      </trkpt>
      <trkpt lat="43.3134" lon="1.80179">
        <ele>254</ele>
        <time>2022-04-13T12:21:16Z</time>
      </trkpt>
    </trkseg>
  </trk>
</gpx>